<?xml version="1.0" encoding="UTF-8" standalone="no" ?>
<gpx xmlns="http://www.topografix.com/GPX/1/1" xmlns:xsi="http://www.w3.org/2001/XMLSchema-instance" xsi:schemaLocation="http://www.topografix.com/GPX/1/1 http://www.topografix.com/GPX/1/1/gpx.xsd" version="1.1" creator="VisuGPX - https://www.visugpx.com">
  <metadata>
    <name>Iles-Frioul</name>
    <desc><![CDATA[grenami :
parcours des iles sur toute leur longueur
avec la visite animée des gabians au Sud...!]]></desc>
  </metadata>
  <trk>
    <name><![CDATA[05-MAI-17 16:15:54]]></name>
    <trkseg>
      <trkpt lat="43.27925" lon="5.30637">
        <ele>0.62</ele>
        <time>2017-05-05T09:14:46Z</time>
      </trkpt>
      <trkpt lat="43.2792" lon="5.30634">
        <ele>0.62</ele>
        <time>2017-05-05T09:14:51Z</time>
      </trkpt>
      <trkpt lat="43.27916" lon="5.30631">
        <ele>0.62</ele>
        <time>2017-05-05T09:14:55Z</time>
      </trkpt>
      <trkpt lat="43.27915" lon="5.30631">
        <ele>0.62</ele>
        <time>2017-05-05T09:14:57Z</time>
      </trkpt>
      <trkpt lat="43.27912" lon="5.30629">
        <ele>0.62</ele>
        <time>2017-05-05T09:15:00Z</time>
      </trkpt>
      <trkpt lat="43.27918" lon="5.30628">
        <ele>1.1</ele>
        <time>2017-05-05T09:15:07Z</time>
      </trkpt>
      <trkpt lat="43.27925" lon="5.30625">
        <ele>1.58</ele>
        <time>2017-05-05T09:15:19Z</time>
      </trkpt>
      <trkpt lat="43.27929" lon="5.30625">
        <ele>1.58</ele>
        <time>2017-05-05T09:15:30Z</time>
      </trkpt>
      <trkpt lat="43.27932" lon="5.30631">
        <ele>-3.23</ele>
        <time>2017-05-05T09:15:37Z</time>
      </trkpt>
      <trkpt lat="43.27933" lon="5.30632">
        <ele>4.94</ele>
        <time>2017-05-05T09:15:38Z</time>
      </trkpt>
      <trkpt lat="43.27934" lon="5.30634">
        <ele>1.58</ele>
        <time>2017-05-05T09:15:40Z</time>
      </trkpt>
      <trkpt lat="43.2794" lon="5.30639">
        <ele>1.58</ele>
        <time>2017-05-05T09:15:53Z</time>
      </trkpt>
      <trkpt lat="43.27945" lon="5.30642">
        <ele>2.06</ele>
        <time>2017-05-05T09:15:59Z</time>
      </trkpt>
      <trkpt lat="43.27955" lon="5.30655">
        <ele>1.58</ele>
        <time>2017-05-05T09:16:12Z</time>
      </trkpt>
      <trkpt lat="43.27966" lon="5.30669">
        <ele>1.58</ele>
        <time>2017-05-05T09:16:25Z</time>
      </trkpt>
      <trkpt lat="43.27978" lon="5.30678">
        <ele>1.58</ele>
        <time>2017-05-05T09:16:39Z</time>
      </trkpt>
      <trkpt lat="43.27983" lon="5.3068">
        <ele>2.06</ele>
        <time>2017-05-05T09:16:44Z</time>
      </trkpt>
      <trkpt lat="43.27985" lon="5.3068">
        <ele>2.06</ele>
        <time>2017-05-05T09:16:46Z</time>
      </trkpt>
      <trkpt lat="43.27987" lon="5.30679">
        <ele>2.06</ele>
        <time>2017-05-05T09:16:49Z</time>
      </trkpt>
      <trkpt lat="43.27998" lon="5.30679">
        <ele>2.06</ele>
        <time>2017-05-05T09:16:59Z</time>
      </trkpt>
      <trkpt lat="43.28" lon="5.30679">
        <ele>2.06</ele>
        <time>2017-05-05T09:17:01Z</time>
      </trkpt>
      <trkpt lat="43.28003" lon="5.30679">
        <ele>2.06</ele>
        <time>2017-05-05T09:17:03Z</time>
      </trkpt>
      <trkpt lat="43.28018" lon="5.30683">
        <ele>2.06</ele>
        <time>2017-05-05T09:17:18Z</time>
      </trkpt>
      <trkpt lat="43.28033" lon="5.30689">
        <ele>2.06</ele>
        <time>2017-05-05T09:17:31Z</time>
      </trkpt>
      <trkpt lat="43.28046" lon="5.30692">
        <ele>2.06</ele>
        <time>2017-05-05T09:17:42Z</time>
      </trkpt>
      <trkpt lat="43.28058" lon="5.30697">
        <ele>2.06</ele>
        <time>2017-05-05T09:17:53Z</time>
      </trkpt>
      <trkpt lat="43.28062" lon="5.30699">
        <ele>1.58</ele>
        <time>2017-05-05T09:17:57Z</time>
      </trkpt>
      <trkpt lat="43.28075" lon="5.30708">
        <ele>2.06</ele>
        <time>2017-05-05T09:18:10Z</time>
      </trkpt>
      <trkpt lat="43.28086" lon="5.30714">
        <ele>2.06</ele>
        <time>2017-05-05T09:18:19Z</time>
      </trkpt>
      <trkpt lat="43.28095" lon="5.30721">
        <ele>2.06</ele>
        <time>2017-05-05T09:18:28Z</time>
      </trkpt>
      <trkpt lat="43.2811" lon="5.30733">
        <ele>2.54</ele>
        <time>2017-05-05T09:18:43Z</time>
      </trkpt>
      <trkpt lat="43.28121" lon="5.30741">
        <ele>2.06</ele>
        <time>2017-05-05T09:18:54Z</time>
      </trkpt>
      <trkpt lat="43.28136" lon="5.30755">
        <ele>2.06</ele>
        <time>2017-05-05T09:19:08Z</time>
      </trkpt>
      <trkpt lat="43.28139" lon="5.3076">
        <ele>2.06</ele>
        <time>2017-05-05T09:19:12Z</time>
      </trkpt>
      <trkpt lat="43.28149" lon="5.3077">
        <ele>2.06</ele>
        <time>2017-05-05T09:19:23Z</time>
      </trkpt>
      <trkpt lat="43.28161" lon="5.30784">
        <ele>2.06</ele>
        <time>2017-05-05T09:19:38Z</time>
      </trkpt>
      <trkpt lat="43.28175" lon="5.30799">
        <ele>2.06</ele>
        <time>2017-05-05T09:19:53Z</time>
      </trkpt>
      <trkpt lat="43.28182" lon="5.30806">
        <ele>2.06</ele>
        <time>2017-05-05T09:20:00Z</time>
      </trkpt>
      <trkpt lat="43.28194" lon="5.30823">
        <ele>2.06</ele>
        <time>2017-05-05T09:20:14Z</time>
      </trkpt>
      <trkpt lat="43.28208" lon="5.30841">
        <ele>2.06</ele>
        <time>2017-05-05T09:20:29Z</time>
      </trkpt>
      <trkpt lat="43.28218" lon="5.30861">
        <ele>2.06</ele>
        <time>2017-05-05T09:20:44Z</time>
      </trkpt>
      <trkpt lat="43.28229" lon="5.30874">
        <ele>2.06</ele>
        <time>2017-05-05T09:20:56Z</time>
      </trkpt>
      <trkpt lat="43.28239" lon="5.30888">
        <ele>2.06</ele>
        <time>2017-05-05T09:21:08Z</time>
      </trkpt>
      <trkpt lat="43.28243" lon="5.3091">
        <ele>2.06</ele>
        <time>2017-05-05T09:21:22Z</time>
      </trkpt>
      <trkpt lat="43.28238" lon="5.3094">
        <ele>2.06</ele>
        <time>2017-05-05T09:21:37Z</time>
      </trkpt>
      <trkpt lat="43.28237" lon="5.30941">
        <ele>2.06</ele>
        <time>2017-05-05T09:21:38Z</time>
      </trkpt>
      <trkpt lat="43.28229" lon="5.30965">
        <ele>2.06</ele>
        <time>2017-05-05T09:21:53Z</time>
      </trkpt>
      <trkpt lat="43.28223" lon="5.30985">
        <ele>1.58</ele>
        <time>2017-05-05T09:22:06Z</time>
      </trkpt>
      <trkpt lat="43.28221" lon="5.30987">
        <ele>1.58</ele>
        <time>2017-05-05T09:22:08Z</time>
      </trkpt>
      <trkpt lat="43.28217" lon="5.30996">
        <ele>1.58</ele>
        <time>2017-05-05T09:22:13Z</time>
      </trkpt>
      <trkpt lat="43.28214" lon="5.31008">
        <ele>1.58</ele>
        <time>2017-05-05T09:22:20Z</time>
      </trkpt>
      <trkpt lat="43.2821" lon="5.3103">
        <ele>1.58</ele>
        <time>2017-05-05T09:22:34Z</time>
      </trkpt>
      <trkpt lat="43.28203" lon="5.31056">
        <ele>1.1</ele>
        <time>2017-05-05T09:22:50Z</time>
      </trkpt>
      <trkpt lat="43.28196" lon="5.3108">
        <ele>1.1</ele>
        <time>2017-05-05T09:23:06Z</time>
      </trkpt>
      <trkpt lat="43.28189" lon="5.31083">
        <ele>1.1</ele>
        <time>2017-05-05T09:23:12Z</time>
      </trkpt>
      <trkpt lat="43.28189" lon="5.31089">
        <ele>1.1</ele>
        <time>2017-05-05T09:23:16Z</time>
      </trkpt>
      <trkpt lat="43.28184" lon="5.31108">
        <ele>1.1</ele>
        <time>2017-05-05T09:23:29Z</time>
      </trkpt>
      <trkpt lat="43.28177" lon="5.31133">
        <ele>2.06</ele>
        <time>2017-05-05T09:23:44Z</time>
      </trkpt>
      <trkpt lat="43.28171" lon="5.31155">
        <ele>1.1</ele>
        <time>2017-05-05T09:23:58Z</time>
      </trkpt>
      <trkpt lat="43.28161" lon="5.31171">
        <ele>1.58</ele>
        <time>2017-05-05T09:24:11Z</time>
      </trkpt>
      <trkpt lat="43.28161" lon="5.31174">
        <ele>1.1</ele>
        <time>2017-05-05T09:24:14Z</time>
      </trkpt>
      <trkpt lat="43.2816" lon="5.31185">
        <ele>1.1</ele>
        <time>2017-05-05T09:24:22Z</time>
      </trkpt>
      <trkpt lat="43.28154" lon="5.3121">
        <ele>1.58</ele>
        <time>2017-05-05T09:24:40Z</time>
      </trkpt>
      <trkpt lat="43.28147" lon="5.31229">
        <ele>1.58</ele>
        <time>2017-05-05T09:24:52Z</time>
      </trkpt>
      <trkpt lat="43.28135" lon="5.31251">
        <ele>1.58</ele>
        <time>2017-05-05T09:25:06Z</time>
      </trkpt>
      <trkpt lat="43.28124" lon="5.31267">
        <ele>2.06</ele>
        <time>2017-05-05T09:25:19Z</time>
      </trkpt>
      <trkpt lat="43.28119" lon="5.31282">
        <ele>2.06</ele>
        <time>2017-05-05T09:25:32Z</time>
      </trkpt>
      <trkpt lat="43.28123" lon="5.31301">
        <ele>2.54</ele>
        <time>2017-05-05T09:25:48Z</time>
      </trkpt>
      <trkpt lat="43.28127" lon="5.31317">
        <ele>2.06</ele>
        <time>2017-05-05T09:26:00Z</time>
      </trkpt>
      <trkpt lat="43.28128" lon="5.3132">
        <ele>2.54</ele>
        <time>2017-05-05T09:26:02Z</time>
      </trkpt>
      <trkpt lat="43.28128" lon="5.31325">
        <ele>2.54</ele>
        <time>2017-05-05T09:26:17Z</time>
      </trkpt>
      <trkpt lat="43.28127" lon="5.31324">
        <ele>2.54</ele>
        <time>2017-05-05T09:26:21Z</time>
      </trkpt>
      <trkpt lat="43.28125" lon="5.31321">
        <ele>2.54</ele>
        <time>2017-05-05T09:26:25Z</time>
      </trkpt>
      <trkpt lat="43.28124" lon="5.31319">
        <ele>2.54</ele>
        <time>2017-05-05T09:26:27Z</time>
      </trkpt>
      <trkpt lat="43.28121" lon="5.31311">
        <ele>2.06</ele>
        <time>2017-05-05T09:26:42Z</time>
      </trkpt>
      <trkpt lat="43.28122" lon="5.31311">
        <ele>2.54</ele>
        <time>2017-05-05T09:27:02Z</time>
      </trkpt>
      <trkpt lat="43.28122" lon="5.31311">
        <ele>2.54</ele>
        <time>2017-05-05T09:27:26Z</time>
      </trkpt>
      <trkpt lat="43.28121" lon="5.31311">
        <ele>2.54</ele>
        <time>2017-05-05T09:27:43Z</time>
      </trkpt>
      <trkpt lat="43.28121" lon="5.31311">
        <ele>2.54</ele>
        <time>2017-05-05T09:28:12Z</time>
      </trkpt>
      <trkpt lat="43.28121" lon="5.31311">
        <ele>2.54</ele>
        <time>2017-05-05T09:28:40Z</time>
      </trkpt>
      <trkpt lat="43.28121" lon="5.31311">
        <ele>2.54</ele>
        <time>2017-05-05T09:29:03Z</time>
      </trkpt>
      <trkpt lat="43.28121" lon="5.31312">
        <ele>2.54</ele>
        <time>2017-05-05T09:29:30Z</time>
      </trkpt>
      <trkpt lat="43.28121" lon="5.31311">
        <ele>2.54</ele>
        <time>2017-05-05T09:30:02Z</time>
      </trkpt>
      <trkpt lat="43.28121" lon="5.31311">
        <ele>2.54</ele>
        <time>2017-05-05T09:30:27Z</time>
      </trkpt>
      <trkpt lat="43.28121" lon="5.31311">
        <ele>2.54</ele>
        <time>2017-05-05T09:30:52Z</time>
      </trkpt>
      <trkpt lat="43.28122" lon="5.3131">
        <ele>2.54</ele>
        <time>2017-05-05T09:31:17Z</time>
      </trkpt>
      <trkpt lat="43.28122" lon="5.31311">
        <ele>2.54</ele>
        <time>2017-05-05T09:31:44Z</time>
      </trkpt>
      <trkpt lat="43.28122" lon="5.3131">
        <ele>2.54</ele>
        <time>2017-05-05T09:32:09Z</time>
      </trkpt>
      <trkpt lat="43.28122" lon="5.3131">
        <ele>3.02</ele>
        <time>2017-05-05T09:32:28Z</time>
      </trkpt>
      <trkpt lat="43.28122" lon="5.3131">
        <ele>3.02</ele>
        <time>2017-05-05T09:32:57Z</time>
      </trkpt>
      <trkpt lat="43.28123" lon="5.31313">
        <ele>3.02</ele>
        <time>2017-05-05T09:33:17Z</time>
      </trkpt>
      <trkpt lat="43.28127" lon="5.3132">
        <ele>3.02</ele>
        <time>2017-05-05T09:33:23Z</time>
      </trkpt>
      <trkpt lat="43.28137" lon="5.31339">
        <ele>3.02</ele>
        <time>2017-05-05T09:33:37Z</time>
      </trkpt>
      <trkpt lat="43.28143" lon="5.31354">
        <ele>3.5</ele>
        <time>2017-05-05T09:33:51Z</time>
      </trkpt>
      <trkpt lat="43.28147" lon="5.31372">
        <ele>3.5</ele>
        <time>2017-05-05T09:34:04Z</time>
      </trkpt>
      <trkpt lat="43.28152" lon="5.31388">
        <ele>3.5</ele>
        <time>2017-05-05T09:34:15Z</time>
      </trkpt>
      <trkpt lat="43.28157" lon="5.31407">
        <ele>3.5</ele>
        <time>2017-05-05T09:34:29Z</time>
      </trkpt>
      <trkpt lat="43.28165" lon="5.31429">
        <ele>3.98</ele>
        <time>2017-05-05T09:34:42Z</time>
      </trkpt>
      <trkpt lat="43.28169" lon="5.31449">
        <ele>3.98</ele>
        <time>2017-05-05T09:34:55Z</time>
      </trkpt>
      <trkpt lat="43.28169" lon="5.3145">
        <ele>3.98</ele>
        <time>2017-05-05T09:34:56Z</time>
      </trkpt>
      <trkpt lat="43.28171" lon="5.31456">
        <ele>3.98</ele>
        <time>2017-05-05T09:35:00Z</time>
      </trkpt>
      <trkpt lat="43.28178" lon="5.31463">
        <ele>4.46</ele>
        <time>2017-05-05T09:35:08Z</time>
      </trkpt>
      <trkpt lat="43.28182" lon="5.31483">
        <ele>4.94</ele>
        <time>2017-05-05T09:35:21Z</time>
      </trkpt>
      <trkpt lat="43.28182" lon="5.31488">
        <ele>4.94</ele>
        <time>2017-05-05T09:35:24Z</time>
      </trkpt>
      <trkpt lat="43.28184" lon="5.31496">
        <ele>7.83</ele>
        <time>2017-05-05T09:35:38Z</time>
      </trkpt>
      <trkpt lat="43.28185" lon="5.31496">
        <ele>11.19</ele>
        <time>2017-05-05T09:35:49Z</time>
      </trkpt>
      <trkpt lat="43.28185" lon="5.31497">
        <ele>14.08</ele>
        <time>2017-05-05T09:36:00Z</time>
      </trkpt>
      <trkpt lat="43.28188" lon="5.315">
        <ele>14.56</ele>
        <time>2017-05-05T09:36:08Z</time>
      </trkpt>
      <trkpt lat="43.2819" lon="5.31502">
        <ele>14.56</ele>
        <time>2017-05-05T09:36:10Z</time>
      </trkpt>
      <trkpt lat="43.282" lon="5.31505">
        <ele>14.56</ele>
        <time>2017-05-05T09:36:20Z</time>
      </trkpt>
      <trkpt lat="43.28212" lon="5.31516">
        <ele>15.04</ele>
        <time>2017-05-05T09:36:35Z</time>
      </trkpt>
      <trkpt lat="43.28216" lon="5.31526">
        <ele>14.56</ele>
        <time>2017-05-05T09:36:47Z</time>
      </trkpt>
      <trkpt lat="43.28217" lon="5.31526">
        <ele>14.56</ele>
        <time>2017-05-05T09:36:48Z</time>
      </trkpt>
      <trkpt lat="43.28222" lon="5.31543">
        <ele>14.56</ele>
        <time>2017-05-05T09:37:01Z</time>
      </trkpt>
      <trkpt lat="43.28223" lon="5.31557">
        <ele>14.56</ele>
        <time>2017-05-05T09:37:12Z</time>
      </trkpt>
      <trkpt lat="43.28224" lon="5.31569">
        <ele>15.04</ele>
        <time>2017-05-05T09:37:27Z</time>
      </trkpt>
      <trkpt lat="43.28229" lon="5.31581">
        <ele>15.52</ele>
        <time>2017-05-05T09:37:40Z</time>
      </trkpt>
      <trkpt lat="43.28233" lon="5.31586">
        <ele>15.52</ele>
        <time>2017-05-05T09:37:57Z</time>
      </trkpt>
      <trkpt lat="43.28238" lon="5.31592">
        <ele>15.52</ele>
        <time>2017-05-05T09:38:07Z</time>
      </trkpt>
      <trkpt lat="43.28247" lon="5.31592">
        <ele>15.04</ele>
        <time>2017-05-05T09:38:23Z</time>
      </trkpt>
      <trkpt lat="43.28255" lon="5.31586">
        <ele>14.56</ele>
        <time>2017-05-05T09:38:35Z</time>
      </trkpt>
      <trkpt lat="43.28266" lon="5.31573">
        <ele>14.08</ele>
        <time>2017-05-05T09:38:50Z</time>
      </trkpt>
      <trkpt lat="43.28277" lon="5.31559">
        <ele>13.12</ele>
        <time>2017-05-05T09:39:04Z</time>
      </trkpt>
      <trkpt lat="43.28289" lon="5.3155">
        <ele>12.63</ele>
        <time>2017-05-05T09:39:16Z</time>
      </trkpt>
      <trkpt lat="43.28304" lon="5.31542">
        <ele>12.15</ele>
        <time>2017-05-05T09:39:30Z</time>
      </trkpt>
      <trkpt lat="43.28313" lon="5.3154">
        <ele>11.67</ele>
        <time>2017-05-05T09:39:42Z</time>
      </trkpt>
      <trkpt lat="43.28322" lon="5.31538">
        <ele>11.67</ele>
        <time>2017-05-05T09:39:55Z</time>
      </trkpt>
      <trkpt lat="43.28334" lon="5.31538">
        <ele>10.71</ele>
        <time>2017-05-05T09:40:06Z</time>
      </trkpt>
      <trkpt lat="43.28335" lon="5.31539">
        <ele>10.71</ele>
        <time>2017-05-05T09:40:16Z</time>
      </trkpt>
      <trkpt lat="43.28337" lon="5.31539">
        <ele>10.71</ele>
        <time>2017-05-05T09:40:21Z</time>
      </trkpt>
      <trkpt lat="43.28351" lon="5.31537">
        <ele>10.23</ele>
        <time>2017-05-05T09:40:35Z</time>
      </trkpt>
      <trkpt lat="43.28363" lon="5.31534">
        <ele>9.27</ele>
        <time>2017-05-05T09:40:45Z</time>
      </trkpt>
      <trkpt lat="43.28376" lon="5.31521">
        <ele>8.31</ele>
        <time>2017-05-05T09:40:59Z</time>
      </trkpt>
      <trkpt lat="43.28383" lon="5.31514">
        <ele>7.83</ele>
        <time>2017-05-05T09:41:06Z</time>
      </trkpt>
      <trkpt lat="43.28397" lon="5.3151">
        <ele>7.35</ele>
        <time>2017-05-05T09:41:17Z</time>
      </trkpt>
      <trkpt lat="43.28411" lon="5.31509">
        <ele>6.87</ele>
        <time>2017-05-05T09:41:29Z</time>
      </trkpt>
      <trkpt lat="43.28425" lon="5.31507">
        <ele>7.83</ele>
        <time>2017-05-05T09:41:40Z</time>
      </trkpt>
      <trkpt lat="43.28439" lon="5.31502">
        <ele>8.79</ele>
        <time>2017-05-05T09:41:53Z</time>
      </trkpt>
      <trkpt lat="43.28446" lon="5.31506">
        <ele>8.79</ele>
        <time>2017-05-05T09:42:06Z</time>
      </trkpt>
      <trkpt lat="43.28456" lon="5.31508">
        <ele>9.27</ele>
        <time>2017-05-05T09:42:23Z</time>
      </trkpt>
      <trkpt lat="43.28466" lon="5.31518">
        <ele>10.23</ele>
        <time>2017-05-05T09:42:36Z</time>
      </trkpt>
      <trkpt lat="43.28467" lon="5.3152">
        <ele>10.23</ele>
        <time>2017-05-05T09:42:37Z</time>
      </trkpt>
      <trkpt lat="43.2847" lon="5.31552">
        <ele>11.67</ele>
        <time>2017-05-05T09:42:53Z</time>
      </trkpt>
      <trkpt lat="43.28471" lon="5.31561">
        <ele>12.15</ele>
        <time>2017-05-05T09:42:58Z</time>
      </trkpt>
      <trkpt lat="43.2847" lon="5.31564">
        <ele>12.63</ele>
        <time>2017-05-05T09:43:00Z</time>
      </trkpt>
      <trkpt lat="43.28471" lon="5.31581">
        <ele>13.6</ele>
        <time>2017-05-05T09:43:10Z</time>
      </trkpt>
      <trkpt lat="43.2847" lon="5.3159">
        <ele>14.08</ele>
        <time>2017-05-05T09:43:17Z</time>
      </trkpt>
      <trkpt lat="43.2847" lon="5.31606">
        <ele>15.04</ele>
        <time>2017-05-05T09:43:31Z</time>
      </trkpt>
      <trkpt lat="43.28471" lon="5.31618">
        <ele>16</ele>
        <time>2017-05-05T09:43:40Z</time>
      </trkpt>
      <trkpt lat="43.28471" lon="5.31639">
        <ele>17.44</ele>
        <time>2017-05-05T09:43:55Z</time>
      </trkpt>
      <trkpt lat="43.2847" lon="5.31662">
        <ele>19.36</ele>
        <time>2017-05-05T09:44:11Z</time>
      </trkpt>
      <trkpt lat="43.28469" lon="5.31681">
        <ele>20.81</ele>
        <time>2017-05-05T09:44:26Z</time>
      </trkpt>
      <trkpt lat="43.28468" lon="5.31693">
        <ele>21.77</ele>
        <time>2017-05-05T09:44:39Z</time>
      </trkpt>
      <trkpt lat="43.28468" lon="5.31709">
        <ele>23.21</ele>
        <time>2017-05-05T09:44:51Z</time>
      </trkpt>
      <trkpt lat="43.28467" lon="5.31712">
        <ele>23.21</ele>
        <time>2017-05-05T09:44:53Z</time>
      </trkpt>
      <trkpt lat="43.28467" lon="5.3173">
        <ele>24.65</ele>
        <time>2017-05-05T09:45:07Z</time>
      </trkpt>
      <trkpt lat="43.28466" lon="5.31749">
        <ele>25.61</ele>
        <time>2017-05-05T09:45:21Z</time>
      </trkpt>
      <trkpt lat="43.28466" lon="5.31752">
        <ele>25.61</ele>
        <time>2017-05-05T09:45:24Z</time>
      </trkpt>
      <trkpt lat="43.28461" lon="5.31768">
        <ele>27.05</ele>
        <time>2017-05-05T09:45:39Z</time>
      </trkpt>
      <trkpt lat="43.28459" lon="5.31773">
        <ele>27.05</ele>
        <time>2017-05-05T09:45:43Z</time>
      </trkpt>
      <trkpt lat="43.28448" lon="5.31785">
        <ele>28.98</ele>
        <time>2017-05-05T09:45:58Z</time>
      </trkpt>
      <trkpt lat="43.28447" lon="5.31786">
        <ele>28.98</ele>
        <time>2017-05-05T09:45:59Z</time>
      </trkpt>
      <trkpt lat="43.28439" lon="5.31794">
        <ele>29.94</ele>
        <time>2017-05-05T09:46:10Z</time>
      </trkpt>
      <trkpt lat="43.28434" lon="5.3181">
        <ele>30.42</ele>
        <time>2017-05-05T09:46:22Z</time>
      </trkpt>
      <trkpt lat="43.28434" lon="5.31814">
        <ele>30.42</ele>
        <time>2017-05-05T09:46:25Z</time>
      </trkpt>
      <trkpt lat="43.28427" lon="5.31838">
        <ele>29.94</ele>
        <time>2017-05-05T09:46:44Z</time>
      </trkpt>
      <trkpt lat="43.28424" lon="5.31851">
        <ele>30.42</ele>
        <time>2017-05-05T09:46:57Z</time>
      </trkpt>
      <trkpt lat="43.28424" lon="5.31853">
        <ele>30.42</ele>
        <time>2017-05-05T09:47:10Z</time>
      </trkpt>
      <trkpt lat="43.2842" lon="5.31867">
        <ele>30.9</ele>
        <time>2017-05-05T09:47:25Z</time>
      </trkpt>
      <trkpt lat="43.28417" lon="5.31877">
        <ele>30.9</ele>
        <time>2017-05-05T09:47:39Z</time>
      </trkpt>
      <trkpt lat="43.28415" lon="5.31886">
        <ele>31.86</ele>
        <time>2017-05-05T09:47:46Z</time>
      </trkpt>
      <trkpt lat="43.2841" lon="5.31904">
        <ele>30.42</ele>
        <time>2017-05-05T09:48:02Z</time>
      </trkpt>
      <trkpt lat="43.28407" lon="5.31913">
        <ele>30.42</ele>
        <time>2017-05-05T09:48:14Z</time>
      </trkpt>
      <trkpt lat="43.28404" lon="5.31916">
        <ele>30.9</ele>
        <time>2017-05-05T09:48:30Z</time>
      </trkpt>
      <trkpt lat="43.28403" lon="5.3192">
        <ele>30.42</ele>
        <time>2017-05-05T09:48:42Z</time>
      </trkpt>
      <trkpt lat="43.284" lon="5.3192">
        <ele>30.42</ele>
        <time>2017-05-05T09:49:09Z</time>
      </trkpt>
      <trkpt lat="43.28399" lon="5.31921">
        <ele>30.9</ele>
        <time>2017-05-05T09:49:31Z</time>
      </trkpt>
      <trkpt lat="43.28399" lon="5.31921">
        <ele>30.9</ele>
        <time>2017-05-05T09:49:49Z</time>
      </trkpt>
      <trkpt lat="43.28399" lon="5.31921">
        <ele>30.9</ele>
        <time>2017-05-05T09:50:15Z</time>
      </trkpt>
      <trkpt lat="43.28399" lon="5.31921">
        <ele>30.9</ele>
        <time>2017-05-05T09:50:37Z</time>
      </trkpt>
      <trkpt lat="43.28399" lon="5.3192">
        <ele>30.9</ele>
        <time>2017-05-05T09:50:58Z</time>
      </trkpt>
      <trkpt lat="43.28398" lon="5.31919">
        <ele>30.9</ele>
        <time>2017-05-05T09:51:19Z</time>
      </trkpt>
      <trkpt lat="43.28397" lon="5.31919">
        <ele>30.9</ele>
        <time>2017-05-05T09:51:41Z</time>
      </trkpt>
      <trkpt lat="43.28395" lon="5.31914">
        <ele>30.9</ele>
        <time>2017-05-05T09:51:54Z</time>
      </trkpt>
      <trkpt lat="43.28394" lon="5.31915">
        <ele>30.9</ele>
        <time>2017-05-05T09:52:19Z</time>
      </trkpt>
      <trkpt lat="43.28395" lon="5.31916">
        <ele>30.9</ele>
        <time>2017-05-05T09:52:41Z</time>
      </trkpt>
      <trkpt lat="43.28395" lon="5.31916">
        <ele>30.9</ele>
        <time>2017-05-05T09:53:07Z</time>
      </trkpt>
      <trkpt lat="43.28395" lon="5.31916">
        <ele>31.38</ele>
        <time>2017-05-05T09:53:34Z</time>
      </trkpt>
      <trkpt lat="43.28396" lon="5.31919">
        <ele>31.38</ele>
        <time>2017-05-05T09:53:57Z</time>
      </trkpt>
      <trkpt lat="43.28397" lon="5.31919">
        <ele>31.38</ele>
        <time>2017-05-05T09:54:18Z</time>
      </trkpt>
      <trkpt lat="43.28397" lon="5.31919">
        <ele>31.38</ele>
        <time>2017-05-05T09:54:41Z</time>
      </trkpt>
      <trkpt lat="43.28397" lon="5.31918">
        <ele>31.38</ele>
        <time>2017-05-05T09:55:04Z</time>
      </trkpt>
      <trkpt lat="43.28397" lon="5.31918">
        <ele>31.38</ele>
        <time>2017-05-05T09:55:24Z</time>
      </trkpt>
      <trkpt lat="43.28397" lon="5.31919">
        <ele>31.38</ele>
        <time>2017-05-05T09:55:43Z</time>
      </trkpt>
      <trkpt lat="43.28397" lon="5.31919">
        <ele>31.38</ele>
        <time>2017-05-05T09:56:02Z</time>
      </trkpt>
      <trkpt lat="43.28397" lon="5.31919">
        <ele>31.38</ele>
        <time>2017-05-05T09:56:17Z</time>
      </trkpt>
      <trkpt lat="43.28397" lon="5.31919">
        <ele>31.38</ele>
        <time>2017-05-05T09:56:40Z</time>
      </trkpt>
      <trkpt lat="43.28396" lon="5.3192">
        <ele>31.38</ele>
        <time>2017-05-05T09:57:09Z</time>
      </trkpt>
      <trkpt lat="43.28396" lon="5.31919">
        <ele>31.38</ele>
        <time>2017-05-05T09:57:28Z</time>
      </trkpt>
      <trkpt lat="43.28396" lon="5.31916">
        <ele>31.38</ele>
        <time>2017-05-05T09:57:39Z</time>
      </trkpt>
      <trkpt lat="43.28395" lon="5.31913">
        <ele>31.38</ele>
        <time>2017-05-05T09:57:45Z</time>
      </trkpt>
      <trkpt lat="43.28397" lon="5.31907">
        <ele>31.86</ele>
        <time>2017-05-05T09:57:49Z</time>
      </trkpt>
      <trkpt lat="43.28403" lon="5.31901">
        <ele>30.9</ele>
        <time>2017-05-05T09:58:01Z</time>
      </trkpt>
      <trkpt lat="43.28424" lon="5.31898">
        <ele>29.46</ele>
        <time>2017-05-05T09:58:13Z</time>
      </trkpt>
      <trkpt lat="43.28424" lon="5.31916">
        <ele>28.5</ele>
        <time>2017-05-05T09:58:27Z</time>
      </trkpt>
      <trkpt lat="43.28426" lon="5.31932">
        <ele>27.05</ele>
        <time>2017-05-05T09:58:41Z</time>
      </trkpt>
      <trkpt lat="43.28427" lon="5.31934">
        <ele>27.05</ele>
        <time>2017-05-05T09:58:43Z</time>
      </trkpt>
      <trkpt lat="43.28431" lon="5.31952">
        <ele>24.65</ele>
        <time>2017-05-05T09:58:59Z</time>
      </trkpt>
      <trkpt lat="43.28433" lon="5.31956">
        <ele>24.17</ele>
        <time>2017-05-05T09:59:02Z</time>
      </trkpt>
      <trkpt lat="43.28439" lon="5.31965">
        <ele>22.25</ele>
        <time>2017-05-05T09:59:13Z</time>
      </trkpt>
      <trkpt lat="43.28448" lon="5.31965">
        <ele>20.32</ele>
        <time>2017-05-05T09:59:27Z</time>
      </trkpt>
      <trkpt lat="43.2846" lon="5.31966">
        <ele>18.88</ele>
        <time>2017-05-05T09:59:41Z</time>
      </trkpt>
      <trkpt lat="43.28467" lon="5.31968">
        <ele>18.4</ele>
        <time>2017-05-05T09:59:47Z</time>
      </trkpt>
      <trkpt lat="43.28481" lon="5.31966">
        <ele>17.44</ele>
        <time>2017-05-05T10:00:03Z</time>
      </trkpt>
      <trkpt lat="43.28496" lon="5.31965">
        <ele>16.96</ele>
        <time>2017-05-05T10:00:17Z</time>
      </trkpt>
      <trkpt lat="43.28505" lon="5.31968">
        <ele>16.96</ele>
        <time>2017-05-05T10:00:31Z</time>
      </trkpt>
      <trkpt lat="43.28505" lon="5.31971">
        <ele>16.96</ele>
        <time>2017-05-05T10:00:48Z</time>
      </trkpt>
      <trkpt lat="43.2851" lon="5.31977">
        <ele>17.44</ele>
        <time>2017-05-05T10:00:58Z</time>
      </trkpt>
      <trkpt lat="43.28517" lon="5.31986">
        <ele>17.92</ele>
        <time>2017-05-05T10:01:10Z</time>
      </trkpt>
      <trkpt lat="43.28523" lon="5.31994">
        <ele>18.88</ele>
        <time>2017-05-05T10:01:21Z</time>
      </trkpt>
      <trkpt lat="43.28529" lon="5.32006">
        <ele>18.88</ele>
        <time>2017-05-05T10:01:32Z</time>
      </trkpt>
      <trkpt lat="43.28533" lon="5.32012">
        <ele>19.36</ele>
        <time>2017-05-05T10:01:39Z</time>
      </trkpt>
      <trkpt lat="43.28534" lon="5.32013">
        <ele>19.36</ele>
        <time>2017-05-05T10:01:41Z</time>
      </trkpt>
      <trkpt lat="43.28543" lon="5.32029">
        <ele>20.32</ele>
        <time>2017-05-05T10:01:56Z</time>
      </trkpt>
      <trkpt lat="43.28545" lon="5.32033">
        <ele>20.32</ele>
        <time>2017-05-05T10:01:59Z</time>
      </trkpt>
      <trkpt lat="43.28549" lon="5.32044">
        <ele>20.32</ele>
        <time>2017-05-05T10:02:09Z</time>
      </trkpt>
      <trkpt lat="43.28549" lon="5.32047">
        <ele>19.36</ele>
        <time>2017-05-05T10:02:15Z</time>
      </trkpt>
      <trkpt lat="43.28551" lon="5.32054">
        <ele>20.32</ele>
        <time>2017-05-05T10:02:28Z</time>
      </trkpt>
      <trkpt lat="43.28553" lon="5.32062">
        <ele>20.32</ele>
        <time>2017-05-05T10:02:32Z</time>
      </trkpt>
      <trkpt lat="43.28557" lon="5.32084">
        <ele>19.84</ele>
        <time>2017-05-05T10:02:47Z</time>
      </trkpt>
      <trkpt lat="43.28557" lon="5.32085">
        <ele>19.84</ele>
        <time>2017-05-05T10:02:49Z</time>
      </trkpt>
      <trkpt lat="43.28557" lon="5.32087">
        <ele>21.29</ele>
        <time>2017-05-05T10:02:51Z</time>
      </trkpt>
      <trkpt lat="43.28561" lon="5.321">
        <ele>21.77</ele>
        <time>2017-05-05T10:02:59Z</time>
      </trkpt>
      <trkpt lat="43.28566" lon="5.32119">
        <ele>22.25</ele>
        <time>2017-05-05T10:03:12Z</time>
      </trkpt>
      <trkpt lat="43.28568" lon="5.3214">
        <ele>22.25</ele>
        <time>2017-05-05T10:03:25Z</time>
      </trkpt>
      <trkpt lat="43.28568" lon="5.32151">
        <ele>22.25</ele>
        <time>2017-05-05T10:03:36Z</time>
      </trkpt>
      <trkpt lat="43.28569" lon="5.32153">
        <ele>22.25</ele>
        <time>2017-05-05T10:03:54Z</time>
      </trkpt>
      <trkpt lat="43.28567" lon="5.32162">
        <ele>22.25</ele>
        <time>2017-05-05T10:04:06Z</time>
      </trkpt>
      <trkpt lat="43.28567" lon="5.3218">
        <ele>22.73</ele>
        <time>2017-05-05T10:04:18Z</time>
      </trkpt>
      <trkpt lat="43.28566" lon="5.32184">
        <ele>22.73</ele>
        <time>2017-05-05T10:04:33Z</time>
      </trkpt>
      <trkpt lat="43.28566" lon="5.32184">
        <ele>22.73</ele>
        <time>2017-05-05T10:04:47Z</time>
      </trkpt>
      <trkpt lat="43.28566" lon="5.32191">
        <ele>22.25</ele>
        <time>2017-05-05T10:05:00Z</time>
      </trkpt>
      <trkpt lat="43.28566" lon="5.32195">
        <ele>22.73</ele>
        <time>2017-05-05T10:05:06Z</time>
      </trkpt>
      <trkpt lat="43.28566" lon="5.32214">
        <ele>21.29</ele>
        <time>2017-05-05T10:05:20Z</time>
      </trkpt>
      <trkpt lat="43.28566" lon="5.3223">
        <ele>20.81</ele>
        <time>2017-05-05T10:05:34Z</time>
      </trkpt>
      <trkpt lat="43.28566" lon="5.32232">
        <ele>21.29</ele>
        <time>2017-05-05T10:05:48Z</time>
      </trkpt>
      <trkpt lat="43.28565" lon="5.32246">
        <ele>20.32</ele>
        <time>2017-05-05T10:06:07Z</time>
      </trkpt>
      <trkpt lat="43.28566" lon="5.32248">
        <ele>20.32</ele>
        <time>2017-05-05T10:06:13Z</time>
      </trkpt>
      <trkpt lat="43.28569" lon="5.32268">
        <ele>19.84</ele>
        <time>2017-05-05T10:06:29Z</time>
      </trkpt>
      <trkpt lat="43.28579" lon="5.32269">
        <ele>19.84</ele>
        <time>2017-05-05T10:06:55Z</time>
      </trkpt>
      <trkpt lat="43.28571" lon="5.3229">
        <ele>20.32</ele>
        <time>2017-05-05T10:07:08Z</time>
      </trkpt>
      <trkpt lat="43.28575" lon="5.32305">
        <ele>20.81</ele>
        <time>2017-05-05T10:07:22Z</time>
      </trkpt>
      <trkpt lat="43.28577" lon="5.32311">
        <ele>22.25</ele>
        <time>2017-05-05T10:07:30Z</time>
      </trkpt>
      <trkpt lat="43.28587" lon="5.32321">
        <ele>22.25</ele>
        <time>2017-05-05T10:07:44Z</time>
      </trkpt>
      <trkpt lat="43.28591" lon="5.3232">
        <ele>22.25</ele>
        <time>2017-05-05T10:07:58Z</time>
      </trkpt>
      <trkpt lat="43.28593" lon="5.32322">
        <ele>23.69</ele>
        <time>2017-05-05T10:08:10Z</time>
      </trkpt>
      <trkpt lat="43.28592" lon="5.32323">
        <ele>23.21</ele>
        <time>2017-05-05T10:08:27Z</time>
      </trkpt>
      <trkpt lat="43.28592" lon="5.32324">
        <ele>23.21</ele>
        <time>2017-05-05T10:08:41Z</time>
      </trkpt>
      <trkpt lat="43.28592" lon="5.32324">
        <ele>23.69</ele>
        <time>2017-05-05T10:08:57Z</time>
      </trkpt>
      <trkpt lat="43.28592" lon="5.32325">
        <ele>23.21</ele>
        <time>2017-05-05T10:09:13Z</time>
      </trkpt>
      <trkpt lat="43.28593" lon="5.32333">
        <ele>23.21</ele>
        <time>2017-05-05T10:09:25Z</time>
      </trkpt>
      <trkpt lat="43.28593" lon="5.32338">
        <ele>23.21</ele>
        <time>2017-05-05T10:09:38Z</time>
      </trkpt>
      <trkpt lat="43.28596" lon="5.32343">
        <ele>21.77</ele>
        <time>2017-05-05T10:09:51Z</time>
      </trkpt>
      <trkpt lat="43.28596" lon="5.32342">
        <ele>21.77</ele>
        <time>2017-05-05T10:10:10Z</time>
      </trkpt>
      <trkpt lat="43.28595" lon="5.32343">
        <ele>21.29</ele>
        <time>2017-05-05T10:10:24Z</time>
      </trkpt>
      <trkpt lat="43.28595" lon="5.32343">
        <ele>21.77</ele>
        <time>2017-05-05T10:10:39Z</time>
      </trkpt>
      <trkpt lat="43.28594" lon="5.32342">
        <ele>22.25</ele>
        <time>2017-05-05T10:10:55Z</time>
      </trkpt>
      <trkpt lat="43.28593" lon="5.32341">
        <ele>22.25</ele>
        <time>2017-05-05T10:11:18Z</time>
      </trkpt>
      <trkpt lat="43.28593" lon="5.32341">
        <ele>22.25</ele>
        <time>2017-05-05T10:11:39Z</time>
      </trkpt>
      <trkpt lat="43.28593" lon="5.32341">
        <ele>22.25</ele>
        <time>2017-05-05T10:12:06Z</time>
      </trkpt>
      <trkpt lat="43.28593" lon="5.32341">
        <ele>22.25</ele>
        <time>2017-05-05T10:12:29Z</time>
      </trkpt>
      <trkpt lat="43.28593" lon="5.3234">
        <ele>21.77</ele>
        <time>2017-05-05T10:12:52Z</time>
      </trkpt>
      <trkpt lat="43.28592" lon="5.32339">
        <ele>22.25</ele>
        <time>2017-05-05T10:13:06Z</time>
      </trkpt>
      <trkpt lat="43.28592" lon="5.32339">
        <ele>22.25</ele>
        <time>2017-05-05T10:13:24Z</time>
      </trkpt>
      <trkpt lat="43.28592" lon="5.32338">
        <ele>21.77</ele>
        <time>2017-05-05T10:13:50Z</time>
      </trkpt>
      <trkpt lat="43.28593" lon="5.32339">
        <ele>21.77</ele>
        <time>2017-05-05T10:14:13Z</time>
      </trkpt>
      <trkpt lat="43.28593" lon="5.32338">
        <ele>21.77</ele>
        <time>2017-05-05T10:14:41Z</time>
      </trkpt>
      <trkpt lat="43.28593" lon="5.32331">
        <ele>22.25</ele>
        <time>2017-05-05T10:14:59Z</time>
      </trkpt>
      <trkpt lat="43.28592" lon="5.32325">
        <ele>22.73</ele>
        <time>2017-05-05T10:15:14Z</time>
      </trkpt>
      <trkpt lat="43.2859" lon="5.32317">
        <ele>22.25</ele>
        <time>2017-05-05T10:15:22Z</time>
      </trkpt>
      <trkpt lat="43.28585" lon="5.32303">
        <ele>22.73</ele>
        <time>2017-05-05T10:15:34Z</time>
      </trkpt>
      <trkpt lat="43.28583" lon="5.32292">
        <ele>22.73</ele>
        <time>2017-05-05T10:15:42Z</time>
      </trkpt>
      <trkpt lat="43.28584" lon="5.32281">
        <ele>23.21</ele>
        <time>2017-05-05T10:15:52Z</time>
      </trkpt>
      <trkpt lat="43.28585" lon="5.32268">
        <ele>23.69</ele>
        <time>2017-05-05T10:16:03Z</time>
      </trkpt>
      <trkpt lat="43.28585" lon="5.32264">
        <ele>23.21</ele>
        <time>2017-05-05T10:16:06Z</time>
      </trkpt>
      <trkpt lat="43.28581" lon="5.3224">
        <ele>23.69</ele>
        <time>2017-05-05T10:16:22Z</time>
      </trkpt>
      <trkpt lat="43.28579" lon="5.32218">
        <ele>23.21</ele>
        <time>2017-05-05T10:16:37Z</time>
      </trkpt>
      <trkpt lat="43.28578" lon="5.32207">
        <ele>23.69</ele>
        <time>2017-05-05T10:16:46Z</time>
      </trkpt>
      <trkpt lat="43.28575" lon="5.32179">
        <ele>21.77</ele>
        <time>2017-05-05T10:17:04Z</time>
      </trkpt>
      <trkpt lat="43.28573" lon="5.32162">
        <ele>22.73</ele>
        <time>2017-05-05T10:17:16Z</time>
      </trkpt>
      <trkpt lat="43.28569" lon="5.32138">
        <ele>21.29</ele>
        <time>2017-05-05T10:17:30Z</time>
      </trkpt>
      <trkpt lat="43.28569" lon="5.32137">
        <ele>21.29</ele>
        <time>2017-05-05T10:17:31Z</time>
      </trkpt>
      <trkpt lat="43.28567" lon="5.32118">
        <ele>20.32</ele>
        <time>2017-05-05T10:17:43Z</time>
      </trkpt>
      <trkpt lat="43.28561" lon="5.32097">
        <ele>19.84</ele>
        <time>2017-05-05T10:17:57Z</time>
      </trkpt>
      <trkpt lat="43.28556" lon="5.32081">
        <ele>19.36</ele>
        <time>2017-05-05T10:18:10Z</time>
      </trkpt>
      <trkpt lat="43.28554" lon="5.32071">
        <ele>18.88</ele>
        <time>2017-05-05T10:18:17Z</time>
      </trkpt>
      <trkpt lat="43.28553" lon="5.32067">
        <ele>18.88</ele>
        <time>2017-05-05T10:18:20Z</time>
      </trkpt>
      <trkpt lat="43.28552" lon="5.32059">
        <ele>19.36</ele>
        <time>2017-05-05T10:18:24Z</time>
      </trkpt>
      <trkpt lat="43.2855" lon="5.32053">
        <ele>19.36</ele>
        <time>2017-05-05T10:18:28Z</time>
      </trkpt>
      <trkpt lat="43.28544" lon="5.32032">
        <ele>18.4</ele>
        <time>2017-05-05T10:18:41Z</time>
      </trkpt>
      <trkpt lat="43.28535" lon="5.32017">
        <ele>18.4</ele>
        <time>2017-05-05T10:18:53Z</time>
      </trkpt>
      <trkpt lat="43.2853" lon="5.3201">
        <ele>18.4</ele>
        <time>2017-05-05T10:18:58Z</time>
      </trkpt>
      <trkpt lat="43.2852" lon="5.31995">
        <ele>17.92</ele>
        <time>2017-05-05T10:19:11Z</time>
      </trkpt>
      <trkpt lat="43.28514" lon="5.31984">
        <ele>16.96</ele>
        <time>2017-05-05T10:19:19Z</time>
      </trkpt>
      <trkpt lat="43.28501" lon="5.31974">
        <ele>16.48</ele>
        <time>2017-05-05T10:19:32Z</time>
      </trkpt>
      <trkpt lat="43.285" lon="5.31973">
        <ele>16</ele>
        <time>2017-05-05T10:19:33Z</time>
      </trkpt>
      <trkpt lat="43.28494" lon="5.31972">
        <ele>16</ele>
        <time>2017-05-05T10:19:38Z</time>
      </trkpt>
      <trkpt lat="43.28482" lon="5.31971">
        <ele>16.48</ele>
        <time>2017-05-05T10:19:50Z</time>
      </trkpt>
      <trkpt lat="43.28468" lon="5.31974">
        <ele>16.96</ele>
        <time>2017-05-05T10:20:02Z</time>
      </trkpt>
      <trkpt lat="43.28464" lon="5.31973">
        <ele>16.96</ele>
        <time>2017-05-05T10:20:06Z</time>
      </trkpt>
      <trkpt lat="43.28457" lon="5.31972">
        <ele>17.92</ele>
        <time>2017-05-05T10:20:12Z</time>
      </trkpt>
      <trkpt lat="43.28454" lon="5.31972">
        <ele>17.92</ele>
        <time>2017-05-05T10:20:15Z</time>
      </trkpt>
      <trkpt lat="43.28443" lon="5.31968">
        <ele>19.84</ele>
        <time>2017-05-05T10:20:27Z</time>
      </trkpt>
      <trkpt lat="43.28441" lon="5.31968">
        <ele>20.32</ele>
        <time>2017-05-05T10:20:29Z</time>
      </trkpt>
      <trkpt lat="43.28435" lon="5.31966">
        <ele>20.81</ele>
        <time>2017-05-05T10:20:34Z</time>
      </trkpt>
      <trkpt lat="43.28425" lon="5.31947">
        <ele>23.69</ele>
        <time>2017-05-05T10:20:51Z</time>
      </trkpt>
      <trkpt lat="43.28424" lon="5.31945">
        <ele>24.17</ele>
        <time>2017-05-05T10:20:53Z</time>
      </trkpt>
      <trkpt lat="43.28419" lon="5.31928">
        <ele>26.09</ele>
        <time>2017-05-05T10:21:06Z</time>
      </trkpt>
      <trkpt lat="43.28417" lon="5.31919">
        <ele>27.05</ele>
        <time>2017-05-05T10:21:14Z</time>
      </trkpt>
      <trkpt lat="43.28416" lon="5.31913">
        <ele>27.53</ele>
        <time>2017-05-05T10:21:18Z</time>
      </trkpt>
      <trkpt lat="43.28418" lon="5.31907">
        <ele>28.02</ele>
        <time>2017-05-05T10:21:22Z</time>
      </trkpt>
      <trkpt lat="43.28419" lon="5.31902">
        <ele>28.02</ele>
        <time>2017-05-05T10:21:25Z</time>
      </trkpt>
      <trkpt lat="43.2842" lon="5.31899">
        <ele>28.02</ele>
        <time>2017-05-05T10:21:27Z</time>
      </trkpt>
      <trkpt lat="43.28416" lon="5.31888">
        <ele>29.94</ele>
        <time>2017-05-05T10:21:39Z</time>
      </trkpt>
      <trkpt lat="43.28415" lon="5.31874">
        <ele>30.9</ele>
        <time>2017-05-05T10:21:51Z</time>
      </trkpt>
      <trkpt lat="43.28425" lon="5.31848">
        <ele>30.9</ele>
        <time>2017-05-05T10:22:07Z</time>
      </trkpt>
      <trkpt lat="43.28427" lon="5.31846">
        <ele>31.38</ele>
        <time>2017-05-05T10:22:29Z</time>
      </trkpt>
      <trkpt lat="43.28428" lon="5.31844">
        <ele>31.38</ele>
        <time>2017-05-05T10:22:31Z</time>
      </trkpt>
      <trkpt lat="43.28429" lon="5.31824">
        <ele>31.38</ele>
        <time>2017-05-05T10:22:45Z</time>
      </trkpt>
      <trkpt lat="43.28429" lon="5.31815">
        <ele>31.38</ele>
        <time>2017-05-05T10:22:51Z</time>
      </trkpt>
      <trkpt lat="43.2843" lon="5.31809">
        <ele>31.38</ele>
        <time>2017-05-05T10:22:55Z</time>
      </trkpt>
      <trkpt lat="43.28432" lon="5.31799">
        <ele>30.42</ele>
        <time>2017-05-05T10:23:01Z</time>
      </trkpt>
      <trkpt lat="43.28449" lon="5.31776">
        <ele>28.98</ele>
        <time>2017-05-05T10:23:16Z</time>
      </trkpt>
      <trkpt lat="43.2846" lon="5.31758">
        <ele>27.53</ele>
        <time>2017-05-05T10:23:31Z</time>
      </trkpt>
      <trkpt lat="43.28464" lon="5.31735">
        <ele>27.05</ele>
        <time>2017-05-05T10:23:45Z</time>
      </trkpt>
      <trkpt lat="43.28464" lon="5.31727">
        <ele>26.09</ele>
        <time>2017-05-05T10:23:50Z</time>
      </trkpt>
      <trkpt lat="43.28464" lon="5.31701">
        <ele>24.65</ele>
        <time>2017-05-05T10:24:04Z</time>
      </trkpt>
      <trkpt lat="43.28465" lon="5.31691">
        <ele>22.73</ele>
        <time>2017-05-05T10:24:09Z</time>
      </trkpt>
      <trkpt lat="43.28467" lon="5.31666">
        <ele>21.29</ele>
        <time>2017-05-05T10:24:23Z</time>
      </trkpt>
      <trkpt lat="43.28468" lon="5.31642">
        <ele>18.88</ele>
        <time>2017-05-05T10:24:36Z</time>
      </trkpt>
      <trkpt lat="43.28468" lon="5.31622">
        <ele>16.96</ele>
        <time>2017-05-05T10:24:47Z</time>
      </trkpt>
      <trkpt lat="43.28469" lon="5.31607">
        <ele>16</ele>
        <time>2017-05-05T10:24:55Z</time>
      </trkpt>
      <trkpt lat="43.28469" lon="5.31596">
        <ele>15.04</ele>
        <time>2017-05-05T10:25:01Z</time>
      </trkpt>
      <trkpt lat="43.28467" lon="5.31592">
        <ele>14.56</ele>
        <time>2017-05-05T10:25:04Z</time>
      </trkpt>
      <trkpt lat="43.28466" lon="5.31581">
        <ele>13.6</ele>
        <time>2017-05-05T10:25:10Z</time>
      </trkpt>
      <trkpt lat="43.28466" lon="5.31572">
        <ele>13.12</ele>
        <time>2017-05-05T10:25:15Z</time>
      </trkpt>
      <trkpt lat="43.28468" lon="5.31564">
        <ele>12.63</ele>
        <time>2017-05-05T10:25:20Z</time>
      </trkpt>
      <trkpt lat="43.28466" lon="5.31541">
        <ele>11.19</ele>
        <time>2017-05-05T10:25:32Z</time>
      </trkpt>
      <trkpt lat="43.28464" lon="5.31527">
        <ele>10.23</ele>
        <time>2017-05-05T10:25:40Z</time>
      </trkpt>
      <trkpt lat="43.2846" lon="5.31524">
        <ele>10.23</ele>
        <time>2017-05-05T10:25:44Z</time>
      </trkpt>
      <trkpt lat="43.28458" lon="5.31522">
        <ele>9.75</ele>
        <time>2017-05-05T10:25:47Z</time>
      </trkpt>
      <trkpt lat="43.28446" lon="5.31514">
        <ele>9.27</ele>
        <time>2017-05-05T10:25:58Z</time>
      </trkpt>
      <trkpt lat="43.2844" lon="5.315">
        <ele>10.23</ele>
        <time>2017-05-05T10:26:12Z</time>
      </trkpt>
      <trkpt lat="43.28439" lon="5.31482">
        <ele>11.19</ele>
        <time>2017-05-05T10:26:25Z</time>
      </trkpt>
      <trkpt lat="43.28438" lon="5.31461">
        <ele>12.63</ele>
        <time>2017-05-05T10:26:39Z</time>
      </trkpt>
      <trkpt lat="43.28437" lon="5.31453">
        <ele>12.63</ele>
        <time>2017-05-05T10:26:45Z</time>
      </trkpt>
      <trkpt lat="43.28436" lon="5.31429">
        <ele>14.56</ele>
        <time>2017-05-05T10:27:01Z</time>
      </trkpt>
      <trkpt lat="43.28435" lon="5.3142">
        <ele>15.52</ele>
        <time>2017-05-05T10:27:08Z</time>
      </trkpt>
      <trkpt lat="43.28431" lon="5.31403">
        <ele>16.96</ele>
        <time>2017-05-05T10:27:21Z</time>
      </trkpt>
      <trkpt lat="43.28428" lon="5.31391">
        <ele>17.92</ele>
        <time>2017-05-05T10:27:31Z</time>
      </trkpt>
      <trkpt lat="43.28419" lon="5.31371">
        <ele>19.36</ele>
        <time>2017-05-05T10:27:47Z</time>
      </trkpt>
      <trkpt lat="43.28414" lon="5.31356">
        <ele>20.81</ele>
        <time>2017-05-05T10:27:59Z</time>
      </trkpt>
      <trkpt lat="43.28408" lon="5.31354">
        <ele>21.29</ele>
        <time>2017-05-05T10:28:05Z</time>
      </trkpt>
      <trkpt lat="43.28404" lon="5.31356">
        <ele>21.77</ele>
        <time>2017-05-05T10:28:08Z</time>
      </trkpt>
      <trkpt lat="43.28398" lon="5.31358">
        <ele>22.25</ele>
        <time>2017-05-05T10:28:15Z</time>
      </trkpt>
      <trkpt lat="43.28388" lon="5.31346">
        <ele>24.17</ele>
        <time>2017-05-05T10:28:28Z</time>
      </trkpt>
      <trkpt lat="43.28386" lon="5.31342">
        <ele>24.17</ele>
        <time>2017-05-05T10:28:32Z</time>
      </trkpt>
      <trkpt lat="43.28385" lon="5.31334">
        <ele>25.13</ele>
        <time>2017-05-05T10:28:38Z</time>
      </trkpt>
      <trkpt lat="43.28383" lon="5.31325">
        <ele>25.61</ele>
        <time>2017-05-05T10:28:51Z</time>
      </trkpt>
      <trkpt lat="43.28384" lon="5.31322">
        <ele>25.61</ele>
        <time>2017-05-05T10:29:09Z</time>
      </trkpt>
      <trkpt lat="43.28384" lon="5.31322">
        <ele>25.61</ele>
        <time>2017-05-05T10:29:11Z</time>
      </trkpt>
      <trkpt lat="43.28378" lon="5.31307">
        <ele>27.53</ele>
        <time>2017-05-05T10:29:25Z</time>
      </trkpt>
      <trkpt lat="43.28377" lon="5.3129">
        <ele>29.46</ele>
        <time>2017-05-05T10:29:37Z</time>
      </trkpt>
      <trkpt lat="43.28375" lon="5.31274">
        <ele>31.38</ele>
        <time>2017-05-05T10:29:49Z</time>
      </trkpt>
      <trkpt lat="43.28374" lon="5.31261">
        <ele>31.86</ele>
        <time>2017-05-05T10:29:59Z</time>
      </trkpt>
      <trkpt lat="43.28371" lon="5.31257">
        <ele>31.86</ele>
        <time>2017-05-05T10:30:02Z</time>
      </trkpt>
      <trkpt lat="43.28369" lon="5.31253">
        <ele>32.34</ele>
        <time>2017-05-05T10:30:06Z</time>
      </trkpt>
      <trkpt lat="43.28355" lon="5.31242">
        <ele>33.3</ele>
        <time>2017-05-05T10:30:21Z</time>
      </trkpt>
      <trkpt lat="43.28349" lon="5.31239">
        <ele>34.26</ele>
        <time>2017-05-05T10:30:28Z</time>
      </trkpt>
      <trkpt lat="43.28349" lon="5.31236">
        <ele>34.26</ele>
        <time>2017-05-05T10:30:30Z</time>
      </trkpt>
      <trkpt lat="43.28349" lon="5.31233">
        <ele>34.26</ele>
        <time>2017-05-05T10:30:32Z</time>
      </trkpt>
      <trkpt lat="43.2835" lon="5.31223">
        <ele>35.71</ele>
        <time>2017-05-05T10:30:45Z</time>
      </trkpt>
      <trkpt lat="43.28353" lon="5.31218">
        <ele>37.63</ele>
        <time>2017-05-05T10:30:58Z</time>
      </trkpt>
      <trkpt lat="43.28353" lon="5.31216">
        <ele>38.59</ele>
        <time>2017-05-05T10:31:15Z</time>
      </trkpt>
      <trkpt lat="43.28352" lon="5.31214">
        <ele>39.55</ele>
        <time>2017-05-05T10:31:22Z</time>
      </trkpt>
      <trkpt lat="43.28348" lon="5.31209">
        <ele>41.95</ele>
        <time>2017-05-05T10:31:33Z</time>
      </trkpt>
      <trkpt lat="43.28347" lon="5.31205">
        <ele>44.36</ele>
        <time>2017-05-05T10:31:43Z</time>
      </trkpt>
      <trkpt lat="43.28349" lon="5.31187">
        <ele>45.8</ele>
        <time>2017-05-05T10:31:52Z</time>
      </trkpt>
      <trkpt lat="43.28352" lon="5.31168">
        <ele>47.72</ele>
        <time>2017-05-05T10:32:05Z</time>
      </trkpt>
      <trkpt lat="43.28351" lon="5.31163">
        <ele>49.16</ele>
        <time>2017-05-05T10:32:13Z</time>
      </trkpt>
      <trkpt lat="43.28347" lon="5.31159">
        <ele>50.61</ele>
        <time>2017-05-05T10:32:25Z</time>
      </trkpt>
      <trkpt lat="43.28346" lon="5.31158">
        <ele>51.09</ele>
        <time>2017-05-05T10:32:27Z</time>
      </trkpt>
      <trkpt lat="43.28342" lon="5.31162">
        <ele>52.05</ele>
        <time>2017-05-05T10:32:37Z</time>
      </trkpt>
      <trkpt lat="43.28335" lon="5.31166">
        <ele>54.45</ele>
        <time>2017-05-05T10:32:50Z</time>
      </trkpt>
      <trkpt lat="43.28325" lon="5.31164">
        <ele>56.37</ele>
        <time>2017-05-05T10:33:04Z</time>
      </trkpt>
      <trkpt lat="43.28318" lon="5.31164">
        <ele>58.3</ele>
        <time>2017-05-05T10:33:16Z</time>
      </trkpt>
      <trkpt lat="43.28314" lon="5.31168">
        <ele>60.22</ele>
        <time>2017-05-05T10:33:28Z</time>
      </trkpt>
      <trkpt lat="43.28307" lon="5.31169">
        <ele>60.22</ele>
        <time>2017-05-05T10:33:47Z</time>
      </trkpt>
      <trkpt lat="43.28298" lon="5.31178">
        <ele>60.22</ele>
        <time>2017-05-05T10:33:58Z</time>
      </trkpt>
      <trkpt lat="43.28289" lon="5.31194">
        <ele>61.18</ele>
        <time>2017-05-05T10:34:13Z</time>
      </trkpt>
      <trkpt lat="43.28288" lon="5.312">
        <ele>62.14</ele>
        <time>2017-05-05T10:34:30Z</time>
      </trkpt>
      <trkpt lat="43.28285" lon="5.31207">
        <ele>62.62</ele>
        <time>2017-05-05T10:34:46Z</time>
      </trkpt>
      <trkpt lat="43.28282" lon="5.31221">
        <ele>64.07</ele>
        <time>2017-05-05T10:35:03Z</time>
      </trkpt>
      <trkpt lat="43.28279" lon="5.3122">
        <ele>64.55</ele>
        <time>2017-05-05T10:35:15Z</time>
      </trkpt>
      <trkpt lat="43.28274" lon="5.31233">
        <ele>65.99</ele>
        <time>2017-05-05T10:35:29Z</time>
      </trkpt>
      <trkpt lat="43.28274" lon="5.31234">
        <ele>65.51</ele>
        <time>2017-05-05T10:35:55Z</time>
      </trkpt>
      <trkpt lat="43.28272" lon="5.31237">
        <ele>65.99</ele>
        <time>2017-05-05T10:36:06Z</time>
      </trkpt>
      <trkpt lat="43.28272" lon="5.31237">
        <ele>65.51</ele>
        <time>2017-05-05T10:36:28Z</time>
      </trkpt>
      <trkpt lat="43.28273" lon="5.3124">
        <ele>65.03</ele>
        <time>2017-05-05T10:36:32Z</time>
      </trkpt>
      <trkpt lat="43.28278" lon="5.31253">
        <ele>65.03</ele>
        <time>2017-05-05T10:36:44Z</time>
      </trkpt>
      <trkpt lat="43.28274" lon="5.31253">
        <ele>65.03</ele>
        <time>2017-05-05T10:37:02Z</time>
      </trkpt>
      <trkpt lat="43.28273" lon="5.31251">
        <ele>65.03</ele>
        <time>2017-05-05T10:37:16Z</time>
      </trkpt>
      <trkpt lat="43.28273" lon="5.31246">
        <ele>65.03</ele>
        <time>2017-05-05T10:37:20Z</time>
      </trkpt>
      <trkpt lat="43.28271" lon="5.31236">
        <ele>65.99</ele>
        <time>2017-05-05T10:37:33Z</time>
      </trkpt>
      <trkpt lat="43.28273" lon="5.31218">
        <ele>67.43</ele>
        <time>2017-05-05T10:37:48Z</time>
      </trkpt>
      <trkpt lat="43.2827" lon="5.31204">
        <ele>68.39</ele>
        <time>2017-05-05T10:38:01Z</time>
      </trkpt>
      <trkpt lat="43.28271" lon="5.3119">
        <ele>69.35</ele>
        <time>2017-05-05T10:38:13Z</time>
      </trkpt>
      <trkpt lat="43.28274" lon="5.31179">
        <ele>69.35</ele>
        <time>2017-05-05T10:38:23Z</time>
      </trkpt>
      <trkpt lat="43.2828" lon="5.31162">
        <ele>69.83</ele>
        <time>2017-05-05T10:38:38Z</time>
      </trkpt>
      <trkpt lat="43.28285" lon="5.31148">
        <ele>71.27</ele>
        <time>2017-05-05T10:38:52Z</time>
      </trkpt>
      <trkpt lat="43.2829" lon="5.31133">
        <ele>72.24</ele>
        <time>2017-05-05T10:39:08Z</time>
      </trkpt>
      <trkpt lat="43.28294" lon="5.31116">
        <ele>72.24</ele>
        <time>2017-05-05T10:39:22Z</time>
      </trkpt>
      <trkpt lat="43.28299" lon="5.31104">
        <ele>71.76</ele>
        <time>2017-05-05T10:39:35Z</time>
      </trkpt>
      <trkpt lat="43.28301" lon="5.31099">
        <ele>71.76</ele>
        <time>2017-05-05T10:39:51Z</time>
      </trkpt>
      <trkpt lat="43.28302" lon="5.31098">
        <ele>71.76</ele>
        <time>2017-05-05T10:40:05Z</time>
      </trkpt>
      <trkpt lat="43.28302" lon="5.31097">
        <ele>71.76</ele>
        <time>2017-05-05T10:40:23Z</time>
      </trkpt>
      <trkpt lat="43.28307" lon="5.31094">
        <ele>71.76</ele>
        <time>2017-05-05T10:40:32Z</time>
      </trkpt>
      <trkpt lat="43.28314" lon="5.31087">
        <ele>71.27</ele>
        <time>2017-05-05T10:40:45Z</time>
      </trkpt>
      <trkpt lat="43.28324" lon="5.31077">
        <ele>70.79</ele>
        <time>2017-05-05T10:40:57Z</time>
      </trkpt>
      <trkpt lat="43.28335" lon="5.31063">
        <ele>70.79</ele>
        <time>2017-05-05T10:41:12Z</time>
      </trkpt>
      <trkpt lat="43.28338" lon="5.31048">
        <ele>70.79</ele>
        <time>2017-05-05T10:41:25Z</time>
      </trkpt>
      <trkpt lat="43.28341" lon="5.3103">
        <ele>71.27</ele>
        <time>2017-05-05T10:41:40Z</time>
      </trkpt>
      <trkpt lat="43.2834" lon="5.31017">
        <ele>71.27</ele>
        <time>2017-05-05T10:41:52Z</time>
      </trkpt>
      <trkpt lat="43.28342" lon="5.31002">
        <ele>71.76</ele>
        <time>2017-05-05T10:42:06Z</time>
      </trkpt>
      <trkpt lat="43.28343" lon="5.30994">
        <ele>71.27</ele>
        <time>2017-05-05T10:42:18Z</time>
      </trkpt>
      <trkpt lat="43.28343" lon="5.30991">
        <ele>70.79</ele>
        <time>2017-05-05T10:42:29Z</time>
      </trkpt>
      <trkpt lat="43.28346" lon="5.30981">
        <ele>70.79</ele>
        <time>2017-05-05T10:42:45Z</time>
      </trkpt>
      <trkpt lat="43.28346" lon="5.3098">
        <ele>70.31</ele>
        <time>2017-05-05T10:42:46Z</time>
      </trkpt>
      <trkpt lat="43.28348" lon="5.30973">
        <ele>70.31</ele>
        <time>2017-05-05T10:42:51Z</time>
      </trkpt>
      <trkpt lat="43.28353" lon="5.30967">
        <ele>70.79</ele>
        <time>2017-05-05T10:42:58Z</time>
      </trkpt>
      <trkpt lat="43.28355" lon="5.30965">
        <ele>70.79</ele>
        <time>2017-05-05T10:43:00Z</time>
      </trkpt>
      <trkpt lat="43.28357" lon="5.30964">
        <ele>71.27</ele>
        <time>2017-05-05T10:43:02Z</time>
      </trkpt>
      <trkpt lat="43.28358" lon="5.30961">
        <ele>71.27</ele>
        <time>2017-05-05T10:43:04Z</time>
      </trkpt>
      <trkpt lat="43.28358" lon="5.30949">
        <ele>72.72</ele>
        <time>2017-05-05T10:43:18Z</time>
      </trkpt>
      <trkpt lat="43.28359" lon="5.30948">
        <ele>73.68</ele>
        <time>2017-05-05T10:43:33Z</time>
      </trkpt>
      <trkpt lat="43.28363" lon="5.30948">
        <ele>73.2</ele>
        <time>2017-05-05T10:43:47Z</time>
      </trkpt>
      <trkpt lat="43.28367" lon="5.30948">
        <ele>73.2</ele>
        <time>2017-05-05T10:44:01Z</time>
      </trkpt>
      <trkpt lat="43.28369" lon="5.30949">
        <ele>72.24</ele>
        <time>2017-05-05T10:44:18Z</time>
      </trkpt>
      <trkpt lat="43.28371" lon="5.30949">
        <ele>72.72</ele>
        <time>2017-05-05T10:44:42Z</time>
      </trkpt>
      <trkpt lat="43.28371" lon="5.30948">
        <ele>72.24</ele>
        <time>2017-05-05T10:45:06Z</time>
      </trkpt>
      <trkpt lat="43.28371" lon="5.30948">
        <ele>72.24</ele>
        <time>2017-05-05T10:45:39Z</time>
      </trkpt>
      <trkpt lat="43.28372" lon="5.30948">
        <ele>72.72</ele>
        <time>2017-05-05T10:46:01Z</time>
      </trkpt>
      <trkpt lat="43.28372" lon="5.30949">
        <ele>72.24</ele>
        <time>2017-05-05T10:46:25Z</time>
      </trkpt>
      <trkpt lat="43.28372" lon="5.30949">
        <ele>72.24</ele>
        <time>2017-05-05T10:46:56Z</time>
      </trkpt>
      <trkpt lat="43.28372" lon="5.3095">
        <ele>72.24</ele>
        <time>2017-05-05T10:47:33Z</time>
      </trkpt>
      <trkpt lat="43.28372" lon="5.3095">
        <ele>72.24</ele>
        <time>2017-05-05T10:48:18Z</time>
      </trkpt>
      <trkpt lat="43.28372" lon="5.30949">
        <ele>72.24</ele>
        <time>2017-05-05T10:49:00Z</time>
      </trkpt>
      <trkpt lat="43.28372" lon="5.3095">
        <ele>72.24</ele>
        <time>2017-05-05T10:49:42Z</time>
      </trkpt>
      <trkpt lat="43.28372" lon="5.3095">
        <ele>72.72</ele>
        <time>2017-05-05T10:50:24Z</time>
      </trkpt>
      <trkpt lat="43.28372" lon="5.3095">
        <ele>72.72</ele>
        <time>2017-05-05T10:51:05Z</time>
      </trkpt>
      <trkpt lat="43.28372" lon="5.30949">
        <ele>72.72</ele>
        <time>2017-05-05T10:51:43Z</time>
      </trkpt>
      <trkpt lat="43.28372" lon="5.30949">
        <ele>72.72</ele>
        <time>2017-05-05T10:52:26Z</time>
      </trkpt>
      <trkpt lat="43.28372" lon="5.30949">
        <ele>73.2</ele>
        <time>2017-05-05T10:53:12Z</time>
      </trkpt>
      <trkpt lat="43.28372" lon="5.30949">
        <ele>73.2</ele>
        <time>2017-05-05T10:53:52Z</time>
      </trkpt>
      <trkpt lat="43.28372" lon="5.30949">
        <ele>73.68</ele>
        <time>2017-05-05T10:54:35Z</time>
      </trkpt>
      <trkpt lat="43.28372" lon="5.3095">
        <ele>73.68</ele>
        <time>2017-05-05T10:55:09Z</time>
      </trkpt>
      <trkpt lat="43.28372" lon="5.30949">
        <ele>73.2</ele>
        <time>2017-05-05T10:55:44Z</time>
      </trkpt>
      <trkpt lat="43.28372" lon="5.30949">
        <ele>73.2</ele>
        <time>2017-05-05T10:56:24Z</time>
      </trkpt>
      <trkpt lat="43.28372" lon="5.30949">
        <ele>73.68</ele>
        <time>2017-05-05T10:57:04Z</time>
      </trkpt>
      <trkpt lat="43.28372" lon="5.30949">
        <ele>73.68</ele>
        <time>2017-05-05T10:57:45Z</time>
      </trkpt>
      <trkpt lat="43.28372" lon="5.30949">
        <ele>73.2</ele>
        <time>2017-05-05T10:58:26Z</time>
      </trkpt>
      <trkpt lat="43.28372" lon="5.30949">
        <ele>73.68</ele>
        <time>2017-05-05T10:59:05Z</time>
      </trkpt>
      <trkpt lat="43.28373" lon="5.30948">
        <ele>73.2</ele>
        <time>2017-05-05T10:59:38Z</time>
      </trkpt>
      <trkpt lat="43.28373" lon="5.30949">
        <ele>73.68</ele>
        <time>2017-05-05T11:00:12Z</time>
      </trkpt>
      <trkpt lat="43.28372" lon="5.30949">
        <ele>73.68</ele>
        <time>2017-05-05T11:00:47Z</time>
      </trkpt>
      <trkpt lat="43.28372" lon="5.30949">
        <ele>73.68</ele>
        <time>2017-05-05T11:01:27Z</time>
      </trkpt>
      <trkpt lat="43.28372" lon="5.30949">
        <ele>73.2</ele>
        <time>2017-05-05T11:02:09Z</time>
      </trkpt>
      <trkpt lat="43.28373" lon="5.30949">
        <ele>73.2</ele>
        <time>2017-05-05T11:02:44Z</time>
      </trkpt>
      <trkpt lat="43.28373" lon="5.30949">
        <ele>73.2</ele>
        <time>2017-05-05T11:03:20Z</time>
      </trkpt>
      <trkpt lat="43.28373" lon="5.30949">
        <ele>73.68</ele>
        <time>2017-05-05T11:03:49Z</time>
      </trkpt>
      <trkpt lat="43.28373" lon="5.30949">
        <ele>73.68</ele>
        <time>2017-05-05T11:04:28Z</time>
      </trkpt>
      <trkpt lat="43.28373" lon="5.3095">
        <ele>73.68</ele>
        <time>2017-05-05T11:05:03Z</time>
      </trkpt>
      <trkpt lat="43.28372" lon="5.30949">
        <ele>73.68</ele>
        <time>2017-05-05T11:05:31Z</time>
      </trkpt>
      <trkpt lat="43.28373" lon="5.3095">
        <ele>73.68</ele>
        <time>2017-05-05T11:06:05Z</time>
      </trkpt>
      <trkpt lat="43.28373" lon="5.3095">
        <ele>73.2</ele>
        <time>2017-05-05T11:06:37Z</time>
      </trkpt>
      <trkpt lat="43.28373" lon="5.3095">
        <ele>73.2</ele>
        <time>2017-05-05T11:07:13Z</time>
      </trkpt>
      <trkpt lat="43.28373" lon="5.3095">
        <ele>73.68</ele>
        <time>2017-05-05T11:07:49Z</time>
      </trkpt>
      <trkpt lat="43.28372" lon="5.3095">
        <ele>73.2</ele>
        <time>2017-05-05T11:08:21Z</time>
      </trkpt>
      <trkpt lat="43.28373" lon="5.3095">
        <ele>73.2</ele>
        <time>2017-05-05T11:08:50Z</time>
      </trkpt>
      <trkpt lat="43.28372" lon="5.3095">
        <ele>73.2</ele>
        <time>2017-05-05T11:09:17Z</time>
      </trkpt>
      <trkpt lat="43.28372" lon="5.3095">
        <ele>73.68</ele>
        <time>2017-05-05T11:09:47Z</time>
      </trkpt>
      <trkpt lat="43.28372" lon="5.3095">
        <ele>73.68</ele>
        <time>2017-05-05T11:10:14Z</time>
      </trkpt>
      <trkpt lat="43.28372" lon="5.3095">
        <ele>73.68</ele>
        <time>2017-05-05T11:10:45Z</time>
      </trkpt>
      <trkpt lat="43.28372" lon="5.3095">
        <ele>73.68</ele>
        <time>2017-05-05T11:11:15Z</time>
      </trkpt>
      <trkpt lat="43.28372" lon="5.3095">
        <ele>73.68</ele>
        <time>2017-05-05T11:11:47Z</time>
      </trkpt>
      <trkpt lat="43.28372" lon="5.3095">
        <ele>73.68</ele>
        <time>2017-05-05T11:12:22Z</time>
      </trkpt>
      <trkpt lat="43.28372" lon="5.3095">
        <ele>73.68</ele>
        <time>2017-05-05T11:12:52Z</time>
      </trkpt>
      <trkpt lat="43.28372" lon="5.3095">
        <ele>74.16</ele>
        <time>2017-05-05T11:13:34Z</time>
      </trkpt>
      <trkpt lat="43.28372" lon="5.3095">
        <ele>73.68</ele>
        <time>2017-05-05T11:14:07Z</time>
      </trkpt>
      <trkpt lat="43.28372" lon="5.3095">
        <ele>74.16</ele>
        <time>2017-05-05T11:14:34Z</time>
      </trkpt>
      <trkpt lat="43.28372" lon="5.30949">
        <ele>74.16</ele>
        <time>2017-05-05T11:15:14Z</time>
      </trkpt>
      <trkpt lat="43.28372" lon="5.30949">
        <ele>74.16</ele>
        <time>2017-05-05T11:15:51Z</time>
      </trkpt>
      <trkpt lat="43.28372" lon="5.30949">
        <ele>74.64</ele>
        <time>2017-05-05T11:16:26Z</time>
      </trkpt>
      <trkpt lat="43.28372" lon="5.30949">
        <ele>74.64</ele>
        <time>2017-05-05T11:17:07Z</time>
      </trkpt>
      <trkpt lat="43.28372" lon="5.30949">
        <ele>74.64</ele>
        <time>2017-05-05T11:17:36Z</time>
      </trkpt>
      <trkpt lat="43.28372" lon="5.30949">
        <ele>74.64</ele>
        <time>2017-05-05T11:18:07Z</time>
      </trkpt>
      <trkpt lat="43.28372" lon="5.30949">
        <ele>74.64</ele>
        <time>2017-05-05T11:18:40Z</time>
      </trkpt>
      <trkpt lat="43.28372" lon="5.30949">
        <ele>74.16</ele>
        <time>2017-05-05T11:19:16Z</time>
      </trkpt>
      <trkpt lat="43.28372" lon="5.30949">
        <ele>74.16</ele>
        <time>2017-05-05T11:19:47Z</time>
      </trkpt>
      <trkpt lat="43.28372" lon="5.30949">
        <ele>74.16</ele>
        <time>2017-05-05T11:20:23Z</time>
      </trkpt>
      <trkpt lat="43.28372" lon="5.30949">
        <ele>74.64</ele>
        <time>2017-05-05T11:21:07Z</time>
      </trkpt>
      <trkpt lat="43.28373" lon="5.30949">
        <ele>74.64</ele>
        <time>2017-05-05T11:21:47Z</time>
      </trkpt>
      <trkpt lat="43.28373" lon="5.30949">
        <ele>74.16</ele>
        <time>2017-05-05T11:22:21Z</time>
      </trkpt>
      <trkpt lat="43.28372" lon="5.30949">
        <ele>74.16</ele>
        <time>2017-05-05T11:22:56Z</time>
      </trkpt>
      <trkpt lat="43.28372" lon="5.30949">
        <ele>74.16</ele>
        <time>2017-05-05T11:23:31Z</time>
      </trkpt>
      <trkpt lat="43.28372" lon="5.30949">
        <ele>74.16</ele>
        <time>2017-05-05T11:24:02Z</time>
      </trkpt>
      <trkpt lat="43.28372" lon="5.30949">
        <ele>74.64</ele>
        <time>2017-05-05T11:24:33Z</time>
      </trkpt>
      <trkpt lat="43.28372" lon="5.30949">
        <ele>74.64</ele>
        <time>2017-05-05T11:25:05Z</time>
      </trkpt>
      <trkpt lat="43.28373" lon="5.30949">
        <ele>74.64</ele>
        <time>2017-05-05T11:25:40Z</time>
      </trkpt>
      <trkpt lat="43.28373" lon="5.30949">
        <ele>74.64</ele>
        <time>2017-05-05T11:26:12Z</time>
      </trkpt>
      <trkpt lat="43.28373" lon="5.30949">
        <ele>74.64</ele>
        <time>2017-05-05T11:26:48Z</time>
      </trkpt>
      <trkpt lat="43.28373" lon="5.30949">
        <ele>75.12</ele>
        <time>2017-05-05T11:27:26Z</time>
      </trkpt>
      <trkpt lat="43.28373" lon="5.30948">
        <ele>75.12</ele>
        <time>2017-05-05T11:28:04Z</time>
      </trkpt>
      <trkpt lat="43.28372" lon="5.30948">
        <ele>75.12</ele>
        <time>2017-05-05T11:28:30Z</time>
      </trkpt>
      <trkpt lat="43.28372" lon="5.30948">
        <ele>75.12</ele>
        <time>2017-05-05T11:29:00Z</time>
      </trkpt>
      <trkpt lat="43.28372" lon="5.30948">
        <ele>76.08</ele>
        <time>2017-05-05T11:29:18Z</time>
      </trkpt>
      <trkpt lat="43.2837" lon="5.30948">
        <ele>76.08</ele>
        <time>2017-05-05T11:29:32Z</time>
      </trkpt>
      <trkpt lat="43.28368" lon="5.30947">
        <ele>76.08</ele>
        <time>2017-05-05T11:29:56Z</time>
      </trkpt>
      <trkpt lat="43.28368" lon="5.30947">
        <ele>76.56</ele>
        <time>2017-05-05T11:30:02Z</time>
      </trkpt>
      <trkpt lat="43.28365" lon="5.30943">
        <ele>75.12</ele>
        <time>2017-05-05T11:30:13Z</time>
      </trkpt>
      <trkpt lat="43.2836" lon="5.30937">
        <ele>74.64</ele>
        <time>2017-05-05T11:30:28Z</time>
      </trkpt>
      <trkpt lat="43.28361" lon="5.30936">
        <ele>74.64</ele>
        <time>2017-05-05T11:30:35Z</time>
      </trkpt>
      <trkpt lat="43.28357" lon="5.30945">
        <ele>74.64</ele>
        <time>2017-05-05T11:30:45Z</time>
      </trkpt>
      <trkpt lat="43.28356" lon="5.30947">
        <ele>74.64</ele>
        <time>2017-05-05T11:30:47Z</time>
      </trkpt>
      <trkpt lat="43.28354" lon="5.30958">
        <ele>71.76</ele>
        <time>2017-05-05T11:31:01Z</time>
      </trkpt>
      <trkpt lat="43.28347" lon="5.3096">
        <ele>70.31</ele>
        <time>2017-05-05T11:31:14Z</time>
      </trkpt>
      <trkpt lat="43.28342" lon="5.30954">
        <ele>68.87</ele>
        <time>2017-05-05T11:31:27Z</time>
      </trkpt>
      <trkpt lat="43.2834" lon="5.30947">
        <ele>69.35</ele>
        <time>2017-05-05T11:31:37Z</time>
      </trkpt>
      <trkpt lat="43.28339" lon="5.30942">
        <ele>68.87</ele>
        <time>2017-05-05T11:31:40Z</time>
      </trkpt>
      <trkpt lat="43.28343" lon="5.30932">
        <ele>69.83</ele>
        <time>2017-05-05T11:31:46Z</time>
      </trkpt>
      <trkpt lat="43.28348" lon="5.30918">
        <ele>70.79</ele>
        <time>2017-05-05T11:32:00Z</time>
      </trkpt>
      <trkpt lat="43.28353" lon="5.30917">
        <ele>69.35</ele>
        <time>2017-05-05T11:32:10Z</time>
      </trkpt>
      <trkpt lat="43.2836" lon="5.30919">
        <ele>68.87</ele>
        <time>2017-05-05T11:32:16Z</time>
      </trkpt>
      <trkpt lat="43.28373" lon="5.3092">
        <ele>68.39</ele>
        <time>2017-05-05T11:32:31Z</time>
      </trkpt>
      <trkpt lat="43.28377" lon="5.30923">
        <ele>66.95</ele>
        <time>2017-05-05T11:32:45Z</time>
      </trkpt>
      <trkpt lat="43.28377" lon="5.3092">
        <ele>65.03</ele>
        <time>2017-05-05T11:33:00Z</time>
      </trkpt>
      <trkpt lat="43.28379" lon="5.30913">
        <ele>62.62</ele>
        <time>2017-05-05T11:33:11Z</time>
      </trkpt>
      <trkpt lat="43.28382" lon="5.30909">
        <ele>60.22</ele>
        <time>2017-05-05T11:33:23Z</time>
      </trkpt>
      <trkpt lat="43.28384" lon="5.30905">
        <ele>58.78</ele>
        <time>2017-05-05T11:33:36Z</time>
      </trkpt>
      <trkpt lat="43.28385" lon="5.30902">
        <ele>58.3</ele>
        <time>2017-05-05T11:33:41Z</time>
      </trkpt>
      <trkpt lat="43.2839" lon="5.3089">
        <ele>57.34</ele>
        <time>2017-05-05T11:33:46Z</time>
      </trkpt>
      <trkpt lat="43.28392" lon="5.3088">
        <ele>57.34</ele>
        <time>2017-05-05T11:33:55Z</time>
      </trkpt>
      <trkpt lat="43.28394" lon="5.30864">
        <ele>56.37</ele>
        <time>2017-05-05T11:34:08Z</time>
      </trkpt>
      <trkpt lat="43.28395" lon="5.30858">
        <ele>56.37</ele>
        <time>2017-05-05T11:34:12Z</time>
      </trkpt>
      <trkpt lat="43.28396" lon="5.30855">
        <ele>55.41</ele>
        <time>2017-05-05T11:34:14Z</time>
      </trkpt>
      <trkpt lat="43.28397" lon="5.30844">
        <ele>55.89</ele>
        <time>2017-05-05T11:34:21Z</time>
      </trkpt>
      <trkpt lat="43.28392" lon="5.30828">
        <ele>54.45</ele>
        <time>2017-05-05T11:34:36Z</time>
      </trkpt>
      <trkpt lat="43.28386" lon="5.30823">
        <ele>53.01</ele>
        <time>2017-05-05T11:34:52Z</time>
      </trkpt>
      <trkpt lat="43.28385" lon="5.30817">
        <ele>54.45</ele>
        <time>2017-05-05T11:34:59Z</time>
      </trkpt>
      <trkpt lat="43.28379" lon="5.30807">
        <ele>56.37</ele>
        <time>2017-05-05T11:35:15Z</time>
      </trkpt>
      <trkpt lat="43.28379" lon="5.30805">
        <ele>56.86</ele>
        <time>2017-05-05T11:35:18Z</time>
      </trkpt>
      <trkpt lat="43.28377" lon="5.30793">
        <ele>56.86</ele>
        <time>2017-05-05T11:35:25Z</time>
      </trkpt>
      <trkpt lat="43.2837" lon="5.30776">
        <ele>56.86</ele>
        <time>2017-05-05T11:35:41Z</time>
      </trkpt>
      <trkpt lat="43.28364" lon="5.30766">
        <ele>57.82</ele>
        <time>2017-05-05T11:35:54Z</time>
      </trkpt>
      <trkpt lat="43.28364" lon="5.30766">
        <ele>57.34</ele>
        <time>2017-05-05T11:35:55Z</time>
      </trkpt>
      <trkpt lat="43.28362" lon="5.30749">
        <ele>54.93</ele>
        <time>2017-05-05T11:36:10Z</time>
      </trkpt>
      <trkpt lat="43.28362" lon="5.30744">
        <ele>54.93</ele>
        <time>2017-05-05T11:36:24Z</time>
      </trkpt>
      <trkpt lat="43.28361" lon="5.30744">
        <ele>55.41</ele>
        <time>2017-05-05T11:36:27Z</time>
      </trkpt>
      <trkpt lat="43.28359" lon="5.30741">
        <ele>55.89</ele>
        <time>2017-05-05T11:36:42Z</time>
      </trkpt>
      <trkpt lat="43.28358" lon="5.30742">
        <ele>55.41</ele>
        <time>2017-05-05T11:36:44Z</time>
      </trkpt>
      <trkpt lat="43.28355" lon="5.30744">
        <ele>53.49</ele>
        <time>2017-05-05T11:36:52Z</time>
      </trkpt>
      <trkpt lat="43.28351" lon="5.30745">
        <ele>52.05</ele>
        <time>2017-05-05T11:36:57Z</time>
      </trkpt>
      <trkpt lat="43.2834" lon="5.30746">
        <ele>50.13</ele>
        <time>2017-05-05T11:37:09Z</time>
      </trkpt>
      <trkpt lat="43.28335" lon="5.3075">
        <ele>49.16</ele>
        <time>2017-05-05T11:37:15Z</time>
      </trkpt>
      <trkpt lat="43.28328" lon="5.3076">
        <ele>47.24</ele>
        <time>2017-05-05T11:37:27Z</time>
      </trkpt>
      <trkpt lat="43.28322" lon="5.30763">
        <ele>45.32</ele>
        <time>2017-05-05T11:37:36Z</time>
      </trkpt>
      <trkpt lat="43.28313" lon="5.30765">
        <ele>43.4</ele>
        <time>2017-05-05T11:37:49Z</time>
      </trkpt>
      <trkpt lat="43.28309" lon="5.30766">
        <ele>42.44</ele>
        <time>2017-05-05T11:37:54Z</time>
      </trkpt>
      <trkpt lat="43.28298" lon="5.30771">
        <ele>40.03</ele>
        <time>2017-05-05T11:38:10Z</time>
      </trkpt>
      <trkpt lat="43.28289" lon="5.30768">
        <ele>39.07</ele>
        <time>2017-05-05T11:38:21Z</time>
      </trkpt>
      <trkpt lat="43.28287" lon="5.30767">
        <ele>38.11</ele>
        <time>2017-05-05T11:38:32Z</time>
      </trkpt>
      <trkpt lat="43.28283" lon="5.30768">
        <ele>36.67</ele>
        <time>2017-05-05T11:38:42Z</time>
      </trkpt>
      <trkpt lat="43.28275" lon="5.30769">
        <ele>34.26</ele>
        <time>2017-05-05T11:38:56Z</time>
      </trkpt>
      <trkpt lat="43.28271" lon="5.30767">
        <ele>33.3</ele>
        <time>2017-05-05T11:39:06Z</time>
      </trkpt>
      <trkpt lat="43.2826" lon="5.30767">
        <ele>31.38</ele>
        <time>2017-05-05T11:39:19Z</time>
      </trkpt>
      <trkpt lat="43.28256" lon="5.30766">
        <ele>29.46</ele>
        <time>2017-05-05T11:39:36Z</time>
      </trkpt>
      <trkpt lat="43.28247" lon="5.30764">
        <ele>29.46</ele>
        <time>2017-05-05T11:39:51Z</time>
      </trkpt>
      <trkpt lat="43.28247" lon="5.30764">
        <ele>28.02</ele>
        <time>2017-05-05T11:39:54Z</time>
      </trkpt>
      <trkpt lat="43.28244" lon="5.30759">
        <ele>26.09</ele>
        <time>2017-05-05T11:40:05Z</time>
      </trkpt>
      <trkpt lat="43.28236" lon="5.30753">
        <ele>23.21</ele>
        <time>2017-05-05T11:40:17Z</time>
      </trkpt>
      <trkpt lat="43.28231" lon="5.30745">
        <ele>21.77</ele>
        <time>2017-05-05T11:40:27Z</time>
      </trkpt>
      <trkpt lat="43.28226" lon="5.30741">
        <ele>20.81</ele>
        <time>2017-05-05T11:40:34Z</time>
      </trkpt>
      <trkpt lat="43.28221" lon="5.30738">
        <ele>19.36</ele>
        <time>2017-05-05T11:40:44Z</time>
      </trkpt>
      <trkpt lat="43.28216" lon="5.30733">
        <ele>16.96</ele>
        <time>2017-05-05T11:40:56Z</time>
      </trkpt>
      <trkpt lat="43.2821" lon="5.30723">
        <ele>14.08</ele>
        <time>2017-05-05T11:41:09Z</time>
      </trkpt>
      <trkpt lat="43.28205" lon="5.30723">
        <ele>12.15</ele>
        <time>2017-05-05T11:41:20Z</time>
      </trkpt>
      <trkpt lat="43.28202" lon="5.30722">
        <ele>11.19</ele>
        <time>2017-05-05T11:41:24Z</time>
      </trkpt>
      <trkpt lat="43.28199" lon="5.30714">
        <ele>9.75</ele>
        <time>2017-05-05T11:41:30Z</time>
      </trkpt>
      <trkpt lat="43.28194" lon="5.30699">
        <ele>7.35</ele>
        <time>2017-05-05T11:41:44Z</time>
      </trkpt>
      <trkpt lat="43.28187" lon="5.30692">
        <ele>4.94</ele>
        <time>2017-05-05T11:41:57Z</time>
      </trkpt>
      <trkpt lat="43.28179" lon="5.30688">
        <ele>3.5</ele>
        <time>2017-05-05T11:42:11Z</time>
      </trkpt>
      <trkpt lat="43.2818" lon="5.30684">
        <ele>3.02</ele>
        <time>2017-05-05T11:42:33Z</time>
      </trkpt>
      <trkpt lat="43.28181" lon="5.30684">
        <ele>3.5</ele>
        <time>2017-05-05T11:42:54Z</time>
      </trkpt>
      <trkpt lat="43.28181" lon="5.30683">
        <ele>3.5</ele>
        <time>2017-05-05T11:43:00Z</time>
      </trkpt>
      <trkpt lat="43.28175" lon="5.30665">
        <ele>3.02</ele>
        <time>2017-05-05T11:43:14Z</time>
      </trkpt>
      <trkpt lat="43.28172" lon="5.30651">
        <ele>3.02</ele>
        <time>2017-05-05T11:43:22Z</time>
      </trkpt>
      <trkpt lat="43.28169" lon="5.30631">
        <ele>3.02</ele>
        <time>2017-05-05T11:43:33Z</time>
      </trkpt>
      <trkpt lat="43.28167" lon="5.30606">
        <ele>3.02</ele>
        <time>2017-05-05T11:43:47Z</time>
      </trkpt>
      <trkpt lat="43.28167" lon="5.30599">
        <ele>2.54</ele>
        <time>2017-05-05T11:43:51Z</time>
      </trkpt>
      <trkpt lat="43.28166" lon="5.30592">
        <ele>2.54</ele>
        <time>2017-05-05T11:43:55Z</time>
      </trkpt>
      <trkpt lat="43.28165" lon="5.30576">
        <ele>2.54</ele>
        <time>2017-05-05T11:44:05Z</time>
      </trkpt>
      <trkpt lat="43.28163" lon="5.30557">
        <ele>2.54</ele>
        <time>2017-05-05T11:44:17Z</time>
      </trkpt>
      <trkpt lat="43.28163" lon="5.30555">
        <ele>3.02</ele>
        <time>2017-05-05T11:44:18Z</time>
      </trkpt>
      <trkpt lat="43.28165" lon="5.30539">
        <ele>3.02</ele>
        <time>2017-05-05T11:44:26Z</time>
      </trkpt>
      <trkpt lat="43.28166" lon="5.30528">
        <ele>3.02</ele>
        <time>2017-05-05T11:44:32Z</time>
      </trkpt>
      <trkpt lat="43.28167" lon="5.30523">
        <ele>3.02</ele>
        <time>2017-05-05T11:44:35Z</time>
      </trkpt>
      <trkpt lat="43.28174" lon="5.30511">
        <ele>2.54</ele>
        <time>2017-05-05T11:44:43Z</time>
      </trkpt>
      <trkpt lat="43.28181" lon="5.30503">
        <ele>3.02</ele>
        <time>2017-05-05T11:44:52Z</time>
      </trkpt>
      <trkpt lat="43.28182" lon="5.305">
        <ele>3.02</ele>
        <time>2017-05-05T11:44:54Z</time>
      </trkpt>
      <trkpt lat="43.2818" lon="5.30482">
        <ele>4.46</ele>
        <time>2017-05-05T11:45:07Z</time>
      </trkpt>
      <trkpt lat="43.28177" lon="5.30476">
        <ele>4.94</ele>
        <time>2017-05-05T11:45:12Z</time>
      </trkpt>
      <trkpt lat="43.28177" lon="5.30473">
        <ele>4.94</ele>
        <time>2017-05-05T11:45:14Z</time>
      </trkpt>
      <trkpt lat="43.28174" lon="5.30461">
        <ele>5.91</ele>
        <time>2017-05-05T11:45:23Z</time>
      </trkpt>
      <trkpt lat="43.28164" lon="5.30449">
        <ele>6.39</ele>
        <time>2017-05-05T11:45:35Z</time>
      </trkpt>
      <trkpt lat="43.28156" lon="5.30444">
        <ele>6.39</ele>
        <time>2017-05-05T11:45:43Z</time>
      </trkpt>
      <trkpt lat="43.28143" lon="5.30435">
        <ele>5.42</ele>
        <time>2017-05-05T11:45:55Z</time>
      </trkpt>
      <trkpt lat="43.28136" lon="5.3042">
        <ele>7.83</ele>
        <time>2017-05-05T11:46:08Z</time>
      </trkpt>
      <trkpt lat="43.28135" lon="5.30414">
        <ele>7.83</ele>
        <time>2017-05-05T11:46:12Z</time>
      </trkpt>
      <trkpt lat="43.28132" lon="5.30411">
        <ele>7.83</ele>
        <time>2017-05-05T11:46:15Z</time>
      </trkpt>
      <trkpt lat="43.28125" lon="5.30401">
        <ele>9.75</ele>
        <time>2017-05-05T11:46:27Z</time>
      </trkpt>
      <trkpt lat="43.28122" lon="5.30393">
        <ele>11.19</ele>
        <time>2017-05-05T11:46:33Z</time>
      </trkpt>
      <trkpt lat="43.28119" lon="5.30387">
        <ele>11.67</ele>
        <time>2017-05-05T11:46:38Z</time>
      </trkpt>
      <trkpt lat="43.28115" lon="5.30371">
        <ele>13.12</ele>
        <time>2017-05-05T11:46:49Z</time>
      </trkpt>
      <trkpt lat="43.28109" lon="5.30356">
        <ele>15.04</ele>
        <time>2017-05-05T11:47:02Z</time>
      </trkpt>
      <trkpt lat="43.28109" lon="5.30353">
        <ele>15.04</ele>
        <time>2017-05-05T11:47:04Z</time>
      </trkpt>
      <trkpt lat="43.28105" lon="5.30332">
        <ele>16</ele>
        <time>2017-05-05T11:47:17Z</time>
      </trkpt>
      <trkpt lat="43.28103" lon="5.30311">
        <ele>17.44</ele>
        <time>2017-05-05T11:47:30Z</time>
      </trkpt>
      <trkpt lat="43.28098" lon="5.30291">
        <ele>18.4</ele>
        <time>2017-05-05T11:47:44Z</time>
      </trkpt>
      <trkpt lat="43.28095" lon="5.30274">
        <ele>16.96</ele>
        <time>2017-05-05T11:47:55Z</time>
      </trkpt>
      <trkpt lat="43.28093" lon="5.3026">
        <ele>18.88</ele>
        <time>2017-05-05T11:48:04Z</time>
      </trkpt>
      <trkpt lat="43.28089" lon="5.30248">
        <ele>20.32</ele>
        <time>2017-05-05T11:48:13Z</time>
      </trkpt>
      <trkpt lat="43.28089" lon="5.30242">
        <ele>18.4</ele>
        <time>2017-05-05T11:48:17Z</time>
      </trkpt>
      <trkpt lat="43.28086" lon="5.30231">
        <ele>19.36</ele>
        <time>2017-05-05T11:48:24Z</time>
      </trkpt>
      <trkpt lat="43.28084" lon="5.30209">
        <ele>18.88</ele>
        <time>2017-05-05T11:48:38Z</time>
      </trkpt>
      <trkpt lat="43.28081" lon="5.30198">
        <ele>21.29</ele>
        <time>2017-05-05T11:48:47Z</time>
      </trkpt>
      <trkpt lat="43.28072" lon="5.3022">
        <ele>18.4</ele>
        <time>2017-05-05T11:49:03Z</time>
      </trkpt>
      <trkpt lat="43.28062" lon="5.30234">
        <ele>16.96</ele>
        <time>2017-05-05T11:49:15Z</time>
      </trkpt>
      <trkpt lat="43.28052" lon="5.3025">
        <ele>14.08</ele>
        <time>2017-05-05T11:49:29Z</time>
      </trkpt>
      <trkpt lat="43.28048" lon="5.30262">
        <ele>13.6</ele>
        <time>2017-05-05T11:49:38Z</time>
      </trkpt>
      <trkpt lat="43.28044" lon="5.30267">
        <ele>13.12</ele>
        <time>2017-05-05T11:49:43Z</time>
      </trkpt>
      <trkpt lat="43.28042" lon="5.30279">
        <ele>12.15</ele>
        <time>2017-05-05T11:49:51Z</time>
      </trkpt>
      <trkpt lat="43.2804" lon="5.30295">
        <ele>11.67</ele>
        <time>2017-05-05T11:50:02Z</time>
      </trkpt>
      <trkpt lat="43.28036" lon="5.30315">
        <ele>10.23</ele>
        <time>2017-05-05T11:50:14Z</time>
      </trkpt>
      <trkpt lat="43.28032" lon="5.30333">
        <ele>8.79</ele>
        <time>2017-05-05T11:50:26Z</time>
      </trkpt>
      <trkpt lat="43.28027" lon="5.3034">
        <ele>7.35</ele>
        <time>2017-05-05T11:50:36Z</time>
      </trkpt>
      <trkpt lat="43.28023" lon="5.30344">
        <ele>5.42</ele>
        <time>2017-05-05T11:50:50Z</time>
      </trkpt>
      <trkpt lat="43.2802" lon="5.30355">
        <ele>4.46</ele>
        <time>2017-05-05T11:51:02Z</time>
      </trkpt>
      <trkpt lat="43.28017" lon="5.30359">
        <ele>4.46</ele>
        <time>2017-05-05T11:51:10Z</time>
      </trkpt>
      <trkpt lat="43.28006" lon="5.30363">
        <ele>6.39</ele>
        <time>2017-05-05T11:51:21Z</time>
      </trkpt>
      <trkpt lat="43.27993" lon="5.30363">
        <ele>7.83</ele>
        <time>2017-05-05T11:51:34Z</time>
      </trkpt>
      <trkpt lat="43.2799" lon="5.30361">
        <ele>8.31</ele>
        <time>2017-05-05T11:51:37Z</time>
      </trkpt>
      <trkpt lat="43.27978" lon="5.30346">
        <ele>9.75</ele>
        <time>2017-05-05T11:51:49Z</time>
      </trkpt>
      <trkpt lat="43.27975" lon="5.30343">
        <ele>10.23</ele>
        <time>2017-05-05T11:51:52Z</time>
      </trkpt>
      <trkpt lat="43.27972" lon="5.3034">
        <ele>10.23</ele>
        <time>2017-05-05T11:51:55Z</time>
      </trkpt>
      <trkpt lat="43.27969" lon="5.30337">
        <ele>11.19</ele>
        <time>2017-05-05T11:51:59Z</time>
      </trkpt>
      <trkpt lat="43.27966" lon="5.3033">
        <ele>10.23</ele>
        <time>2017-05-05T11:52:04Z</time>
      </trkpt>
      <trkpt lat="43.27956" lon="5.30323">
        <ele>8.79</ele>
        <time>2017-05-05T11:52:14Z</time>
      </trkpt>
      <trkpt lat="43.27944" lon="5.30328">
        <ele>7.35</ele>
        <time>2017-05-05T11:52:27Z</time>
      </trkpt>
      <trkpt lat="43.27935" lon="5.30333">
        <ele>6.39</ele>
        <time>2017-05-05T11:52:36Z</time>
      </trkpt>
      <trkpt lat="43.27924" lon="5.30335">
        <ele>6.39</ele>
        <time>2017-05-05T11:52:47Z</time>
      </trkpt>
      <trkpt lat="43.27906" lon="5.3033">
        <ele>6.39</ele>
        <time>2017-05-05T11:53:02Z</time>
      </trkpt>
      <trkpt lat="43.27886" lon="5.30328">
        <ele>6.87</ele>
        <time>2017-05-05T11:53:17Z</time>
      </trkpt>
      <trkpt lat="43.27872" lon="5.30331">
        <ele>6.39</ele>
        <time>2017-05-05T11:53:30Z</time>
      </trkpt>
      <trkpt lat="43.2786" lon="5.30334">
        <ele>6.39</ele>
        <time>2017-05-05T11:53:40Z</time>
      </trkpt>
      <trkpt lat="43.27844" lon="5.30337">
        <ele>6.87</ele>
        <time>2017-05-05T11:53:53Z</time>
      </trkpt>
      <trkpt lat="43.27825" lon="5.30341">
        <ele>6.87</ele>
        <time>2017-05-05T11:54:09Z</time>
      </trkpt>
      <trkpt lat="43.27813" lon="5.30344">
        <ele>6.39</ele>
        <time>2017-05-05T11:54:19Z</time>
      </trkpt>
      <trkpt lat="43.27794" lon="5.30349">
        <ele>6.39</ele>
        <time>2017-05-05T11:54:33Z</time>
      </trkpt>
      <trkpt lat="43.27774" lon="5.30353">
        <ele>6.87</ele>
        <time>2017-05-05T11:54:48Z</time>
      </trkpt>
      <trkpt lat="43.27754" lon="5.30358">
        <ele>6.87</ele>
        <time>2017-05-05T11:55:03Z</time>
      </trkpt>
      <trkpt lat="43.27736" lon="5.30363">
        <ele>7.35</ele>
        <time>2017-05-05T11:55:17Z</time>
      </trkpt>
      <trkpt lat="43.2772" lon="5.30368">
        <ele>7.35</ele>
        <time>2017-05-05T11:55:30Z</time>
      </trkpt>
      <trkpt lat="43.277" lon="5.30373">
        <ele>7.83</ele>
        <time>2017-05-05T11:55:46Z</time>
      </trkpt>
      <trkpt lat="43.27679" lon="5.30378">
        <ele>7.35</ele>
        <time>2017-05-05T11:56:02Z</time>
      </trkpt>
      <trkpt lat="43.27658" lon="5.30383">
        <ele>7.35</ele>
        <time>2017-05-05T11:56:18Z</time>
      </trkpt>
      <trkpt lat="43.27641" lon="5.30387">
        <ele>7.83</ele>
        <time>2017-05-05T11:56:32Z</time>
      </trkpt>
      <trkpt lat="43.27621" lon="5.30391">
        <ele>7.35</ele>
        <time>2017-05-05T11:56:47Z</time>
      </trkpt>
      <trkpt lat="43.27616" lon="5.30393">
        <ele>7.35</ele>
        <time>2017-05-05T11:56:51Z</time>
      </trkpt>
      <trkpt lat="43.276" lon="5.30397">
        <ele>7.35</ele>
        <time>2017-05-05T11:57:04Z</time>
      </trkpt>
      <trkpt lat="43.27598" lon="5.30398">
        <ele>7.83</ele>
        <time>2017-05-05T11:57:06Z</time>
      </trkpt>
      <trkpt lat="43.27584" lon="5.30399">
        <ele>8.79</ele>
        <time>2017-05-05T11:57:18Z</time>
      </trkpt>
      <trkpt lat="43.27577" lon="5.30386">
        <ele>11.19</ele>
        <time>2017-05-05T11:57:33Z</time>
      </trkpt>
      <trkpt lat="43.27577" lon="5.30386">
        <ele>11.19</ele>
        <time>2017-05-05T11:57:53Z</time>
      </trkpt>
      <trkpt lat="43.27577" lon="5.30386">
        <ele>11.67</ele>
        <time>2017-05-05T11:57:58Z</time>
      </trkpt>
      <trkpt lat="43.27574" lon="5.30384">
        <ele>12.15</ele>
        <time>2017-05-05T11:58:02Z</time>
      </trkpt>
      <trkpt lat="43.27567" lon="5.30372">
        <ele>14.08</ele>
        <time>2017-05-05T11:58:17Z</time>
      </trkpt>
      <trkpt lat="43.27561" lon="5.3036">
        <ele>15.52</ele>
        <time>2017-05-05T11:58:29Z</time>
      </trkpt>
      <trkpt lat="43.27559" lon="5.30355">
        <ele>15.52</ele>
        <time>2017-05-05T11:58:33Z</time>
      </trkpt>
      <trkpt lat="43.27552" lon="5.30343">
        <ele>17.44</ele>
        <time>2017-05-05T11:58:45Z</time>
      </trkpt>
      <trkpt lat="43.27551" lon="5.3034">
        <ele>17.44</ele>
        <time>2017-05-05T11:58:47Z</time>
      </trkpt>
      <trkpt lat="43.27542" lon="5.30328">
        <ele>18.4</ele>
        <time>2017-05-05T11:59:00Z</time>
      </trkpt>
      <trkpt lat="43.2754" lon="5.30325">
        <ele>18.88</ele>
        <time>2017-05-05T11:59:15Z</time>
      </trkpt>
      <trkpt lat="43.27536" lon="5.30323">
        <ele>18.88</ele>
        <time>2017-05-05T11:59:20Z</time>
      </trkpt>
      <trkpt lat="43.27533" lon="5.30323">
        <ele>19.36</ele>
        <time>2017-05-05T11:59:23Z</time>
      </trkpt>
      <trkpt lat="43.2752" lon="5.30321">
        <ele>19.84</ele>
        <time>2017-05-05T11:59:38Z</time>
      </trkpt>
      <trkpt lat="43.27519" lon="5.30323">
        <ele>19.36</ele>
        <time>2017-05-05T11:59:45Z</time>
      </trkpt>
      <trkpt lat="43.27514" lon="5.30327">
        <ele>19.84</ele>
        <time>2017-05-05T11:59:51Z</time>
      </trkpt>
      <trkpt lat="43.27508" lon="5.30328">
        <ele>19.84</ele>
        <time>2017-05-05T11:59:58Z</time>
      </trkpt>
      <trkpt lat="43.27491" lon="5.30328">
        <ele>20.32</ele>
        <time>2017-05-05T12:00:13Z</time>
      </trkpt>
      <trkpt lat="43.27476" lon="5.30324">
        <ele>20.32</ele>
        <time>2017-05-05T12:00:26Z</time>
      </trkpt>
      <trkpt lat="43.27475" lon="5.30324">
        <ele>20.32</ele>
        <time>2017-05-05T12:00:27Z</time>
      </trkpt>
      <trkpt lat="43.27465" lon="5.30325">
        <ele>21.29</ele>
        <time>2017-05-05T12:00:39Z</time>
      </trkpt>
      <trkpt lat="43.27462" lon="5.30335">
        <ele>21.29</ele>
        <time>2017-05-05T12:00:50Z</time>
      </trkpt>
      <trkpt lat="43.27461" lon="5.30344">
        <ele>21.29</ele>
        <time>2017-05-05T12:00:57Z</time>
      </trkpt>
      <trkpt lat="43.27457" lon="5.30348">
        <ele>21.77</ele>
        <time>2017-05-05T12:01:01Z</time>
      </trkpt>
      <trkpt lat="43.27445" lon="5.30351">
        <ele>22.73</ele>
        <time>2017-05-05T12:01:13Z</time>
      </trkpt>
      <trkpt lat="43.27442" lon="5.30351">
        <ele>22.73</ele>
        <time>2017-05-05T12:01:17Z</time>
      </trkpt>
      <trkpt lat="43.2744" lon="5.30351">
        <ele>22.73</ele>
        <time>2017-05-05T12:01:19Z</time>
      </trkpt>
      <trkpt lat="43.27429" lon="5.30361">
        <ele>23.21</ele>
        <time>2017-05-05T12:01:31Z</time>
      </trkpt>
      <trkpt lat="43.27417" lon="5.30374">
        <ele>23.69</ele>
        <time>2017-05-05T12:01:44Z</time>
      </trkpt>
      <trkpt lat="43.27405" lon="5.30381">
        <ele>24.17</ele>
        <time>2017-05-05T12:01:57Z</time>
      </trkpt>
      <trkpt lat="43.274" lon="5.30374">
        <ele>24.17</ele>
        <time>2017-05-05T12:02:08Z</time>
      </trkpt>
      <trkpt lat="43.27399" lon="5.30357">
        <ele>24.65</ele>
        <time>2017-05-05T12:02:21Z</time>
      </trkpt>
      <trkpt lat="43.27399" lon="5.30351">
        <ele>24.65</ele>
        <time>2017-05-05T12:02:25Z</time>
      </trkpt>
      <trkpt lat="43.27399" lon="5.30343">
        <ele>24.65</ele>
        <time>2017-05-05T12:02:30Z</time>
      </trkpt>
      <trkpt lat="43.27399" lon="5.30337">
        <ele>24.65</ele>
        <time>2017-05-05T12:02:34Z</time>
      </trkpt>
      <trkpt lat="43.27395" lon="5.30321">
        <ele>24.65</ele>
        <time>2017-05-05T12:02:45Z</time>
      </trkpt>
      <trkpt lat="43.27394" lon="5.30305">
        <ele>24.17</ele>
        <time>2017-05-05T12:02:57Z</time>
      </trkpt>
      <trkpt lat="43.27393" lon="5.30283">
        <ele>24.17</ele>
        <time>2017-05-05T12:03:09Z</time>
      </trkpt>
      <trkpt lat="43.27393" lon="5.30279">
        <ele>24.17</ele>
        <time>2017-05-05T12:03:11Z</time>
      </trkpt>
      <trkpt lat="43.27393" lon="5.30275">
        <ele>24.17</ele>
        <time>2017-05-05T12:03:13Z</time>
      </trkpt>
      <trkpt lat="43.27393" lon="5.30253">
        <ele>24.17</ele>
        <time>2017-05-05T12:03:25Z</time>
      </trkpt>
      <trkpt lat="43.27394" lon="5.30239">
        <ele>24.65</ele>
        <time>2017-05-05T12:03:35Z</time>
      </trkpt>
      <trkpt lat="43.2739" lon="5.3023">
        <ele>24.17</ele>
        <time>2017-05-05T12:03:49Z</time>
      </trkpt>
      <trkpt lat="43.27389" lon="5.30229">
        <ele>24.65</ele>
        <time>2017-05-05T12:03:51Z</time>
      </trkpt>
      <trkpt lat="43.27383" lon="5.30224">
        <ele>24.65</ele>
        <time>2017-05-05T12:03:57Z</time>
      </trkpt>
      <trkpt lat="43.27377" lon="5.3022">
        <ele>24.17</ele>
        <time>2017-05-05T12:04:12Z</time>
      </trkpt>
      <trkpt lat="43.27375" lon="5.30219">
        <ele>24.17</ele>
        <time>2017-05-05T12:04:14Z</time>
      </trkpt>
      <trkpt lat="43.27361" lon="5.30219">
        <ele>23.69</ele>
        <time>2017-05-05T12:04:26Z</time>
      </trkpt>
      <trkpt lat="43.27355" lon="5.30217">
        <ele>23.21</ele>
        <time>2017-05-05T12:04:31Z</time>
      </trkpt>
      <trkpt lat="43.2735" lon="5.30214">
        <ele>23.69</ele>
        <time>2017-05-05T12:04:35Z</time>
      </trkpt>
      <trkpt lat="43.27344" lon="5.30212">
        <ele>22.73</ele>
        <time>2017-05-05T12:04:40Z</time>
      </trkpt>
      <trkpt lat="43.27337" lon="5.30208">
        <ele>22.73</ele>
        <time>2017-05-05T12:04:47Z</time>
      </trkpt>
      <trkpt lat="43.27331" lon="5.30205">
        <ele>22.25</ele>
        <time>2017-05-05T12:04:52Z</time>
      </trkpt>
      <trkpt lat="43.27329" lon="5.30201">
        <ele>21.77</ele>
        <time>2017-05-05T12:04:55Z</time>
      </trkpt>
      <trkpt lat="43.27323" lon="5.30191">
        <ele>21.29</ele>
        <time>2017-05-05T12:05:03Z</time>
      </trkpt>
      <trkpt lat="43.2732" lon="5.30187">
        <ele>20.81</ele>
        <time>2017-05-05T12:05:06Z</time>
      </trkpt>
      <trkpt lat="43.27319" lon="5.30177">
        <ele>19.84</ele>
        <time>2017-05-05T12:05:11Z</time>
      </trkpt>
      <trkpt lat="43.27316" lon="5.30169">
        <ele>19.84</ele>
        <time>2017-05-05T12:05:16Z</time>
      </trkpt>
      <trkpt lat="43.27315" lon="5.30163">
        <ele>20.32</ele>
        <time>2017-05-05T12:05:19Z</time>
      </trkpt>
      <trkpt lat="43.27314" lon="5.30155">
        <ele>19.36</ele>
        <time>2017-05-05T12:05:23Z</time>
      </trkpt>
      <trkpt lat="43.27313" lon="5.30151">
        <ele>18.4</ele>
        <time>2017-05-05T12:05:25Z</time>
      </trkpt>
      <trkpt lat="43.2731" lon="5.30147">
        <ele>19.36</ele>
        <time>2017-05-05T12:05:28Z</time>
      </trkpt>
      <trkpt lat="43.27307" lon="5.30143">
        <ele>18.88</ele>
        <time>2017-05-05T12:05:31Z</time>
      </trkpt>
      <trkpt lat="43.27304" lon="5.30142">
        <ele>19.36</ele>
        <time>2017-05-05T12:05:34Z</time>
      </trkpt>
      <trkpt lat="43.27301" lon="5.30139">
        <ele>17.92</ele>
        <time>2017-05-05T12:05:37Z</time>
      </trkpt>
      <trkpt lat="43.27292" lon="5.30138">
        <ele>18.88</ele>
        <time>2017-05-05T12:05:45Z</time>
      </trkpt>
      <trkpt lat="43.27284" lon="5.3014">
        <ele>15.52</ele>
        <time>2017-05-05T12:05:54Z</time>
      </trkpt>
      <trkpt lat="43.27283" lon="5.30141">
        <ele>15.52</ele>
        <time>2017-05-05T12:05:56Z</time>
      </trkpt>
      <trkpt lat="43.27271" lon="5.30143">
        <ele>14.08</ele>
        <time>2017-05-05T12:06:09Z</time>
      </trkpt>
      <trkpt lat="43.27269" lon="5.30144">
        <ele>13.6</ele>
        <time>2017-05-05T12:06:21Z</time>
      </trkpt>
      <trkpt lat="43.27267" lon="5.30143">
        <ele>15.52</ele>
        <time>2017-05-05T12:06:32Z</time>
      </trkpt>
      <trkpt lat="43.27267" lon="5.30142">
        <ele>15.04</ele>
        <time>2017-05-05T12:06:46Z</time>
      </trkpt>
      <trkpt lat="43.27267" lon="5.30138">
        <ele>15.04</ele>
        <time>2017-05-05T12:07:02Z</time>
      </trkpt>
      <trkpt lat="43.27267" lon="5.30137">
        <ele>14.56</ele>
        <time>2017-05-05T12:07:05Z</time>
      </trkpt>
      <trkpt lat="43.27264" lon="5.30132">
        <ele>15.04</ele>
        <time>2017-05-05T12:07:19Z</time>
      </trkpt>
      <trkpt lat="43.27264" lon="5.30132">
        <ele>15.52</ele>
        <time>2017-05-05T12:07:24Z</time>
      </trkpt>
      <trkpt lat="43.2726" lon="5.30126">
        <ele>15.52</ele>
        <time>2017-05-05T12:07:35Z</time>
      </trkpt>
      <trkpt lat="43.27258" lon="5.30122">
        <ele>16</ele>
        <time>2017-05-05T12:07:51Z</time>
      </trkpt>
      <trkpt lat="43.27256" lon="5.3012">
        <ele>16.48</ele>
        <time>2017-05-05T12:07:54Z</time>
      </trkpt>
      <trkpt lat="43.27248" lon="5.30113">
        <ele>16.96</ele>
        <time>2017-05-05T12:08:08Z</time>
      </trkpt>
      <trkpt lat="43.27242" lon="5.30106">
        <ele>17.44</ele>
        <time>2017-05-05T12:08:23Z</time>
      </trkpt>
      <trkpt lat="43.27239" lon="5.30095">
        <ele>17.92</ele>
        <time>2017-05-05T12:08:35Z</time>
      </trkpt>
      <trkpt lat="43.27237" lon="5.30089">
        <ele>19.36</ele>
        <time>2017-05-05T12:08:41Z</time>
      </trkpt>
      <trkpt lat="43.27235" lon="5.30082">
        <ele>19.36</ele>
        <time>2017-05-05T12:08:47Z</time>
      </trkpt>
      <trkpt lat="43.27229" lon="5.30071">
        <ele>18.4</ele>
        <time>2017-05-05T12:08:59Z</time>
      </trkpt>
      <trkpt lat="43.27223" lon="5.30062">
        <ele>18.88</ele>
        <time>2017-05-05T12:09:11Z</time>
      </trkpt>
      <trkpt lat="43.27214" lon="5.30048">
        <ele>18.88</ele>
        <time>2017-05-05T12:09:27Z</time>
      </trkpt>
      <trkpt lat="43.27208" lon="5.30041">
        <ele>19.36</ele>
        <time>2017-05-05T12:09:40Z</time>
      </trkpt>
      <trkpt lat="43.27207" lon="5.3004">
        <ele>19.84</ele>
        <time>2017-05-05T12:09:41Z</time>
      </trkpt>
      <trkpt lat="43.27205" lon="5.30039">
        <ele>20.32</ele>
        <time>2017-05-05T12:09:43Z</time>
      </trkpt>
      <trkpt lat="43.27197" lon="5.30028">
        <ele>19.84</ele>
        <time>2017-05-05T12:09:55Z</time>
      </trkpt>
      <trkpt lat="43.27196" lon="5.30024">
        <ele>20.81</ele>
        <time>2017-05-05T12:09:58Z</time>
      </trkpt>
      <trkpt lat="43.27196" lon="5.30006">
        <ele>20.81</ele>
        <time>2017-05-05T12:10:11Z</time>
      </trkpt>
      <trkpt lat="43.27195" lon="5.3">
        <ele>20.32</ele>
        <time>2017-05-05T12:10:16Z</time>
      </trkpt>
      <trkpt lat="43.27193" lon="5.29994">
        <ele>20.32</ele>
        <time>2017-05-05T12:10:20Z</time>
      </trkpt>
      <trkpt lat="43.27188" lon="5.29988">
        <ele>20.81</ele>
        <time>2017-05-05T12:10:26Z</time>
      </trkpt>
      <trkpt lat="43.27178" lon="5.29976">
        <ele>21.29</ele>
        <time>2017-05-05T12:10:38Z</time>
      </trkpt>
      <trkpt lat="43.27171" lon="5.2997">
        <ele>21.77</ele>
        <time>2017-05-05T12:10:44Z</time>
      </trkpt>
      <trkpt lat="43.27169" lon="5.29968">
        <ele>21.77</ele>
        <time>2017-05-05T12:10:46Z</time>
      </trkpt>
      <trkpt lat="43.2716" lon="5.29958">
        <ele>23.21</ele>
        <time>2017-05-05T12:10:59Z</time>
      </trkpt>
      <trkpt lat="43.27157" lon="5.29953">
        <ele>23.69</ele>
        <time>2017-05-05T12:11:06Z</time>
      </trkpt>
      <trkpt lat="43.27155" lon="5.2995">
        <ele>23.69</ele>
        <time>2017-05-05T12:11:08Z</time>
      </trkpt>
      <trkpt lat="43.27154" lon="5.29947">
        <ele>24.17</ele>
        <time>2017-05-05T12:11:10Z</time>
      </trkpt>
      <trkpt lat="43.27144" lon="5.29936">
        <ele>23.21</ele>
        <time>2017-05-05T12:11:24Z</time>
      </trkpt>
      <trkpt lat="43.27143" lon="5.29935">
        <ele>23.21</ele>
        <time>2017-05-05T12:11:35Z</time>
      </trkpt>
      <trkpt lat="43.27142" lon="5.29934">
        <ele>24.17</ele>
        <time>2017-05-05T12:11:37Z</time>
      </trkpt>
      <trkpt lat="43.2714" lon="5.29933">
        <ele>24.17</ele>
        <time>2017-05-05T12:11:39Z</time>
      </trkpt>
      <trkpt lat="43.27128" lon="5.29927">
        <ele>23.69</ele>
        <time>2017-05-05T12:11:53Z</time>
      </trkpt>
      <trkpt lat="43.27121" lon="5.29922">
        <ele>24.65</ele>
        <time>2017-05-05T12:12:01Z</time>
      </trkpt>
      <trkpt lat="43.27116" lon="5.29911">
        <ele>24.17</ele>
        <time>2017-05-05T12:12:15Z</time>
      </trkpt>
      <trkpt lat="43.27115" lon="5.29907">
        <ele>24.17</ele>
        <time>2017-05-05T12:12:28Z</time>
      </trkpt>
      <trkpt lat="43.27115" lon="5.29897">
        <ele>24.17</ele>
        <time>2017-05-05T12:12:40Z</time>
      </trkpt>
      <trkpt lat="43.27115" lon="5.29894">
        <ele>24.65</ele>
        <time>2017-05-05T12:12:51Z</time>
      </trkpt>
      <trkpt lat="43.27115" lon="5.29898">
        <ele>24.65</ele>
        <time>2017-05-05T12:13:05Z</time>
      </trkpt>
      <trkpt lat="43.27116" lon="5.29902">
        <ele>24.17</ele>
        <time>2017-05-05T12:13:08Z</time>
      </trkpt>
      <trkpt lat="43.27123" lon="5.29913">
        <ele>23.69</ele>
        <time>2017-05-05T12:13:21Z</time>
      </trkpt>
      <trkpt lat="43.27124" lon="5.29916">
        <ele>23.69</ele>
        <time>2017-05-05T12:13:42Z</time>
      </trkpt>
      <trkpt lat="43.27125" lon="5.29917">
        <ele>23.69</ele>
        <time>2017-05-05T12:13:56Z</time>
      </trkpt>
      <trkpt lat="43.27124" lon="5.29918">
        <ele>23.21</ele>
        <time>2017-05-05T12:14:27Z</time>
      </trkpt>
      <trkpt lat="43.27124" lon="5.29919">
        <ele>23.69</ele>
        <time>2017-05-05T12:14:53Z</time>
      </trkpt>
      <trkpt lat="43.27123" lon="5.2992">
        <ele>23.69</ele>
        <time>2017-05-05T12:15:07Z</time>
      </trkpt>
      <trkpt lat="43.27121" lon="5.29918">
        <ele>24.17</ele>
        <time>2017-05-05T12:15:10Z</time>
      </trkpt>
      <trkpt lat="43.27117" lon="5.29913">
        <ele>23.69</ele>
        <time>2017-05-05T12:15:22Z</time>
      </trkpt>
      <trkpt lat="43.27116" lon="5.29905">
        <ele>24.17</ele>
        <time>2017-05-05T12:15:26Z</time>
      </trkpt>
      <trkpt lat="43.2711" lon="5.29877">
        <ele>25.61</ele>
        <time>2017-05-05T12:15:37Z</time>
      </trkpt>
      <trkpt lat="43.27108" lon="5.29868">
        <ele>24.17</ele>
        <time>2017-05-05T12:15:39Z</time>
      </trkpt>
      <trkpt lat="43.27112" lon="5.29857">
        <ele>25.13</ele>
        <time>2017-05-05T12:15:43Z</time>
      </trkpt>
      <trkpt lat="43.27125" lon="5.29848">
        <ele>23.21</ele>
        <time>2017-05-05T12:15:56Z</time>
      </trkpt>
      <trkpt lat="43.27127" lon="5.29847">
        <ele>23.69</ele>
        <time>2017-05-05T12:16:11Z</time>
      </trkpt>
      <trkpt lat="43.27128" lon="5.29846">
        <ele>23.69</ele>
        <time>2017-05-05T12:16:41Z</time>
      </trkpt>
      <trkpt lat="43.27126" lon="5.29846">
        <ele>23.69</ele>
        <time>2017-05-05T12:16:43Z</time>
      </trkpt>
      <trkpt lat="43.27119" lon="5.29851">
        <ele>22.25</ele>
        <time>2017-05-05T12:16:50Z</time>
      </trkpt>
      <trkpt lat="43.2711" lon="5.29863">
        <ele>23.69</ele>
        <time>2017-05-05T12:17:02Z</time>
      </trkpt>
      <trkpt lat="43.27108" lon="5.29865">
        <ele>25.13</ele>
        <time>2017-05-05T12:17:04Z</time>
      </trkpt>
      <trkpt lat="43.27108" lon="5.29866">
        <ele>24.17</ele>
        <time>2017-05-05T12:17:06Z</time>
      </trkpt>
      <trkpt lat="43.27109" lon="5.29868">
        <ele>26.09</ele>
        <time>2017-05-05T12:17:12Z</time>
      </trkpt>
      <trkpt lat="43.27108" lon="5.29865">
        <ele>27.05</ele>
        <time>2017-05-05T12:17:15Z</time>
      </trkpt>
      <trkpt lat="43.27108" lon="5.29864">
        <ele>24.65</ele>
        <time>2017-05-05T12:17:16Z</time>
      </trkpt>
      <trkpt lat="43.27105" lon="5.2986">
        <ele>25.13</ele>
        <time>2017-05-05T12:17:21Z</time>
      </trkpt>
      <trkpt lat="43.27101" lon="5.29855">
        <ele>26.09</ele>
        <time>2017-05-05T12:17:25Z</time>
      </trkpt>
      <trkpt lat="43.27097" lon="5.29854">
        <ele>23.69</ele>
        <time>2017-05-05T12:17:28Z</time>
      </trkpt>
      <trkpt lat="43.27095" lon="5.29852">
        <ele>22.25</ele>
        <time>2017-05-05T12:17:30Z</time>
      </trkpt>
      <trkpt lat="43.27086" lon="5.29847">
        <ele>22.25</ele>
        <time>2017-05-05T12:17:44Z</time>
      </trkpt>
      <trkpt lat="43.2708" lon="5.29846">
        <ele>21.77</ele>
        <time>2017-05-05T12:17:53Z</time>
      </trkpt>
      <trkpt lat="43.27068" lon="5.2984">
        <ele>22.25</ele>
        <time>2017-05-05T12:18:04Z</time>
      </trkpt>
      <trkpt lat="43.27064" lon="5.29839">
        <ele>21.29</ele>
        <time>2017-05-05T12:18:09Z</time>
      </trkpt>
      <trkpt lat="43.2706" lon="5.29839">
        <ele>19.84</ele>
        <time>2017-05-05T12:18:12Z</time>
      </trkpt>
      <trkpt lat="43.27049" lon="5.29838">
        <ele>20.32</ele>
        <time>2017-05-05T12:18:24Z</time>
      </trkpt>
      <trkpt lat="43.27048" lon="5.29837">
        <ele>17.44</ele>
        <time>2017-05-05T12:18:28Z</time>
      </trkpt>
      <trkpt lat="43.27048" lon="5.29836">
        <ele>19.84</ele>
        <time>2017-05-05T12:18:30Z</time>
      </trkpt>
      <trkpt lat="43.27036" lon="5.29839">
        <ele>18.4</ele>
        <time>2017-05-05T12:18:40Z</time>
      </trkpt>
      <trkpt lat="43.27021" lon="5.29846">
        <ele>17.44</ele>
        <time>2017-05-05T12:18:55Z</time>
      </trkpt>
      <trkpt lat="43.27016" lon="5.2985">
        <ele>16.48</ele>
        <time>2017-05-05T12:19:01Z</time>
      </trkpt>
      <trkpt lat="43.27011" lon="5.29851">
        <ele>17.44</ele>
        <time>2017-05-05T12:19:14Z</time>
      </trkpt>
      <trkpt lat="43.27006" lon="5.29852">
        <ele>16.96</ele>
        <time>2017-05-05T12:19:20Z</time>
      </trkpt>
      <trkpt lat="43.27005" lon="5.29853">
        <ele>16.96</ele>
        <time>2017-05-05T12:19:22Z</time>
      </trkpt>
      <trkpt lat="43.27" lon="5.29852">
        <ele>16.96</ele>
        <time>2017-05-05T12:19:26Z</time>
      </trkpt>
      <trkpt lat="43.26996" lon="5.29853">
        <ele>16.96</ele>
        <time>2017-05-05T12:19:30Z</time>
      </trkpt>
      <trkpt lat="43.26985" lon="5.29849">
        <ele>16.96</ele>
        <time>2017-05-05T12:19:41Z</time>
      </trkpt>
      <trkpt lat="43.26973" lon="5.2984">
        <ele>18.4</ele>
        <time>2017-05-05T12:19:54Z</time>
      </trkpt>
      <trkpt lat="43.2697" lon="5.29838">
        <ele>18.88</ele>
        <time>2017-05-05T12:19:58Z</time>
      </trkpt>
      <trkpt lat="43.26963" lon="5.29835">
        <ele>19.36</ele>
        <time>2017-05-05T12:20:05Z</time>
      </trkpt>
      <trkpt lat="43.26952" lon="5.2983">
        <ele>20.32</ele>
        <time>2017-05-05T12:20:18Z</time>
      </trkpt>
      <trkpt lat="43.26942" lon="5.29821">
        <ele>21.29</ele>
        <time>2017-05-05T12:20:31Z</time>
      </trkpt>
      <trkpt lat="43.26933" lon="5.29813">
        <ele>21.77</ele>
        <time>2017-05-05T12:20:43Z</time>
      </trkpt>
      <trkpt lat="43.26932" lon="5.29812">
        <ele>21.77</ele>
        <time>2017-05-05T12:20:44Z</time>
      </trkpt>
      <trkpt lat="43.26931" lon="5.29811">
        <ele>22.25</ele>
        <time>2017-05-05T12:20:46Z</time>
      </trkpt>
      <trkpt lat="43.26925" lon="5.29807">
        <ele>22.73</ele>
        <time>2017-05-05T12:20:54Z</time>
      </trkpt>
      <trkpt lat="43.26921" lon="5.29803">
        <ele>23.21</ele>
        <time>2017-05-05T12:20:59Z</time>
      </trkpt>
      <trkpt lat="43.2692" lon="5.29799">
        <ele>23.21</ele>
        <time>2017-05-05T12:21:12Z</time>
      </trkpt>
      <trkpt lat="43.2692" lon="5.29799">
        <ele>22.73</ele>
        <time>2017-05-05T12:21:16Z</time>
      </trkpt>
      <trkpt lat="43.26921" lon="5.29795">
        <ele>21.29</ele>
        <time>2017-05-05T12:21:19Z</time>
      </trkpt>
      <trkpt lat="43.26915" lon="5.29776">
        <ele>19.84</ele>
        <time>2017-05-05T12:21:32Z</time>
      </trkpt>
      <trkpt lat="43.26914" lon="5.29775">
        <ele>19.84</ele>
        <time>2017-05-05T12:21:33Z</time>
      </trkpt>
      <trkpt lat="43.2691" lon="5.29765">
        <ele>19.84</ele>
        <time>2017-05-05T12:21:41Z</time>
      </trkpt>
      <trkpt lat="43.26909" lon="5.2976">
        <ele>19.84</ele>
        <time>2017-05-05T12:21:44Z</time>
      </trkpt>
      <trkpt lat="43.26907" lon="5.29746">
        <ele>20.32</ele>
        <time>2017-05-05T12:21:57Z</time>
      </trkpt>
      <trkpt lat="43.26906" lon="5.29744">
        <ele>17.92</ele>
        <time>2017-05-05T12:22:00Z</time>
      </trkpt>
      <trkpt lat="43.26906" lon="5.29739">
        <ele>18.88</ele>
        <time>2017-05-05T12:22:05Z</time>
      </trkpt>
      <trkpt lat="43.26899" lon="5.29729">
        <ele>17.44</ele>
        <time>2017-05-05T12:22:14Z</time>
      </trkpt>
      <trkpt lat="43.26898" lon="5.29723">
        <ele>16.96</ele>
        <time>2017-05-05T12:22:18Z</time>
      </trkpt>
      <trkpt lat="43.26897" lon="5.29719">
        <ele>17.44</ele>
        <time>2017-05-05T12:22:21Z</time>
      </trkpt>
      <trkpt lat="43.26896" lon="5.29712">
        <ele>16.96</ele>
        <time>2017-05-05T12:22:27Z</time>
      </trkpt>
      <trkpt lat="43.26896" lon="5.29709">
        <ele>17.44</ele>
        <time>2017-05-05T12:22:29Z</time>
      </trkpt>
      <trkpt lat="43.26892" lon="5.29701">
        <ele>18.88</ele>
        <time>2017-05-05T12:22:37Z</time>
      </trkpt>
      <trkpt lat="43.26892" lon="5.29694">
        <ele>19.36</ele>
        <time>2017-05-05T12:22:44Z</time>
      </trkpt>
      <trkpt lat="43.26891" lon="5.29679">
        <ele>19.36</ele>
        <time>2017-05-05T12:22:53Z</time>
      </trkpt>
      <trkpt lat="43.26888" lon="5.29672">
        <ele>18.88</ele>
        <time>2017-05-05T12:22:58Z</time>
      </trkpt>
      <trkpt lat="43.26881" lon="5.29653">
        <ele>16.96</ele>
        <time>2017-05-05T12:23:13Z</time>
      </trkpt>
      <trkpt lat="43.26879" lon="5.29645">
        <ele>15.52</ele>
        <time>2017-05-05T12:23:20Z</time>
      </trkpt>
      <trkpt lat="43.26877" lon="5.29628">
        <ele>14.08</ele>
        <time>2017-05-05T12:23:31Z</time>
      </trkpt>
      <trkpt lat="43.26871" lon="5.29613">
        <ele>12.15</ele>
        <time>2017-05-05T12:23:44Z</time>
      </trkpt>
      <trkpt lat="43.26873" lon="5.29602">
        <ele>11.19</ele>
        <time>2017-05-05T12:23:51Z</time>
      </trkpt>
      <trkpt lat="43.26869" lon="5.29593">
        <ele>12.15</ele>
        <time>2017-05-05T12:23:59Z</time>
      </trkpt>
      <trkpt lat="43.26861" lon="5.29582">
        <ele>13.12</ele>
        <time>2017-05-05T12:24:11Z</time>
      </trkpt>
      <trkpt lat="43.2686" lon="5.2958">
        <ele>12.63</ele>
        <time>2017-05-05T12:24:13Z</time>
      </trkpt>
      <trkpt lat="43.26858" lon="5.29572">
        <ele>12.15</ele>
        <time>2017-05-05T12:24:19Z</time>
      </trkpt>
      <trkpt lat="43.26856" lon="5.2955">
        <ele>13.12</ele>
        <time>2017-05-05T12:24:33Z</time>
      </trkpt>
      <trkpt lat="43.26855" lon="5.29539">
        <ele>16</ele>
        <time>2017-05-05T12:24:48Z</time>
      </trkpt>
      <trkpt lat="43.26855" lon="5.29538">
        <ele>16</ele>
        <time>2017-05-05T12:24:49Z</time>
      </trkpt>
      <trkpt lat="43.26852" lon="5.2952">
        <ele>17.44</ele>
        <time>2017-05-05T12:25:03Z</time>
      </trkpt>
      <trkpt lat="43.26852" lon="5.29517">
        <ele>18.4</ele>
        <time>2017-05-05T12:25:07Z</time>
      </trkpt>
      <trkpt lat="43.2685" lon="5.29504">
        <ele>19.84</ele>
        <time>2017-05-05T12:25:20Z</time>
      </trkpt>
      <trkpt lat="43.26847" lon="5.29498">
        <ele>19.84</ele>
        <time>2017-05-05T12:25:25Z</time>
      </trkpt>
      <trkpt lat="43.26841" lon="5.29484">
        <ele>17.92</ele>
        <time>2017-05-05T12:25:40Z</time>
      </trkpt>
      <trkpt lat="43.26841" lon="5.29483">
        <ele>16.96</ele>
        <time>2017-05-05T12:25:52Z</time>
      </trkpt>
      <trkpt lat="43.26835" lon="5.29476">
        <ele>14.56</ele>
        <time>2017-05-05T12:26:05Z</time>
      </trkpt>
      <trkpt lat="43.26828" lon="5.29469">
        <ele>15.04</ele>
        <time>2017-05-05T12:26:12Z</time>
      </trkpt>
      <trkpt lat="43.26822" lon="5.29457">
        <ele>16</ele>
        <time>2017-05-05T12:26:23Z</time>
      </trkpt>
      <trkpt lat="43.26821" lon="5.29455">
        <ele>15.52</ele>
        <time>2017-05-05T12:26:25Z</time>
      </trkpt>
      <trkpt lat="43.26818" lon="5.2945">
        <ele>15.04</ele>
        <time>2017-05-05T12:26:32Z</time>
      </trkpt>
      <trkpt lat="43.26816" lon="5.29444">
        <ele>15.52</ele>
        <time>2017-05-05T12:26:37Z</time>
      </trkpt>
      <trkpt lat="43.26816" lon="5.29434">
        <ele>17.44</ele>
        <time>2017-05-05T12:26:46Z</time>
      </trkpt>
      <trkpt lat="43.2681" lon="5.2942">
        <ele>17.92</ele>
        <time>2017-05-05T12:26:59Z</time>
      </trkpt>
      <trkpt lat="43.26809" lon="5.29417">
        <ele>17.44</ele>
        <time>2017-05-05T12:27:02Z</time>
      </trkpt>
      <trkpt lat="43.26809" lon="5.29412">
        <ele>16.48</ele>
        <time>2017-05-05T12:27:06Z</time>
      </trkpt>
      <trkpt lat="43.268" lon="5.294">
        <ele>15.52</ele>
        <time>2017-05-05T12:27:17Z</time>
      </trkpt>
      <trkpt lat="43.26796" lon="5.29388">
        <ele>16</ele>
        <time>2017-05-05T12:27:26Z</time>
      </trkpt>
      <trkpt lat="43.26792" lon="5.29376">
        <ele>18.4</ele>
        <time>2017-05-05T12:27:40Z</time>
      </trkpt>
      <trkpt lat="43.26792" lon="5.29374">
        <ele>18.88</ele>
        <time>2017-05-05T12:27:42Z</time>
      </trkpt>
      <trkpt lat="43.26791" lon="5.29369">
        <ele>18.4</ele>
        <time>2017-05-05T12:27:58Z</time>
      </trkpt>
      <trkpt lat="43.26791" lon="5.29367">
        <ele>19.36</ele>
        <time>2017-05-05T12:28:23Z</time>
      </trkpt>
      <trkpt lat="43.26793" lon="5.29364">
        <ele>18.4</ele>
        <time>2017-05-05T12:28:42Z</time>
      </trkpt>
      <trkpt lat="43.26793" lon="5.29365">
        <ele>18.4</ele>
        <time>2017-05-05T12:29:06Z</time>
      </trkpt>
      <trkpt lat="43.26794" lon="5.29365">
        <ele>17.92</ele>
        <time>2017-05-05T12:29:31Z</time>
      </trkpt>
      <trkpt lat="43.26787" lon="5.2936">
        <ele>16</ele>
        <time>2017-05-05T12:29:42Z</time>
      </trkpt>
      <trkpt lat="43.26785" lon="5.29351">
        <ele>12.63</ele>
        <time>2017-05-05T12:29:52Z</time>
      </trkpt>
      <trkpt lat="43.26783" lon="5.29348">
        <ele>12.15</ele>
        <time>2017-05-05T12:29:55Z</time>
      </trkpt>
      <trkpt lat="43.26782" lon="5.29342">
        <ele>11.19</ele>
        <time>2017-05-05T12:29:59Z</time>
      </trkpt>
      <trkpt lat="43.26778" lon="5.29338">
        <ele>9.75</ele>
        <time>2017-05-05T12:30:03Z</time>
      </trkpt>
      <trkpt lat="43.26778" lon="5.29335">
        <ele>9.75</ele>
        <time>2017-05-05T12:30:05Z</time>
      </trkpt>
      <trkpt lat="43.26773" lon="5.29325">
        <ele>6.87</ele>
        <time>2017-05-05T12:30:15Z</time>
      </trkpt>
      <trkpt lat="43.26772" lon="5.29319">
        <ele>6.87</ele>
        <time>2017-05-05T12:30:19Z</time>
      </trkpt>
      <trkpt lat="43.26771" lon="5.29314">
        <ele>5.91</ele>
        <time>2017-05-05T12:30:23Z</time>
      </trkpt>
      <trkpt lat="43.26767" lon="5.29307">
        <ele>5.42</ele>
        <time>2017-05-05T12:30:31Z</time>
      </trkpt>
      <trkpt lat="43.26765" lon="5.29304">
        <ele>4.46</ele>
        <time>2017-05-05T12:30:34Z</time>
      </trkpt>
      <trkpt lat="43.26761" lon="5.293">
        <ele>3.5</ele>
        <time>2017-05-05T12:30:43Z</time>
      </trkpt>
      <trkpt lat="43.2676" lon="5.29299">
        <ele>3.5</ele>
        <time>2017-05-05T12:30:45Z</time>
      </trkpt>
      <trkpt lat="43.26757" lon="5.29296">
        <ele>5.42</ele>
        <time>2017-05-05T12:30:50Z</time>
      </trkpt>
      <trkpt lat="43.26755" lon="5.29294">
        <ele>5.42</ele>
        <time>2017-05-05T12:30:53Z</time>
      </trkpt>
      <trkpt lat="43.26749" lon="5.29291">
        <ele>6.87</ele>
        <time>2017-05-05T12:31:04Z</time>
      </trkpt>
      <trkpt lat="43.26748" lon="5.29289">
        <ele>4.46</ele>
        <time>2017-05-05T12:31:16Z</time>
      </trkpt>
      <trkpt lat="43.26748" lon="5.29288">
        <ele>3.98</ele>
        <time>2017-05-05T12:31:17Z</time>
      </trkpt>
      <trkpt lat="43.26749" lon="5.29286">
        <ele>2.54</ele>
        <time>2017-05-05T12:31:26Z</time>
      </trkpt>
      <trkpt lat="43.26747" lon="5.29279">
        <ele>3.98</ele>
        <time>2017-05-05T12:31:36Z</time>
      </trkpt>
      <trkpt lat="43.26743" lon="5.29268">
        <ele>5.91</ele>
        <time>2017-05-05T12:31:45Z</time>
      </trkpt>
      <trkpt lat="43.26738" lon="5.29258">
        <ele>6.87</ele>
        <time>2017-05-05T12:31:59Z</time>
      </trkpt>
      <trkpt lat="43.26739" lon="5.29256">
        <ele>6.87</ele>
        <time>2017-05-05T12:32:05Z</time>
      </trkpt>
      <trkpt lat="43.26743" lon="5.29252">
        <ele>6.39</ele>
        <time>2017-05-05T12:32:18Z</time>
      </trkpt>
      <trkpt lat="43.26745" lon="5.2925">
        <ele>5.91</ele>
        <time>2017-05-05T12:32:31Z</time>
      </trkpt>
      <trkpt lat="43.26746" lon="5.29241">
        <ele>4.46</ele>
        <time>2017-05-05T12:32:41Z</time>
      </trkpt>
      <trkpt lat="43.26745" lon="5.29232">
        <ele>2.54</ele>
        <time>2017-05-05T12:32:55Z</time>
      </trkpt>
      <trkpt lat="43.26745" lon="5.29231">
        <ele>2.54</ele>
        <time>2017-05-05T12:32:56Z</time>
      </trkpt>
      <trkpt lat="43.26744" lon="5.29222">
        <ele>1.58</ele>
        <time>2017-05-05T12:33:07Z</time>
      </trkpt>
      <trkpt lat="43.26742" lon="5.29214">
        <ele>1.58</ele>
        <time>2017-05-05T12:33:17Z</time>
      </trkpt>
      <trkpt lat="43.26744" lon="5.29212">
        <ele>1.58</ele>
        <time>2017-05-05T12:33:34Z</time>
      </trkpt>
      <trkpt lat="43.26744" lon="5.29211">
        <ele>1.58</ele>
        <time>2017-05-05T12:33:46Z</time>
      </trkpt>
      <trkpt lat="43.26742" lon="5.29209">
        <ele>1.58</ele>
        <time>2017-05-05T12:33:56Z</time>
      </trkpt>
      <trkpt lat="43.26741" lon="5.29206">
        <ele>1.1</ele>
        <time>2017-05-05T12:34:14Z</time>
      </trkpt>
      <trkpt lat="43.26742" lon="5.29202">
        <ele>2.06</ele>
        <time>2017-05-05T12:34:26Z</time>
      </trkpt>
      <trkpt lat="43.26746" lon="5.29197">
        <ele>1.1</ele>
        <time>2017-05-05T12:34:46Z</time>
      </trkpt>
      <trkpt lat="43.26747" lon="5.29197">
        <ele>2.06</ele>
        <time>2017-05-05T12:35:04Z</time>
      </trkpt>
      <trkpt lat="43.26747" lon="5.29197">
        <ele>2.54</ele>
        <time>2017-05-05T12:35:23Z</time>
      </trkpt>
      <trkpt lat="43.26746" lon="5.29195">
        <ele>1.1</ele>
        <time>2017-05-05T12:35:36Z</time>
      </trkpt>
      <trkpt lat="43.26745" lon="5.29191">
        <ele>2.06</ele>
        <time>2017-05-05T12:35:48Z</time>
      </trkpt>
      <trkpt lat="43.26743" lon="5.29181">
        <ele>3.5</ele>
        <time>2017-05-05T12:36:02Z</time>
      </trkpt>
      <trkpt lat="43.26739" lon="5.2918">
        <ele>6.87</ele>
        <time>2017-05-05T12:36:12Z</time>
      </trkpt>
      <trkpt lat="43.26736" lon="5.29182">
        <ele>8.79</ele>
        <time>2017-05-05T12:36:24Z</time>
      </trkpt>
      <trkpt lat="43.26733" lon="5.29186">
        <ele>11.67</ele>
        <time>2017-05-05T12:36:37Z</time>
      </trkpt>
      <trkpt lat="43.26732" lon="5.29188">
        <ele>12.15</ele>
        <time>2017-05-05T12:36:40Z</time>
      </trkpt>
      <trkpt lat="43.26729" lon="5.29188">
        <ele>12.63</ele>
        <time>2017-05-05T12:36:43Z</time>
      </trkpt>
      <trkpt lat="43.26723" lon="5.29183">
        <ele>15.04</ele>
        <time>2017-05-05T12:36:57Z</time>
      </trkpt>
      <trkpt lat="43.26722" lon="5.29183">
        <ele>15.52</ele>
        <time>2017-05-05T12:36:59Z</time>
      </trkpt>
      <trkpt lat="43.2672" lon="5.29184">
        <ele>16</ele>
        <time>2017-05-05T12:37:01Z</time>
      </trkpt>
      <trkpt lat="43.26713" lon="5.2918">
        <ele>17.44</ele>
        <time>2017-05-05T12:37:10Z</time>
      </trkpt>
      <trkpt lat="43.26709" lon="5.29176">
        <ele>18.88</ele>
        <time>2017-05-05T12:37:17Z</time>
      </trkpt>
      <trkpt lat="43.26702" lon="5.29173">
        <ele>21.29</ele>
        <time>2017-05-05T12:37:28Z</time>
      </trkpt>
      <trkpt lat="43.26693" lon="5.29171">
        <ele>24.65</ele>
        <time>2017-05-05T12:37:40Z</time>
      </trkpt>
      <trkpt lat="43.26687" lon="5.29171">
        <ele>26.57</ele>
        <time>2017-05-05T12:37:53Z</time>
      </trkpt>
      <trkpt lat="43.26684" lon="5.29172">
        <ele>27.53</ele>
        <time>2017-05-05T12:37:57Z</time>
      </trkpt>
      <trkpt lat="43.26682" lon="5.29173">
        <ele>28.5</ele>
        <time>2017-05-05T12:37:59Z</time>
      </trkpt>
      <trkpt lat="43.26676" lon="5.29175">
        <ele>28.98</ele>
        <time>2017-05-05T12:38:05Z</time>
      </trkpt>
      <trkpt lat="43.26668" lon="5.29185">
        <ele>32.34</ele>
        <time>2017-05-05T12:38:17Z</time>
      </trkpt>
      <trkpt lat="43.26659" lon="5.2919">
        <ele>32.82</ele>
        <time>2017-05-05T12:38:30Z</time>
      </trkpt>
      <trkpt lat="43.26659" lon="5.29189">
        <ele>32.82</ele>
        <time>2017-05-05T12:38:37Z</time>
      </trkpt>
      <trkpt lat="43.26651" lon="5.29194">
        <ele>34.26</ele>
        <time>2017-05-05T12:38:50Z</time>
      </trkpt>
      <trkpt lat="43.2665" lon="5.29196">
        <ele>34.74</ele>
        <time>2017-05-05T12:38:53Z</time>
      </trkpt>
      <trkpt lat="43.26643" lon="5.29203">
        <ele>37.15</ele>
        <time>2017-05-05T12:39:03Z</time>
      </trkpt>
      <trkpt lat="43.26641" lon="5.29207">
        <ele>38.59</ele>
        <time>2017-05-05T12:39:07Z</time>
      </trkpt>
      <trkpt lat="43.2664" lon="5.29209">
        <ele>39.07</ele>
        <time>2017-05-05T12:39:10Z</time>
      </trkpt>
      <trkpt lat="43.26638" lon="5.2921">
        <ele>40.51</ele>
        <time>2017-05-05T12:39:12Z</time>
      </trkpt>
      <trkpt lat="43.26635" lon="5.29214">
        <ele>41.95</ele>
        <time>2017-05-05T12:39:17Z</time>
      </trkpt>
      <trkpt lat="43.26633" lon="5.29217">
        <ele>43.4</ele>
        <time>2017-05-05T12:39:21Z</time>
      </trkpt>
      <trkpt lat="43.26625" lon="5.29217">
        <ele>43.4</ele>
        <time>2017-05-05T12:39:33Z</time>
      </trkpt>
      <trkpt lat="43.26626" lon="5.29217">
        <ele>46.28</ele>
        <time>2017-05-05T12:39:35Z</time>
      </trkpt>
      <trkpt lat="43.26626" lon="5.29217">
        <ele>41.95</ele>
        <time>2017-05-05T12:39:45Z</time>
      </trkpt>
      <trkpt lat="43.26626" lon="5.29217">
        <ele>45.32</ele>
        <time>2017-05-05T12:39:46Z</time>
      </trkpt>
      <trkpt lat="43.26626" lon="5.29217">
        <ele>46.28</ele>
        <time>2017-05-05T12:39:48Z</time>
      </trkpt>
      <trkpt lat="43.26626" lon="5.29214">
        <ele>42.92</ele>
        <time>2017-05-05T12:40:05Z</time>
      </trkpt>
      <trkpt lat="43.26626" lon="5.29212">
        <ele>42.44</ele>
        <time>2017-05-05T12:40:07Z</time>
      </trkpt>
      <trkpt lat="43.26627" lon="5.29209">
        <ele>44.36</ele>
        <time>2017-05-05T12:40:11Z</time>
      </trkpt>
      <trkpt lat="43.26628" lon="5.29204">
        <ele>44.36</ele>
        <time>2017-05-05T12:40:19Z</time>
      </trkpt>
      <trkpt lat="43.26627" lon="5.29203">
        <ele>44.36</ele>
        <time>2017-05-05T12:40:25Z</time>
      </trkpt>
      <trkpt lat="43.26627" lon="5.29201">
        <ele>42.44</ele>
        <time>2017-05-05T12:40:29Z</time>
      </trkpt>
      <trkpt lat="43.26628" lon="5.29198">
        <ele>44.84</ele>
        <time>2017-05-05T12:40:43Z</time>
      </trkpt>
      <trkpt lat="43.26628" lon="5.29198">
        <ele>41.47</ele>
        <time>2017-05-05T12:40:45Z</time>
      </trkpt>
      <trkpt lat="43.26628" lon="5.29197">
        <ele>41.95</ele>
        <time>2017-05-05T12:40:46Z</time>
      </trkpt>
      <trkpt lat="43.26627" lon="5.29196">
        <ele>42.92</ele>
        <time>2017-05-05T12:40:47Z</time>
      </trkpt>
      <trkpt lat="43.26628" lon="5.29193">
        <ele>44.84</ele>
        <time>2017-05-05T12:40:53Z</time>
      </trkpt>
      <trkpt lat="43.26629" lon="5.29189">
        <ele>43.88</ele>
        <time>2017-05-05T12:41:08Z</time>
      </trkpt>
      <trkpt lat="43.26631" lon="5.29173">
        <ele>43.4</ele>
        <time>2017-05-05T12:41:21Z</time>
      </trkpt>
      <trkpt lat="43.26632" lon="5.29169">
        <ele>42.44</ele>
        <time>2017-05-05T12:41:25Z</time>
      </trkpt>
      <trkpt lat="43.26636" lon="5.29163">
        <ele>44.84</ele>
        <time>2017-05-05T12:41:38Z</time>
      </trkpt>
      <trkpt lat="43.26637" lon="5.29161">
        <ele>43.88</ele>
        <time>2017-05-05T12:42:10Z</time>
      </trkpt>
      <trkpt lat="43.26637" lon="5.29161">
        <ele>44.36</ele>
        <time>2017-05-05T12:42:45Z</time>
      </trkpt>
      <trkpt lat="43.26638" lon="5.29156">
        <ele>45.32</ele>
        <time>2017-05-05T12:42:50Z</time>
      </trkpt>
      <trkpt lat="43.26639" lon="5.29152">
        <ele>45.32</ele>
        <time>2017-05-05T12:42:54Z</time>
      </trkpt>
      <trkpt lat="43.26641" lon="5.29136">
        <ele>47.24</ele>
        <time>2017-05-05T12:43:06Z</time>
      </trkpt>
      <trkpt lat="43.26639" lon="5.29127">
        <ele>48.2</ele>
        <time>2017-05-05T12:43:14Z</time>
      </trkpt>
      <trkpt lat="43.26636" lon="5.2912">
        <ele>49.16</ele>
        <time>2017-05-05T12:43:23Z</time>
      </trkpt>
      <trkpt lat="43.26633" lon="5.29116">
        <ele>49.65</ele>
        <time>2017-05-05T12:43:29Z</time>
      </trkpt>
      <trkpt lat="43.26625" lon="5.2911">
        <ele>50.13</ele>
        <time>2017-05-05T12:43:41Z</time>
      </trkpt>
      <trkpt lat="43.26623" lon="5.29109">
        <ele>52.05</ele>
        <time>2017-05-05T12:43:44Z</time>
      </trkpt>
      <trkpt lat="43.26622" lon="5.29108">
        <ele>51.09</ele>
        <time>2017-05-05T12:43:46Z</time>
      </trkpt>
      <trkpt lat="43.26615" lon="5.29101">
        <ele>51.09</ele>
        <time>2017-05-05T12:43:57Z</time>
      </trkpt>
      <trkpt lat="43.26609" lon="5.29094">
        <ele>51.09</ele>
        <time>2017-05-05T12:44:06Z</time>
      </trkpt>
      <trkpt lat="43.26609" lon="5.29093">
        <ele>53.49</ele>
        <time>2017-05-05T12:44:07Z</time>
      </trkpt>
      <trkpt lat="43.26606" lon="5.29087">
        <ele>54.45</ele>
        <time>2017-05-05T12:44:12Z</time>
      </trkpt>
      <trkpt lat="43.266" lon="5.29079">
        <ele>54.45</ele>
        <time>2017-05-05T12:44:21Z</time>
      </trkpt>
      <trkpt lat="43.26593" lon="5.29075">
        <ele>56.37</ele>
        <time>2017-05-05T12:44:30Z</time>
      </trkpt>
      <trkpt lat="43.26581" lon="5.2907">
        <ele>56.86</ele>
        <time>2017-05-05T12:44:43Z</time>
      </trkpt>
      <trkpt lat="43.26577" lon="5.29067">
        <ele>57.82</ele>
        <time>2017-05-05T12:44:47Z</time>
      </trkpt>
      <trkpt lat="43.26566" lon="5.29056">
        <ele>59.26</ele>
        <time>2017-05-05T12:45:00Z</time>
      </trkpt>
      <trkpt lat="43.26566" lon="5.29055">
        <ele>59.74</ele>
        <time>2017-05-05T12:45:01Z</time>
      </trkpt>
      <trkpt lat="43.2656" lon="5.29049">
        <ele>59.26</ele>
        <time>2017-05-05T12:45:07Z</time>
      </trkpt>
      <trkpt lat="43.26558" lon="5.29048">
        <ele>59.74</ele>
        <time>2017-05-05T12:45:10Z</time>
      </trkpt>
      <trkpt lat="43.26553" lon="5.29044">
        <ele>60.22</ele>
        <time>2017-05-05T12:45:15Z</time>
      </trkpt>
      <trkpt lat="43.26547" lon="5.29038">
        <ele>61.18</ele>
        <time>2017-05-05T12:45:21Z</time>
      </trkpt>
      <trkpt lat="43.26538" lon="5.29031">
        <ele>63.58</ele>
        <time>2017-05-05T12:45:32Z</time>
      </trkpt>
      <trkpt lat="43.26535" lon="5.29027">
        <ele>63.58</ele>
        <time>2017-05-05T12:45:36Z</time>
      </trkpt>
      <trkpt lat="43.26533" lon="5.29023">
        <ele>64.07</ele>
        <time>2017-05-05T12:45:39Z</time>
      </trkpt>
      <trkpt lat="43.26528" lon="5.29014">
        <ele>65.03</ele>
        <time>2017-05-05T12:45:47Z</time>
      </trkpt>
      <trkpt lat="43.26522" lon="5.29005">
        <ele>65.99</ele>
        <time>2017-05-05T12:45:57Z</time>
      </trkpt>
      <trkpt lat="43.2652" lon="5.29003">
        <ele>66.95</ele>
        <time>2017-05-05T12:46:00Z</time>
      </trkpt>
      <trkpt lat="43.26519" lon="5.29001">
        <ele>66.95</ele>
        <time>2017-05-05T12:46:02Z</time>
      </trkpt>
      <trkpt lat="43.26513" lon="5.28999">
        <ele>66.95</ele>
        <time>2017-05-05T12:46:14Z</time>
      </trkpt>
      <trkpt lat="43.26503" lon="5.28996">
        <ele>68.87</ele>
        <time>2017-05-05T12:46:29Z</time>
      </trkpt>
      <trkpt lat="43.26502" lon="5.28995">
        <ele>68.87</ele>
        <time>2017-05-05T12:46:56Z</time>
      </trkpt>
      <trkpt lat="43.26501" lon="5.28995">
        <ele>68.39</ele>
        <time>2017-05-05T12:47:16Z</time>
      </trkpt>
      <trkpt lat="43.26501" lon="5.28994">
        <ele>68.39</ele>
        <time>2017-05-05T12:47:30Z</time>
      </trkpt>
      <trkpt lat="43.265" lon="5.28994">
        <ele>68.39</ele>
        <time>2017-05-05T12:47:46Z</time>
      </trkpt>
      <trkpt lat="43.265" lon="5.28992">
        <ele>68.39</ele>
        <time>2017-05-05T12:47:57Z</time>
      </trkpt>
      <trkpt lat="43.26506" lon="5.28983">
        <ele>69.35</ele>
        <time>2017-05-05T12:48:13Z</time>
      </trkpt>
      <trkpt lat="43.26507" lon="5.28986">
        <ele>68.39</ele>
        <time>2017-05-05T12:48:25Z</time>
      </trkpt>
      <trkpt lat="43.26501" lon="5.28992">
        <ele>67.91</ele>
        <time>2017-05-05T12:48:39Z</time>
      </trkpt>
      <trkpt lat="43.26501" lon="5.28992">
        <ele>67.91</ele>
        <time>2017-05-05T12:49:00Z</time>
      </trkpt>
      <trkpt lat="43.26501" lon="5.28993">
        <ele>67.91</ele>
        <time>2017-05-05T12:49:24Z</time>
      </trkpt>
      <trkpt lat="43.26501" lon="5.28993">
        <ele>67.91</ele>
        <time>2017-05-05T12:49:44Z</time>
      </trkpt>
      <trkpt lat="43.26501" lon="5.28993">
        <ele>67.43</ele>
        <time>2017-05-05T12:50:07Z</time>
      </trkpt>
      <trkpt lat="43.26502" lon="5.28992">
        <ele>67.43</ele>
        <time>2017-05-05T12:50:31Z</time>
      </trkpt>
      <trkpt lat="43.26502" lon="5.28992">
        <ele>67.43</ele>
        <time>2017-05-05T12:50:59Z</time>
      </trkpt>
      <trkpt lat="43.26502" lon="5.28992">
        <ele>67.43</ele>
        <time>2017-05-05T12:51:25Z</time>
      </trkpt>
      <trkpt lat="43.26502" lon="5.28992">
        <ele>67.91</ele>
        <time>2017-05-05T12:51:46Z</time>
      </trkpt>
      <trkpt lat="43.26503" lon="5.28993">
        <ele>67.91</ele>
        <time>2017-05-05T12:52:03Z</time>
      </trkpt>
      <trkpt lat="43.26503" lon="5.28992">
        <ele>67.43</ele>
        <time>2017-05-05T12:52:29Z</time>
      </trkpt>
      <trkpt lat="43.26502" lon="5.28993">
        <ele>67.43</ele>
        <time>2017-05-05T12:52:51Z</time>
      </trkpt>
      <trkpt lat="43.26502" lon="5.28994">
        <ele>67.43</ele>
        <time>2017-05-05T12:53:12Z</time>
      </trkpt>
      <trkpt lat="43.26501" lon="5.28995">
        <ele>67.91</ele>
        <time>2017-05-05T12:53:42Z</time>
      </trkpt>
      <trkpt lat="43.26501" lon="5.28996">
        <ele>67.91</ele>
        <time>2017-05-05T12:54:17Z</time>
      </trkpt>
      <trkpt lat="43.265" lon="5.28996">
        <ele>67.91</ele>
        <time>2017-05-05T12:54:45Z</time>
      </trkpt>
      <trkpt lat="43.26494" lon="5.29002">
        <ele>68.39</ele>
        <time>2017-05-05T12:54:58Z</time>
      </trkpt>
      <trkpt lat="43.26491" lon="5.29007">
        <ele>68.39</ele>
        <time>2017-05-05T12:55:12Z</time>
      </trkpt>
      <trkpt lat="43.26491" lon="5.29007">
        <ele>68.39</ele>
        <time>2017-05-05T12:55:32Z</time>
      </trkpt>
      <trkpt lat="43.26485" lon="5.29016">
        <ele>68.39</ele>
        <time>2017-05-05T12:55:47Z</time>
      </trkpt>
      <trkpt lat="43.26484" lon="5.29017">
        <ele>69.83</ele>
        <time>2017-05-05T12:55:49Z</time>
      </trkpt>
      <trkpt lat="43.26478" lon="5.29026">
        <ele>69.83</ele>
        <time>2017-05-05T12:56:00Z</time>
      </trkpt>
      <trkpt lat="43.26472" lon="5.29039">
        <ele>72.24</ele>
        <time>2017-05-05T12:56:13Z</time>
      </trkpt>
      <trkpt lat="43.26468" lon="5.29046">
        <ele>72.72</ele>
        <time>2017-05-05T12:56:23Z</time>
      </trkpt>
      <trkpt lat="43.26467" lon="5.29048">
        <ele>72.72</ele>
        <time>2017-05-05T12:56:25Z</time>
      </trkpt>
      <trkpt lat="43.26455" lon="5.29048">
        <ele>74.16</ele>
        <time>2017-05-05T12:56:40Z</time>
      </trkpt>
      <trkpt lat="43.26455" lon="5.29051">
        <ele>73.68</ele>
        <time>2017-05-05T12:56:52Z</time>
      </trkpt>
      <trkpt lat="43.26454" lon="5.29051">
        <ele>73.2</ele>
        <time>2017-05-05T12:57:17Z</time>
      </trkpt>
      <trkpt lat="43.26453" lon="5.29051">
        <ele>73.2</ele>
        <time>2017-05-05T12:57:37Z</time>
      </trkpt>
      <trkpt lat="43.26453" lon="5.29051">
        <ele>73.2</ele>
        <time>2017-05-05T12:58:06Z</time>
      </trkpt>
      <trkpt lat="43.26453" lon="5.29051">
        <ele>73.2</ele>
        <time>2017-05-05T12:58:23Z</time>
      </trkpt>
      <trkpt lat="43.26449" lon="5.29044">
        <ele>74.64</ele>
        <time>2017-05-05T12:58:30Z</time>
      </trkpt>
      <trkpt lat="43.26441" lon="5.29026">
        <ele>75.12</ele>
        <time>2017-05-05T12:58:44Z</time>
      </trkpt>
      <trkpt lat="43.26437" lon="5.29013">
        <ele>74.64</ele>
        <time>2017-05-05T12:58:58Z</time>
      </trkpt>
      <trkpt lat="43.26436" lon="5.29004">
        <ele>73.2</ele>
        <time>2017-05-05T12:59:08Z</time>
      </trkpt>
      <trkpt lat="43.26436" lon="5.29">
        <ele>71.76</ele>
        <time>2017-05-05T12:59:10Z</time>
      </trkpt>
      <trkpt lat="43.26434" lon="5.28993">
        <ele>72.72</ele>
        <time>2017-05-05T12:59:15Z</time>
      </trkpt>
      <trkpt lat="43.26432" lon="5.28991">
        <ele>72.24</ele>
        <time>2017-05-05T12:59:18Z</time>
      </trkpt>
      <trkpt lat="43.2643" lon="5.28986">
        <ele>72.24</ele>
        <time>2017-05-05T12:59:22Z</time>
      </trkpt>
      <trkpt lat="43.26425" lon="5.28982">
        <ele>69.83</ele>
        <time>2017-05-05T12:59:34Z</time>
      </trkpt>
      <trkpt lat="43.2642" lon="5.28981">
        <ele>69.35</ele>
        <time>2017-05-05T12:59:45Z</time>
      </trkpt>
      <trkpt lat="43.26414" lon="5.28989">
        <ele>67.91</ele>
        <time>2017-05-05T12:59:58Z</time>
      </trkpt>
      <trkpt lat="43.26413" lon="5.2899">
        <ele>65.99</ele>
        <time>2017-05-05T13:00:01Z</time>
      </trkpt>
      <trkpt lat="43.26412" lon="5.2899">
        <ele>64.55</ele>
        <time>2017-05-05T13:00:05Z</time>
      </trkpt>
      <trkpt lat="43.26408" lon="5.28992">
        <ele>65.99</ele>
        <time>2017-05-05T13:00:18Z</time>
      </trkpt>
      <trkpt lat="43.26406" lon="5.28995">
        <ele>64.55</ele>
        <time>2017-05-05T13:00:30Z</time>
      </trkpt>
      <trkpt lat="43.26398" lon="5.29">
        <ele>61.66</ele>
        <time>2017-05-05T13:00:43Z</time>
      </trkpt>
      <trkpt lat="43.26392" lon="5.28996">
        <ele>59.74</ele>
        <time>2017-05-05T13:00:55Z</time>
      </trkpt>
      <trkpt lat="43.2639" lon="5.28995">
        <ele>59.26</ele>
        <time>2017-05-05T13:00:58Z</time>
      </trkpt>
      <trkpt lat="43.26382" lon="5.28999">
        <ele>58.3</ele>
        <time>2017-05-05T13:01:09Z</time>
      </trkpt>
      <trkpt lat="43.26372" lon="5.29004">
        <ele>55.89</ele>
        <time>2017-05-05T13:01:21Z</time>
      </trkpt>
      <trkpt lat="43.2637" lon="5.29004">
        <ele>56.37</ele>
        <time>2017-05-05T13:01:22Z</time>
      </trkpt>
      <trkpt lat="43.26365" lon="5.29004">
        <ele>55.41</ele>
        <time>2017-05-05T13:01:27Z</time>
      </trkpt>
      <trkpt lat="43.26355" lon="5.28998">
        <ele>54.45</ele>
        <time>2017-05-05T13:01:41Z</time>
      </trkpt>
      <trkpt lat="43.26359" lon="5.28992">
        <ele>53.49</ele>
        <time>2017-05-05T13:01:47Z</time>
      </trkpt>
      <trkpt lat="43.26363" lon="5.28988">
        <ele>51.57</ele>
        <time>2017-05-05T13:01:52Z</time>
      </trkpt>
      <trkpt lat="43.26369" lon="5.2898">
        <ele>51.09</ele>
        <time>2017-05-05T13:02:04Z</time>
      </trkpt>
      <trkpt lat="43.26363" lon="5.28979">
        <ele>50.61</ele>
        <time>2017-05-05T13:02:14Z</time>
      </trkpt>
      <trkpt lat="43.26361" lon="5.2898">
        <ele>48.68</ele>
        <time>2017-05-05T13:02:16Z</time>
      </trkpt>
      <trkpt lat="43.26352" lon="5.28986">
        <ele>48.2</ele>
        <time>2017-05-05T13:02:28Z</time>
      </trkpt>
      <trkpt lat="43.26347" lon="5.28988">
        <ele>46.28</ele>
        <time>2017-05-05T13:02:35Z</time>
      </trkpt>
      <trkpt lat="43.2634" lon="5.28981">
        <ele>44.36</ele>
        <time>2017-05-05T13:02:46Z</time>
      </trkpt>
      <trkpt lat="43.2634" lon="5.2898">
        <ele>44.36</ele>
        <time>2017-05-05T13:02:47Z</time>
      </trkpt>
      <trkpt lat="43.26348" lon="5.28969">
        <ele>41.47</ele>
        <time>2017-05-05T13:02:57Z</time>
      </trkpt>
      <trkpt lat="43.26348" lon="5.28966">
        <ele>40.51</ele>
        <time>2017-05-05T13:03:00Z</time>
      </trkpt>
      <trkpt lat="43.26347" lon="5.28955">
        <ele>39.07</ele>
        <time>2017-05-05T13:03:12Z</time>
      </trkpt>
      <trkpt lat="43.26346" lon="5.28954">
        <ele>38.59</ele>
        <time>2017-05-05T13:03:13Z</time>
      </trkpt>
      <trkpt lat="43.26339" lon="5.2895">
        <ele>37.15</ele>
        <time>2017-05-05T13:03:25Z</time>
      </trkpt>
      <trkpt lat="43.26338" lon="5.28949">
        <ele>36.67</ele>
        <time>2017-05-05T13:03:27Z</time>
      </trkpt>
      <trkpt lat="43.26336" lon="5.28949">
        <ele>36.19</ele>
        <time>2017-05-05T13:03:29Z</time>
      </trkpt>
      <trkpt lat="43.26331" lon="5.28945">
        <ele>36.19</ele>
        <time>2017-05-05T13:03:35Z</time>
      </trkpt>
      <trkpt lat="43.26324" lon="5.28932">
        <ele>34.74</ele>
        <time>2017-05-05T13:03:48Z</time>
      </trkpt>
      <trkpt lat="43.26323" lon="5.28931">
        <ele>35.23</ele>
        <time>2017-05-05T13:03:49Z</time>
      </trkpt>
      <trkpt lat="43.26311" lon="5.28921">
        <ele>34.26</ele>
        <time>2017-05-05T13:04:02Z</time>
      </trkpt>
      <trkpt lat="43.2631" lon="5.28919">
        <ele>34.26</ele>
        <time>2017-05-05T13:04:03Z</time>
      </trkpt>
      <trkpt lat="43.26305" lon="5.28911">
        <ele>33.78</ele>
        <time>2017-05-05T13:04:09Z</time>
      </trkpt>
      <trkpt lat="43.26302" lon="5.28906">
        <ele>32.82</ele>
        <time>2017-05-05T13:04:24Z</time>
      </trkpt>
      <trkpt lat="43.26293" lon="5.28897">
        <ele>31.86</ele>
        <time>2017-05-05T13:04:33Z</time>
      </trkpt>
      <trkpt lat="43.26283" lon="5.28893">
        <ele>31.86</ele>
        <time>2017-05-05T13:04:41Z</time>
      </trkpt>
      <trkpt lat="43.26281" lon="5.28893">
        <ele>30.42</ele>
        <time>2017-05-05T13:04:43Z</time>
      </trkpt>
      <trkpt lat="43.26267" lon="5.2889">
        <ele>29.94</ele>
        <time>2017-05-05T13:04:56Z</time>
      </trkpt>
      <trkpt lat="43.26256" lon="5.28888">
        <ele>30.9</ele>
        <time>2017-05-05T13:05:06Z</time>
      </trkpt>
      <trkpt lat="43.26249" lon="5.28885">
        <ele>31.86</ele>
        <time>2017-05-05T13:05:15Z</time>
      </trkpt>
      <trkpt lat="43.26239" lon="5.28871">
        <ele>33.3</ele>
        <time>2017-05-05T13:05:28Z</time>
      </trkpt>
      <trkpt lat="43.26235" lon="5.28864">
        <ele>34.26</ele>
        <time>2017-05-05T13:05:41Z</time>
      </trkpt>
      <trkpt lat="43.26234" lon="5.28864">
        <ele>34.74</ele>
        <time>2017-05-05T13:06:00Z</time>
      </trkpt>
      <trkpt lat="43.26233" lon="5.28862">
        <ele>35.23</ele>
        <time>2017-05-05T13:06:15Z</time>
      </trkpt>
      <trkpt lat="43.26233" lon="5.2886">
        <ele>34.74</ele>
        <time>2017-05-05T13:06:32Z</time>
      </trkpt>
      <trkpt lat="43.26234" lon="5.28859">
        <ele>34.74</ele>
        <time>2017-05-05T13:06:58Z</time>
      </trkpt>
      <trkpt lat="43.26235" lon="5.28859">
        <ele>34.26</ele>
        <time>2017-05-05T13:07:24Z</time>
      </trkpt>
      <trkpt lat="43.26235" lon="5.2886">
        <ele>34.74</ele>
        <time>2017-05-05T13:07:54Z</time>
      </trkpt>
      <trkpt lat="43.26235" lon="5.28859">
        <ele>34.26</ele>
        <time>2017-05-05T13:08:08Z</time>
      </trkpt>
      <trkpt lat="43.26235" lon="5.28859">
        <ele>34.74</ele>
        <time>2017-05-05T13:08:31Z</time>
      </trkpt>
      <trkpt lat="43.26235" lon="5.28859">
        <ele>34.26</ele>
        <time>2017-05-05T13:08:57Z</time>
      </trkpt>
      <trkpt lat="43.26236" lon="5.2886">
        <ele>33.78</ele>
        <time>2017-05-05T13:09:23Z</time>
      </trkpt>
      <trkpt lat="43.26236" lon="5.28859">
        <ele>33.78</ele>
        <time>2017-05-05T13:09:48Z</time>
      </trkpt>
      <trkpt lat="43.26236" lon="5.28859">
        <ele>33.78</ele>
        <time>2017-05-05T13:10:09Z</time>
      </trkpt>
      <trkpt lat="43.26234" lon="5.28859">
        <ele>33.78</ele>
        <time>2017-05-05T13:10:34Z</time>
      </trkpt>
      <trkpt lat="43.26235" lon="5.28859">
        <ele>34.26</ele>
        <time>2017-05-05T13:10:51Z</time>
      </trkpt>
      <trkpt lat="43.26237" lon="5.28862">
        <ele>33.78</ele>
        <time>2017-05-05T13:11:03Z</time>
      </trkpt>
      <trkpt lat="43.26238" lon="5.28864">
        <ele>33.3</ele>
        <time>2017-05-05T13:11:05Z</time>
      </trkpt>
      <trkpt lat="43.26239" lon="5.28866">
        <ele>33.78</ele>
        <time>2017-05-05T13:11:07Z</time>
      </trkpt>
      <trkpt lat="43.2624" lon="5.28869">
        <ele>32.82</ele>
        <time>2017-05-05T13:11:09Z</time>
      </trkpt>
      <trkpt lat="43.26244" lon="5.28876">
        <ele>30.9</ele>
        <time>2017-05-05T13:11:22Z</time>
      </trkpt>
      <trkpt lat="43.26252" lon="5.28877">
        <ele>29.94</ele>
        <time>2017-05-05T13:11:36Z</time>
      </trkpt>
      <trkpt lat="43.26253" lon="5.28878">
        <ele>29.46</ele>
        <time>2017-05-05T13:11:56Z</time>
      </trkpt>
      <trkpt lat="43.26257" lon="5.28878">
        <ele>29.46</ele>
        <time>2017-05-05T13:12:10Z</time>
      </trkpt>
      <trkpt lat="43.26258" lon="5.28879">
        <ele>29.46</ele>
        <time>2017-05-05T13:12:21Z</time>
      </trkpt>
      <trkpt lat="43.26269" lon="5.28882">
        <ele>29.46</ele>
        <time>2017-05-05T13:12:33Z</time>
      </trkpt>
      <trkpt lat="43.26278" lon="5.2888">
        <ele>32.34</ele>
        <time>2017-05-05T13:12:42Z</time>
      </trkpt>
      <trkpt lat="43.26285" lon="5.28882">
        <ele>32.82</ele>
        <time>2017-05-05T13:12:49Z</time>
      </trkpt>
      <trkpt lat="43.26298" lon="5.28899">
        <ele>33.78</ele>
        <time>2017-05-05T13:13:04Z</time>
      </trkpt>
      <trkpt lat="43.26307" lon="5.28904">
        <ele>34.74</ele>
        <time>2017-05-05T13:13:16Z</time>
      </trkpt>
      <trkpt lat="43.26317" lon="5.28913">
        <ele>36.19</ele>
        <time>2017-05-05T13:13:30Z</time>
      </trkpt>
      <trkpt lat="43.26323" lon="5.28918">
        <ele>36.19</ele>
        <time>2017-05-05T13:13:35Z</time>
      </trkpt>
      <trkpt lat="43.26327" lon="5.28923">
        <ele>36.19</ele>
        <time>2017-05-05T13:13:39Z</time>
      </trkpt>
      <trkpt lat="43.26331" lon="5.28928">
        <ele>36.19</ele>
        <time>2017-05-05T13:13:43Z</time>
      </trkpt>
      <trkpt lat="43.26342" lon="5.28937">
        <ele>38.59</ele>
        <time>2017-05-05T13:13:56Z</time>
      </trkpt>
      <trkpt lat="43.26347" lon="5.28943">
        <ele>39.07</ele>
        <time>2017-05-05T13:14:02Z</time>
      </trkpt>
      <trkpt lat="43.26351" lon="5.28948">
        <ele>40.03</ele>
        <time>2017-05-05T13:14:08Z</time>
      </trkpt>
      <trkpt lat="43.26353" lon="5.28964">
        <ele>42.44</ele>
        <time>2017-05-05T13:14:20Z</time>
      </trkpt>
      <trkpt lat="43.26348" lon="5.28973">
        <ele>45.8</ele>
        <time>2017-05-05T13:14:30Z</time>
      </trkpt>
      <trkpt lat="43.26347" lon="5.28975">
        <ele>45.8</ele>
        <time>2017-05-05T13:14:33Z</time>
      </trkpt>
      <trkpt lat="43.26345" lon="5.2898">
        <ele>46.28</ele>
        <time>2017-05-05T13:14:38Z</time>
      </trkpt>
      <trkpt lat="43.26348" lon="5.28983">
        <ele>47.24</ele>
        <time>2017-05-05T13:14:44Z</time>
      </trkpt>
      <trkpt lat="43.26349" lon="5.28983">
        <ele>46.28</ele>
        <time>2017-05-05T13:14:47Z</time>
      </trkpt>
      <trkpt lat="43.26351" lon="5.28983">
        <ele>48.2</ele>
        <time>2017-05-05T13:14:52Z</time>
      </trkpt>
      <trkpt lat="43.26356" lon="5.28979">
        <ele>49.16</ele>
        <time>2017-05-05T13:15:04Z</time>
      </trkpt>
      <trkpt lat="43.26365" lon="5.28973">
        <ele>50.61</ele>
        <time>2017-05-05T13:15:15Z</time>
      </trkpt>
      <trkpt lat="43.26367" lon="5.28975">
        <ele>50.61</ele>
        <time>2017-05-05T13:15:18Z</time>
      </trkpt>
      <trkpt lat="43.26368" lon="5.28989">
        <ele>52.53</ele>
        <time>2017-05-05T13:15:31Z</time>
      </trkpt>
      <trkpt lat="43.26365" lon="5.28993">
        <ele>53.49</ele>
        <time>2017-05-05T13:15:37Z</time>
      </trkpt>
      <trkpt lat="43.2636" lon="5.29001">
        <ele>54.93</ele>
        <time>2017-05-05T13:15:50Z</time>
      </trkpt>
      <trkpt lat="43.2636" lon="5.29">
        <ele>54.93</ele>
        <time>2017-05-05T13:15:52Z</time>
      </trkpt>
      <trkpt lat="43.26361" lon="5.28999">
        <ele>55.41</ele>
        <time>2017-05-05T13:15:54Z</time>
      </trkpt>
      <trkpt lat="43.26368" lon="5.29001">
        <ele>56.37</ele>
        <time>2017-05-05T13:16:05Z</time>
      </trkpt>
      <trkpt lat="43.26371" lon="5.29008">
        <ele>56.86</ele>
        <time>2017-05-05T13:16:11Z</time>
      </trkpt>
      <trkpt lat="43.26376" lon="5.29019">
        <ele>56.86</ele>
        <time>2017-05-05T13:16:24Z</time>
      </trkpt>
      <trkpt lat="43.26379" lon="5.29019">
        <ele>56.37</ele>
        <time>2017-05-05T13:16:42Z</time>
      </trkpt>
      <trkpt lat="43.2638" lon="5.29019">
        <ele>56.37</ele>
        <time>2017-05-05T13:17:04Z</time>
      </trkpt>
      <trkpt lat="43.26382" lon="5.29018">
        <ele>55.41</ele>
        <time>2017-05-05T13:17:18Z</time>
      </trkpt>
      <trkpt lat="43.26384" lon="5.29017">
        <ele>54.93</ele>
        <time>2017-05-05T13:17:36Z</time>
      </trkpt>
      <trkpt lat="43.26388" lon="5.29015">
        <ele>55.41</ele>
        <time>2017-05-05T13:17:47Z</time>
      </trkpt>
      <trkpt lat="43.26398" lon="5.2901">
        <ele>55.41</ele>
        <time>2017-05-05T13:18:01Z</time>
      </trkpt>
      <trkpt lat="43.26403" lon="5.2901">
        <ele>56.37</ele>
        <time>2017-05-05T13:18:09Z</time>
      </trkpt>
      <trkpt lat="43.26413" lon="5.29021">
        <ele>56.86</ele>
        <time>2017-05-05T13:18:24Z</time>
      </trkpt>
      <trkpt lat="43.26413" lon="5.29022">
        <ele>56.86</ele>
        <time>2017-05-05T13:18:25Z</time>
      </trkpt>
      <trkpt lat="43.2642" lon="5.29031">
        <ele>59.26</ele>
        <time>2017-05-05T13:18:37Z</time>
      </trkpt>
      <trkpt lat="43.26427" lon="5.29047">
        <ele>61.18</ele>
        <time>2017-05-05T13:18:49Z</time>
      </trkpt>
      <trkpt lat="43.2643" lon="5.29054">
        <ele>62.14</ele>
        <time>2017-05-05T13:18:56Z</time>
      </trkpt>
      <trkpt lat="43.26434" lon="5.29057">
        <ele>62.14</ele>
        <time>2017-05-05T13:19:01Z</time>
      </trkpt>
      <trkpt lat="43.26437" lon="5.2906">
        <ele>62.14</ele>
        <time>2017-05-05T13:19:05Z</time>
      </trkpt>
      <trkpt lat="43.26449" lon="5.29067">
        <ele>64.55</ele>
        <time>2017-05-05T13:19:20Z</time>
      </trkpt>
      <trkpt lat="43.26451" lon="5.29068">
        <ele>65.03</ele>
        <time>2017-05-05T13:19:22Z</time>
      </trkpt>
      <trkpt lat="43.2646" lon="5.29067">
        <ele>65.51</ele>
        <time>2017-05-05T13:19:32Z</time>
      </trkpt>
      <trkpt lat="43.26468" lon="5.29055">
        <ele>66.95</ele>
        <time>2017-05-05T13:19:46Z</time>
      </trkpt>
      <trkpt lat="43.26476" lon="5.2904">
        <ele>65.99</ele>
        <time>2017-05-05T13:19:59Z</time>
      </trkpt>
      <trkpt lat="43.26483" lon="5.29031">
        <ele>66.47</ele>
        <time>2017-05-05T13:20:08Z</time>
      </trkpt>
      <trkpt lat="43.2649" lon="5.29028">
        <ele>65.03</ele>
        <time>2017-05-05T13:20:15Z</time>
      </trkpt>
      <trkpt lat="43.26504" lon="5.29022">
        <ele>65.03</ele>
        <time>2017-05-05T13:20:29Z</time>
      </trkpt>
      <trkpt lat="43.26516" lon="5.29018">
        <ele>65.03</ele>
        <time>2017-05-05T13:20:42Z</time>
      </trkpt>
      <trkpt lat="43.26529" lon="5.29022">
        <ele>64.55</ele>
        <time>2017-05-05T13:20:53Z</time>
      </trkpt>
      <trkpt lat="43.26536" lon="5.29027">
        <ele>64.07</ele>
        <time>2017-05-05T13:20:59Z</time>
      </trkpt>
      <trkpt lat="43.26549" lon="5.2904">
        <ele>61.66</ele>
        <time>2017-05-05T13:21:12Z</time>
      </trkpt>
      <trkpt lat="43.26562" lon="5.29051">
        <ele>59.74</ele>
        <time>2017-05-05T13:21:25Z</time>
      </trkpt>
      <trkpt lat="43.26573" lon="5.2906">
        <ele>57.82</ele>
        <time>2017-05-05T13:21:37Z</time>
      </trkpt>
      <trkpt lat="43.2658" lon="5.29067">
        <ele>57.34</ele>
        <time>2017-05-05T13:21:46Z</time>
      </trkpt>
      <trkpt lat="43.26589" lon="5.29069">
        <ele>56.86</ele>
        <time>2017-05-05T13:21:53Z</time>
      </trkpt>
      <trkpt lat="43.26596" lon="5.29073">
        <ele>55.41</ele>
        <time>2017-05-05T13:22:00Z</time>
      </trkpt>
      <trkpt lat="43.266" lon="5.29078">
        <ele>55.89</ele>
        <time>2017-05-05T13:22:06Z</time>
      </trkpt>
      <trkpt lat="43.26604" lon="5.29082">
        <ele>55.89</ele>
        <time>2017-05-05T13:22:10Z</time>
      </trkpt>
      <trkpt lat="43.26614" lon="5.291">
        <ele>53.49</ele>
        <time>2017-05-05T13:22:25Z</time>
      </trkpt>
      <trkpt lat="43.26626" lon="5.29109">
        <ele>51.09</ele>
        <time>2017-05-05T13:22:37Z</time>
      </trkpt>
      <trkpt lat="43.26637" lon="5.29118">
        <ele>49.65</ele>
        <time>2017-05-05T13:22:48Z</time>
      </trkpt>
      <trkpt lat="43.26642" lon="5.29123">
        <ele>49.65</ele>
        <time>2017-05-05T13:22:53Z</time>
      </trkpt>
      <trkpt lat="43.26646" lon="5.29138">
        <ele>48.2</ele>
        <time>2017-05-05T13:23:02Z</time>
      </trkpt>
      <trkpt lat="43.26644" lon="5.29144">
        <ele>47.24</ele>
        <time>2017-05-05T13:23:06Z</time>
      </trkpt>
      <trkpt lat="43.26642" lon="5.29147">
        <ele>46.76</ele>
        <time>2017-05-05T13:23:08Z</time>
      </trkpt>
      <trkpt lat="43.26641" lon="5.29151">
        <ele>46.28</ele>
        <time>2017-05-05T13:23:11Z</time>
      </trkpt>
      <trkpt lat="43.26637" lon="5.29169">
        <ele>47.72</ele>
        <time>2017-05-05T13:23:23Z</time>
      </trkpt>
      <trkpt lat="43.26635" lon="5.29175">
        <ele>45.8</ele>
        <time>2017-05-05T13:23:27Z</time>
      </trkpt>
      <trkpt lat="43.26633" lon="5.29182">
        <ele>46.28</ele>
        <time>2017-05-05T13:23:31Z</time>
      </trkpt>
      <trkpt lat="43.2663" lon="5.29201">
        <ele>46.28</ele>
        <time>2017-05-05T13:23:43Z</time>
      </trkpt>
      <trkpt lat="43.26625" lon="5.29223">
        <ele>46.76</ele>
        <time>2017-05-05T13:23:58Z</time>
      </trkpt>
      <trkpt lat="43.26623" lon="5.29243">
        <ele>48.68</ele>
        <time>2017-05-05T13:24:11Z</time>
      </trkpt>
      <trkpt lat="43.26624" lon="5.29259">
        <ele>48.68</ele>
        <time>2017-05-05T13:24:21Z</time>
      </trkpt>
      <trkpt lat="43.26627" lon="5.29264">
        <ele>48.68</ele>
        <time>2017-05-05T13:24:25Z</time>
      </trkpt>
      <trkpt lat="43.26629" lon="5.29267">
        <ele>48.68</ele>
        <time>2017-05-05T13:24:28Z</time>
      </trkpt>
      <trkpt lat="43.26634" lon="5.29273">
        <ele>48.68</ele>
        <time>2017-05-05T13:24:34Z</time>
      </trkpt>
      <trkpt lat="43.26638" lon="5.29276">
        <ele>49.16</ele>
        <time>2017-05-05T13:24:37Z</time>
      </trkpt>
      <trkpt lat="43.26647" lon="5.29282">
        <ele>50.13</ele>
        <time>2017-05-05T13:24:47Z</time>
      </trkpt>
      <trkpt lat="43.26658" lon="5.29298">
        <ele>49.16</ele>
        <time>2017-05-05T13:25:00Z</time>
      </trkpt>
      <trkpt lat="43.26658" lon="5.29301">
        <ele>49.16</ele>
        <time>2017-05-05T13:25:02Z</time>
      </trkpt>
      <trkpt lat="43.26659" lon="5.29307">
        <ele>49.65</ele>
        <time>2017-05-05T13:25:05Z</time>
      </trkpt>
      <trkpt lat="43.26664" lon="5.2932">
        <ele>50.13</ele>
        <time>2017-05-05T13:25:14Z</time>
      </trkpt>
      <trkpt lat="43.26666" lon="5.29323">
        <ele>51.09</ele>
        <time>2017-05-05T13:25:17Z</time>
      </trkpt>
      <trkpt lat="43.26669" lon="5.29335">
        <ele>51.09</ele>
        <time>2017-05-05T13:25:26Z</time>
      </trkpt>
      <trkpt lat="43.2667" lon="5.29347">
        <ele>51.09</ele>
        <time>2017-05-05T13:25:34Z</time>
      </trkpt>
      <trkpt lat="43.26671" lon="5.29354">
        <ele>51.09</ele>
        <time>2017-05-05T13:25:38Z</time>
      </trkpt>
      <trkpt lat="43.26671" lon="5.29372">
        <ele>50.61</ele>
        <time>2017-05-05T13:25:49Z</time>
      </trkpt>
      <trkpt lat="43.26672" lon="5.29377">
        <ele>51.09</ele>
        <time>2017-05-05T13:25:52Z</time>
      </trkpt>
      <trkpt lat="43.26671" lon="5.29393">
        <ele>51.57</ele>
        <time>2017-05-05T13:26:04Z</time>
      </trkpt>
      <trkpt lat="43.26671" lon="5.29396">
        <ele>51.57</ele>
        <time>2017-05-05T13:26:07Z</time>
      </trkpt>
      <trkpt lat="43.26672" lon="5.29402">
        <ele>52.05</ele>
        <time>2017-05-05T13:26:20Z</time>
      </trkpt>
      <trkpt lat="43.26673" lon="5.29406">
        <ele>52.53</ele>
        <time>2017-05-05T13:26:30Z</time>
      </trkpt>
      <trkpt lat="43.26672" lon="5.29413">
        <ele>53.01</ele>
        <time>2017-05-05T13:26:45Z</time>
      </trkpt>
      <trkpt lat="43.26671" lon="5.29414">
        <ele>53.01</ele>
        <time>2017-05-05T13:27:06Z</time>
      </trkpt>
      <trkpt lat="43.26671" lon="5.29416">
        <ele>53.01</ele>
        <time>2017-05-05T13:27:35Z</time>
      </trkpt>
      <trkpt lat="43.26672" lon="5.29416">
        <ele>53.01</ele>
        <time>2017-05-05T13:27:53Z</time>
      </trkpt>
      <trkpt lat="43.26673" lon="5.29416">
        <ele>52.53</ele>
        <time>2017-05-05T13:28:12Z</time>
      </trkpt>
      <trkpt lat="43.26672" lon="5.29426">
        <ele>53.01</ele>
        <time>2017-05-05T13:28:24Z</time>
      </trkpt>
      <trkpt lat="43.26672" lon="5.29431">
        <ele>53.97</ele>
        <time>2017-05-05T13:28:28Z</time>
      </trkpt>
      <trkpt lat="43.26671" lon="5.29436">
        <ele>55.41</ele>
        <time>2017-05-05T13:28:36Z</time>
      </trkpt>
      <trkpt lat="43.26671" lon="5.29444">
        <ele>54.93</ele>
        <time>2017-05-05T13:28:48Z</time>
      </trkpt>
      <trkpt lat="43.26672" lon="5.29448">
        <ele>54.93</ele>
        <time>2017-05-05T13:29:00Z</time>
      </trkpt>
      <trkpt lat="43.26673" lon="5.29449">
        <ele>53.49</ele>
        <time>2017-05-05T13:29:16Z</time>
      </trkpt>
      <trkpt lat="43.26673" lon="5.29449">
        <ele>53.49</ele>
        <time>2017-05-05T13:29:17Z</time>
      </trkpt>
      <trkpt lat="43.26677" lon="5.29453">
        <ele>52.53</ele>
        <time>2017-05-05T13:29:34Z</time>
      </trkpt>
      <trkpt lat="43.26682" lon="5.2946">
        <ele>51.57</ele>
        <time>2017-05-05T13:29:46Z</time>
      </trkpt>
      <trkpt lat="43.26683" lon="5.29472">
        <ele>50.13</ele>
        <time>2017-05-05T13:29:59Z</time>
      </trkpt>
      <trkpt lat="43.26683" lon="5.29473">
        <ele>50.13</ele>
        <time>2017-05-05T13:30:00Z</time>
      </trkpt>
      <trkpt lat="43.26684" lon="5.29481">
        <ele>51.09</ele>
        <time>2017-05-05T13:30:10Z</time>
      </trkpt>
      <trkpt lat="43.26689" lon="5.29495">
        <ele>50.13</ele>
        <time>2017-05-05T13:30:19Z</time>
      </trkpt>
      <trkpt lat="43.26694" lon="5.29506">
        <ele>49.65</ele>
        <time>2017-05-05T13:30:30Z</time>
      </trkpt>
      <trkpt lat="43.26698" lon="5.29508">
        <ele>49.16</ele>
        <time>2017-05-05T13:30:35Z</time>
      </trkpt>
      <trkpt lat="43.2671" lon="5.2951">
        <ele>47.72</ele>
        <time>2017-05-05T13:30:48Z</time>
      </trkpt>
      <trkpt lat="43.26723" lon="5.29518">
        <ele>46.28</ele>
        <time>2017-05-05T13:31:00Z</time>
      </trkpt>
      <trkpt lat="43.26744" lon="5.29517">
        <ele>44.84</ele>
        <time>2017-05-05T13:31:13Z</time>
      </trkpt>
      <trkpt lat="43.26757" lon="5.29524">
        <ele>44.36</ele>
        <time>2017-05-05T13:31:24Z</time>
      </trkpt>
      <trkpt lat="43.2676" lon="5.29531">
        <ele>42.92</ele>
        <time>2017-05-05T13:31:38Z</time>
      </trkpt>
      <trkpt lat="43.26761" lon="5.29533">
        <ele>42.92</ele>
        <time>2017-05-05T13:31:58Z</time>
      </trkpt>
      <trkpt lat="43.26767" lon="5.29536">
        <ele>42.92</ele>
        <time>2017-05-05T13:32:07Z</time>
      </trkpt>
      <trkpt lat="43.2677" lon="5.29538">
        <ele>42.44</ele>
        <time>2017-05-05T13:32:10Z</time>
      </trkpt>
      <trkpt lat="43.26774" lon="5.29542">
        <ele>41.95</ele>
        <time>2017-05-05T13:32:15Z</time>
      </trkpt>
      <trkpt lat="43.26781" lon="5.29555">
        <ele>40.03</ele>
        <time>2017-05-05T13:32:27Z</time>
      </trkpt>
      <trkpt lat="43.26787" lon="5.29569">
        <ele>40.03</ele>
        <time>2017-05-05T13:32:40Z</time>
      </trkpt>
      <trkpt lat="43.26787" lon="5.2957">
        <ele>40.03</ele>
        <time>2017-05-05T13:32:41Z</time>
      </trkpt>
      <trkpt lat="43.26793" lon="5.29579">
        <ele>41.95</ele>
        <time>2017-05-05T13:32:50Z</time>
      </trkpt>
      <trkpt lat="43.26801" lon="5.29582">
        <ele>41.95</ele>
        <time>2017-05-05T13:32:56Z</time>
      </trkpt>
      <trkpt lat="43.26805" lon="5.29588">
        <ele>40.99</ele>
        <time>2017-05-05T13:33:01Z</time>
      </trkpt>
      <trkpt lat="43.26807" lon="5.29592">
        <ele>40.03</ele>
        <time>2017-05-05T13:33:03Z</time>
      </trkpt>
      <trkpt lat="43.26809" lon="5.29598">
        <ele>39.55</ele>
        <time>2017-05-05T13:33:06Z</time>
      </trkpt>
      <trkpt lat="43.26812" lon="5.29607">
        <ele>38.59</ele>
        <time>2017-05-05T13:33:14Z</time>
      </trkpt>
      <trkpt lat="43.26819" lon="5.29622">
        <ele>37.63</ele>
        <time>2017-05-05T13:33:26Z</time>
      </trkpt>
      <trkpt lat="43.26828" lon="5.29639">
        <ele>36.67</ele>
        <time>2017-05-05T13:33:37Z</time>
      </trkpt>
      <trkpt lat="43.26831" lon="5.29645">
        <ele>36.67</ele>
        <time>2017-05-05T13:33:43Z</time>
      </trkpt>
      <trkpt lat="43.26834" lon="5.29647">
        <ele>36.19</ele>
        <time>2017-05-05T13:33:46Z</time>
      </trkpt>
      <trkpt lat="43.26838" lon="5.29651">
        <ele>35.71</ele>
        <time>2017-05-05T13:33:51Z</time>
      </trkpt>
      <trkpt lat="43.26849" lon="5.29662">
        <ele>34.74</ele>
        <time>2017-05-05T13:34:04Z</time>
      </trkpt>
      <trkpt lat="43.26851" lon="5.29666">
        <ele>34.26</ele>
        <time>2017-05-05T13:34:07Z</time>
      </trkpt>
      <trkpt lat="43.26856" lon="5.29689">
        <ele>32.34</ele>
        <time>2017-05-05T13:34:20Z</time>
      </trkpt>
      <trkpt lat="43.26857" lon="5.29702">
        <ele>30.9</ele>
        <time>2017-05-05T13:34:31Z</time>
      </trkpt>
      <trkpt lat="43.26856" lon="5.29703">
        <ele>31.38</ele>
        <time>2017-05-05T13:34:50Z</time>
      </trkpt>
      <trkpt lat="43.26856" lon="5.29705">
        <ele>31.38</ele>
        <time>2017-05-05T13:34:56Z</time>
      </trkpt>
      <trkpt lat="43.26856" lon="5.29708">
        <ele>31.38</ele>
        <time>2017-05-05T13:34:59Z</time>
      </trkpt>
      <trkpt lat="43.26856" lon="5.29714">
        <ele>30.42</ele>
        <time>2017-05-05T13:35:04Z</time>
      </trkpt>
      <trkpt lat="43.26856" lon="5.29732">
        <ele>31.38</ele>
        <time>2017-05-05T13:35:18Z</time>
      </trkpt>
      <trkpt lat="43.26856" lon="5.29737">
        <ele>31.38</ele>
        <time>2017-05-05T13:35:22Z</time>
      </trkpt>
      <trkpt lat="43.26856" lon="5.2974">
        <ele>30.9</ele>
        <time>2017-05-05T13:35:24Z</time>
      </trkpt>
      <trkpt lat="43.26861" lon="5.29758">
        <ele>29.46</ele>
        <time>2017-05-05T13:35:38Z</time>
      </trkpt>
      <trkpt lat="43.26864" lon="5.29762">
        <ele>28.98</ele>
        <time>2017-05-05T13:35:42Z</time>
      </trkpt>
      <trkpt lat="43.2687" lon="5.29764">
        <ele>28.02</ele>
        <time>2017-05-05T13:35:49Z</time>
      </trkpt>
      <trkpt lat="43.26872" lon="5.29764">
        <ele>28.02</ele>
        <time>2017-05-05T13:35:51Z</time>
      </trkpt>
      <trkpt lat="43.26888" lon="5.29765">
        <ele>27.53</ele>
        <time>2017-05-05T13:36:05Z</time>
      </trkpt>
      <trkpt lat="43.26895" lon="5.29776">
        <ele>26.57</ele>
        <time>2017-05-05T13:36:15Z</time>
      </trkpt>
      <trkpt lat="43.26899" lon="5.29779">
        <ele>26.57</ele>
        <time>2017-05-05T13:36:18Z</time>
      </trkpt>
      <trkpt lat="43.2691" lon="5.29793">
        <ele>25.13</ele>
        <time>2017-05-05T13:36:31Z</time>
      </trkpt>
      <trkpt lat="43.26916" lon="5.29798">
        <ele>24.65</ele>
        <time>2017-05-05T13:36:38Z</time>
      </trkpt>
      <trkpt lat="43.26926" lon="5.29807">
        <ele>23.21</ele>
        <time>2017-05-05T13:36:50Z</time>
      </trkpt>
      <trkpt lat="43.26938" lon="5.29814">
        <ele>22.25</ele>
        <time>2017-05-05T13:37:03Z</time>
      </trkpt>
      <trkpt lat="43.26947" lon="5.2982">
        <ele>21.29</ele>
        <time>2017-05-05T13:37:14Z</time>
      </trkpt>
      <trkpt lat="43.26962" lon="5.2983">
        <ele>20.32</ele>
        <time>2017-05-05T13:37:29Z</time>
      </trkpt>
      <trkpt lat="43.26966" lon="5.29831">
        <ele>19.84</ele>
        <time>2017-05-05T13:37:33Z</time>
      </trkpt>
      <trkpt lat="43.26978" lon="5.29842">
        <ele>18.88</ele>
        <time>2017-05-05T13:37:47Z</time>
      </trkpt>
      <trkpt lat="43.26991" lon="5.29847">
        <ele>17.92</ele>
        <time>2017-05-05T13:38:00Z</time>
      </trkpt>
      <trkpt lat="43.26994" lon="5.29848">
        <ele>17.44</ele>
        <time>2017-05-05T13:38:02Z</time>
      </trkpt>
      <trkpt lat="43.26999" lon="5.29848">
        <ele>16.48</ele>
        <time>2017-05-05T13:38:08Z</time>
      </trkpt>
      <trkpt lat="43.27004" lon="5.29848">
        <ele>16.96</ele>
        <time>2017-05-05T13:38:12Z</time>
      </trkpt>
      <trkpt lat="43.27019" lon="5.29842">
        <ele>16.96</ele>
        <time>2017-05-05T13:38:25Z</time>
      </trkpt>
      <trkpt lat="43.27023" lon="5.2984">
        <ele>17.44</ele>
        <time>2017-05-05T13:38:29Z</time>
      </trkpt>
      <trkpt lat="43.27035" lon="5.29835">
        <ele>17.44</ele>
        <time>2017-05-05T13:38:41Z</time>
      </trkpt>
      <trkpt lat="43.27041" lon="5.29836">
        <ele>17.44</ele>
        <time>2017-05-05T13:38:56Z</time>
      </trkpt>
      <trkpt lat="43.27041" lon="5.29837">
        <ele>14.08</ele>
        <time>2017-05-05T13:39:05Z</time>
      </trkpt>
      <trkpt lat="43.27042" lon="5.29837">
        <ele>15.52</ele>
        <time>2017-05-05T13:39:06Z</time>
      </trkpt>
      <trkpt lat="43.27041" lon="5.29837">
        <ele>17.44</ele>
        <time>2017-05-05T13:39:08Z</time>
      </trkpt>
      <trkpt lat="43.27036" lon="5.2984">
        <ele>20.32</ele>
        <time>2017-05-05T13:39:19Z</time>
      </trkpt>
      <trkpt lat="43.27032" lon="5.29842">
        <ele>17.92</ele>
        <time>2017-05-05T13:39:24Z</time>
      </trkpt>
      <trkpt lat="43.27029" lon="5.29845">
        <ele>16.48</ele>
        <time>2017-05-05T13:39:29Z</time>
      </trkpt>
      <trkpt lat="43.27025" lon="5.29852">
        <ele>15.04</ele>
        <time>2017-05-05T13:39:42Z</time>
      </trkpt>
      <trkpt lat="43.27027" lon="5.29854">
        <ele>14.56</ele>
        <time>2017-05-05T13:39:44Z</time>
      </trkpt>
      <trkpt lat="43.27028" lon="5.29855">
        <ele>14.08</ele>
        <time>2017-05-05T13:39:46Z</time>
      </trkpt>
      <trkpt lat="43.27033" lon="5.29872">
        <ele>13.6</ele>
        <time>2017-05-05T13:40:00Z</time>
      </trkpt>
      <trkpt lat="43.27033" lon="5.29875">
        <ele>13.12</ele>
        <time>2017-05-05T13:40:02Z</time>
      </trkpt>
      <trkpt lat="43.27036" lon="5.29884">
        <ele>11.67</ele>
        <time>2017-05-05T13:40:10Z</time>
      </trkpt>
      <trkpt lat="43.27039" lon="5.29899">
        <ele>11.19</ele>
        <time>2017-05-05T13:40:24Z</time>
      </trkpt>
      <trkpt lat="43.27041" lon="5.29904">
        <ele>12.15</ele>
        <time>2017-05-05T13:40:31Z</time>
      </trkpt>
      <trkpt lat="43.27043" lon="5.29917">
        <ele>12.63</ele>
        <time>2017-05-05T13:40:44Z</time>
      </trkpt>
      <trkpt lat="43.27043" lon="5.29918">
        <ele>13.12</ele>
        <time>2017-05-05T13:41:01Z</time>
      </trkpt>
      <trkpt lat="43.27047" lon="5.29925">
        <ele>12.63</ele>
        <time>2017-05-05T13:41:16Z</time>
      </trkpt>
      <trkpt lat="43.27049" lon="5.2993">
        <ele>11.67</ele>
        <time>2017-05-05T13:41:29Z</time>
      </trkpt>
      <trkpt lat="43.27051" lon="5.29936">
        <ele>9.75</ele>
        <time>2017-05-05T13:41:38Z</time>
      </trkpt>
      <trkpt lat="43.27054" lon="5.29946">
        <ele>10.23</ele>
        <time>2017-05-05T13:41:50Z</time>
      </trkpt>
      <trkpt lat="43.27053" lon="5.29956">
        <ele>12.15</ele>
        <time>2017-05-05T13:42:01Z</time>
      </trkpt>
      <trkpt lat="43.27054" lon="5.29959">
        <ele>13.6</ele>
        <time>2017-05-05T13:42:11Z</time>
      </trkpt>
      <trkpt lat="43.27052" lon="5.29974">
        <ele>11.19</ele>
        <time>2017-05-05T13:42:24Z</time>
      </trkpt>
      <trkpt lat="43.27051" lon="5.29987">
        <ele>9.75</ele>
        <time>2017-05-05T13:42:37Z</time>
      </trkpt>
      <trkpt lat="43.27049" lon="5.29995">
        <ele>7.83</ele>
        <time>2017-05-05T13:42:49Z</time>
      </trkpt>
      <trkpt lat="43.2705" lon="5.29996">
        <ele>6.87</ele>
        <time>2017-05-05T13:42:53Z</time>
      </trkpt>
      <trkpt lat="43.27052" lon="5.29998">
        <ele>6.39</ele>
        <time>2017-05-05T13:43:01Z</time>
      </trkpt>
      <trkpt lat="43.27057" lon="5.30007">
        <ele>7.83</ele>
        <time>2017-05-05T13:43:13Z</time>
      </trkpt>
      <trkpt lat="43.27059" lon="5.30009">
        <ele>7.35</ele>
        <time>2017-05-05T13:43:16Z</time>
      </trkpt>
      <trkpt lat="43.27064" lon="5.30021">
        <ele>8.79</ele>
        <time>2017-05-05T13:43:28Z</time>
      </trkpt>
      <trkpt lat="43.27066" lon="5.30028">
        <ele>9.75</ele>
        <time>2017-05-05T13:43:41Z</time>
      </trkpt>
      <trkpt lat="43.27068" lon="5.30034">
        <ele>10.23</ele>
        <time>2017-05-05T13:43:50Z</time>
      </trkpt>
      <trkpt lat="43.27065" lon="5.30039">
        <ele>10.71</ele>
        <time>2017-05-05T13:44:05Z</time>
      </trkpt>
      <trkpt lat="43.27064" lon="5.30039">
        <ele>10.23</ele>
        <time>2017-05-05T13:44:29Z</time>
      </trkpt>
      <trkpt lat="43.27064" lon="5.30039">
        <ele>11.67</ele>
        <time>2017-05-05T13:44:51Z</time>
      </trkpt>
      <trkpt lat="43.27063" lon="5.30038">
        <ele>10.23</ele>
        <time>2017-05-05T13:45:22Z</time>
      </trkpt>
      <trkpt lat="43.27063" lon="5.30038">
        <ele>10.71</ele>
        <time>2017-05-05T13:45:51Z</time>
      </trkpt>
      <trkpt lat="43.27065" lon="5.30037">
        <ele>10.23</ele>
        <time>2017-05-05T13:46:06Z</time>
      </trkpt>
      <trkpt lat="43.27066" lon="5.30035">
        <ele>10.71</ele>
        <time>2017-05-05T13:46:09Z</time>
      </trkpt>
      <trkpt lat="43.27068" lon="5.30034">
        <ele>9.27</ele>
        <time>2017-05-05T13:46:11Z</time>
      </trkpt>
      <trkpt lat="43.27076" lon="5.30031">
        <ele>7.83</ele>
        <time>2017-05-05T13:46:26Z</time>
      </trkpt>
      <trkpt lat="43.27084" lon="5.30032">
        <ele>6.39</ele>
        <time>2017-05-05T13:46:38Z</time>
      </trkpt>
      <trkpt lat="43.27093" lon="5.30042">
        <ele>4.94</ele>
        <time>2017-05-05T13:46:52Z</time>
      </trkpt>
      <trkpt lat="43.27095" lon="5.30045">
        <ele>3.98</ele>
        <time>2017-05-05T13:46:56Z</time>
      </trkpt>
      <trkpt lat="43.27102" lon="5.30054">
        <ele>4.94</ele>
        <time>2017-05-05T13:47:07Z</time>
      </trkpt>
      <trkpt lat="43.2711" lon="5.30056">
        <ele>4.94</ele>
        <time>2017-05-05T13:47:19Z</time>
      </trkpt>
      <trkpt lat="43.27116" lon="5.30052">
        <ele>3.02</ele>
        <time>2017-05-05T13:47:28Z</time>
      </trkpt>
      <trkpt lat="43.27123" lon="5.30053">
        <ele>3.02</ele>
        <time>2017-05-05T13:47:33Z</time>
      </trkpt>
      <trkpt lat="43.27127" lon="5.30056">
        <ele>2.54</ele>
        <time>2017-05-05T13:47:38Z</time>
      </trkpt>
      <trkpt lat="43.27134" lon="5.30056">
        <ele>3.5</ele>
        <time>2017-05-05T13:47:50Z</time>
      </trkpt>
      <trkpt lat="43.27141" lon="5.30059">
        <ele>3.98</ele>
        <time>2017-05-05T13:47:57Z</time>
      </trkpt>
      <trkpt lat="43.27145" lon="5.30058">
        <ele>3.98</ele>
        <time>2017-05-05T13:48:01Z</time>
      </trkpt>
      <trkpt lat="43.27151" lon="5.30065">
        <ele>3.98</ele>
        <time>2017-05-05T13:48:14Z</time>
      </trkpt>
      <trkpt lat="43.27153" lon="5.3007">
        <ele>3.5</ele>
        <time>2017-05-05T13:48:18Z</time>
      </trkpt>
      <trkpt lat="43.27163" lon="5.30082">
        <ele>3.02</ele>
        <time>2017-05-05T13:48:32Z</time>
      </trkpt>
      <trkpt lat="43.27166" lon="5.30083">
        <ele>3.5</ele>
        <time>2017-05-05T13:48:43Z</time>
      </trkpt>
      <trkpt lat="43.27166" lon="5.30086">
        <ele>3.5</ele>
        <time>2017-05-05T13:48:45Z</time>
      </trkpt>
      <trkpt lat="43.27167" lon="5.30092">
        <ele>3.02</ele>
        <time>2017-05-05T13:48:48Z</time>
      </trkpt>
      <trkpt lat="43.27174" lon="5.30115">
        <ele>3.5</ele>
        <time>2017-05-05T13:49:03Z</time>
      </trkpt>
      <trkpt lat="43.27179" lon="5.30125">
        <ele>3.98</ele>
        <time>2017-05-05T13:49:13Z</time>
      </trkpt>
      <trkpt lat="43.27182" lon="5.30127">
        <ele>4.46</ele>
        <time>2017-05-05T13:49:15Z</time>
      </trkpt>
      <trkpt lat="43.27188" lon="5.3013">
        <ele>4.46</ele>
        <time>2017-05-05T13:49:22Z</time>
      </trkpt>
      <trkpt lat="43.27193" lon="5.30131">
        <ele>5.42</ele>
        <time>2017-05-05T13:49:29Z</time>
      </trkpt>
      <trkpt lat="43.27194" lon="5.30128">
        <ele>6.87</ele>
        <time>2017-05-05T13:49:32Z</time>
      </trkpt>
      <trkpt lat="43.27194" lon="5.30127">
        <ele>6.87</ele>
        <time>2017-05-05T13:49:33Z</time>
      </trkpt>
      <trkpt lat="43.27194" lon="5.30124">
        <ele>7.35</ele>
        <time>2017-05-05T13:49:36Z</time>
      </trkpt>
      <trkpt lat="43.27194" lon="5.30121">
        <ele>6.87</ele>
        <time>2017-05-05T13:49:38Z</time>
      </trkpt>
      <trkpt lat="43.27193" lon="5.30117">
        <ele>7.35</ele>
        <time>2017-05-05T13:49:41Z</time>
      </trkpt>
      <trkpt lat="43.27197" lon="5.30103">
        <ele>8.31</ele>
        <time>2017-05-05T13:49:51Z</time>
      </trkpt>
      <trkpt lat="43.27204" lon="5.30096">
        <ele>7.83</ele>
        <time>2017-05-05T13:49:57Z</time>
      </trkpt>
      <trkpt lat="43.2721" lon="5.30098">
        <ele>7.35</ele>
        <time>2017-05-05T13:50:02Z</time>
      </trkpt>
      <trkpt lat="43.27221" lon="5.30107">
        <ele>8.79</ele>
        <time>2017-05-05T13:50:14Z</time>
      </trkpt>
      <trkpt lat="43.27222" lon="5.30108">
        <ele>8.79</ele>
        <time>2017-05-05T13:50:15Z</time>
      </trkpt>
      <trkpt lat="43.27226" lon="5.30115">
        <ele>10.23</ele>
        <time>2017-05-05T13:50:20Z</time>
      </trkpt>
      <trkpt lat="43.2723" lon="5.30121">
        <ele>9.27</ele>
        <time>2017-05-05T13:50:26Z</time>
      </trkpt>
      <trkpt lat="43.27233" lon="5.30124">
        <ele>9.27</ele>
        <time>2017-05-05T13:50:29Z</time>
      </trkpt>
      <trkpt lat="43.27234" lon="5.30127">
        <ele>9.27</ele>
        <time>2017-05-05T13:50:31Z</time>
      </trkpt>
      <trkpt lat="43.27236" lon="5.3013">
        <ele>9.27</ele>
        <time>2017-05-05T13:50:34Z</time>
      </trkpt>
      <trkpt lat="43.2725" lon="5.30138">
        <ele>12.15</ele>
        <time>2017-05-05T13:50:48Z</time>
      </trkpt>
      <trkpt lat="43.27253" lon="5.30139">
        <ele>12.63</ele>
        <time>2017-05-05T13:50:50Z</time>
      </trkpt>
      <trkpt lat="43.27268" lon="5.3014">
        <ele>15.52</ele>
        <time>2017-05-05T13:51:04Z</time>
      </trkpt>
      <trkpt lat="43.27269" lon="5.3014">
        <ele>12.15</ele>
        <time>2017-05-05T13:51:07Z</time>
      </trkpt>
      <trkpt lat="43.27269" lon="5.3014">
        <ele>13.6</ele>
        <time>2017-05-05T13:51:08Z</time>
      </trkpt>
      <trkpt lat="43.27269" lon="5.30141">
        <ele>16.48</ele>
        <time>2017-05-05T13:51:10Z</time>
      </trkpt>
      <trkpt lat="43.27269" lon="5.30141">
        <ele>16.96</ele>
        <time>2017-05-05T13:51:11Z</time>
      </trkpt>
      <trkpt lat="43.27271" lon="5.30139">
        <ele>16.48</ele>
        <time>2017-05-05T13:51:14Z</time>
      </trkpt>
      <trkpt lat="43.27274" lon="5.30137">
        <ele>15.04</ele>
        <time>2017-05-05T13:51:16Z</time>
      </trkpt>
      <trkpt lat="43.27289" lon="5.30131">
        <ele>16.48</ele>
        <time>2017-05-05T13:51:29Z</time>
      </trkpt>
      <trkpt lat="43.27308" lon="5.30133">
        <ele>17.44</ele>
        <time>2017-05-05T13:51:45Z</time>
      </trkpt>
      <trkpt lat="43.27312" lon="5.30133">
        <ele>18.4</ele>
        <time>2017-05-05T13:51:48Z</time>
      </trkpt>
      <trkpt lat="43.27318" lon="5.30141">
        <ele>18.88</ele>
        <time>2017-05-05T13:51:56Z</time>
      </trkpt>
      <trkpt lat="43.27319" lon="5.30161">
        <ele>18.88</ele>
        <time>2017-05-05T13:52:07Z</time>
      </trkpt>
      <trkpt lat="43.27322" lon="5.30173">
        <ele>19.36</ele>
        <time>2017-05-05T13:52:15Z</time>
      </trkpt>
      <trkpt lat="43.27325" lon="5.3018">
        <ele>20.32</ele>
        <time>2017-05-05T13:52:21Z</time>
      </trkpt>
      <trkpt lat="43.27334" lon="5.30195">
        <ele>20.32</ele>
        <time>2017-05-05T13:52:33Z</time>
      </trkpt>
      <trkpt lat="43.27346" lon="5.30205">
        <ele>21.29</ele>
        <time>2017-05-05T13:52:45Z</time>
      </trkpt>
      <trkpt lat="43.2736" lon="5.3021">
        <ele>22.25</ele>
        <time>2017-05-05T13:52:58Z</time>
      </trkpt>
      <trkpt lat="43.27373" lon="5.30213">
        <ele>22.73</ele>
        <time>2017-05-05T13:53:10Z</time>
      </trkpt>
      <trkpt lat="43.27374" lon="5.30213">
        <ele>22.73</ele>
        <time>2017-05-05T13:53:11Z</time>
      </trkpt>
      <trkpt lat="43.27376" lon="5.30214">
        <ele>22.73</ele>
        <time>2017-05-05T13:53:13Z</time>
      </trkpt>
      <trkpt lat="43.27381" lon="5.30215">
        <ele>22.73</ele>
        <time>2017-05-05T13:53:18Z</time>
      </trkpt>
      <trkpt lat="43.2739" lon="5.30223">
        <ele>22.73</ele>
        <time>2017-05-05T13:53:29Z</time>
      </trkpt>
      <trkpt lat="43.27393" lon="5.30228">
        <ele>22.73</ele>
        <time>2017-05-05T13:53:33Z</time>
      </trkpt>
      <trkpt lat="43.27395" lon="5.30237">
        <ele>22.73</ele>
        <time>2017-05-05T13:53:39Z</time>
      </trkpt>
      <trkpt lat="43.27395" lon="5.3024">
        <ele>22.73</ele>
        <time>2017-05-05T13:53:41Z</time>
      </trkpt>
      <trkpt lat="43.27394" lon="5.30249">
        <ele>22.73</ele>
        <time>2017-05-05T13:53:55Z</time>
      </trkpt>
      <trkpt lat="43.27392" lon="5.30256">
        <ele>22.73</ele>
        <time>2017-05-05T13:54:01Z</time>
      </trkpt>
      <trkpt lat="43.27389" lon="5.30263">
        <ele>22.73</ele>
        <time>2017-05-05T13:54:08Z</time>
      </trkpt>
      <trkpt lat="43.2739" lon="5.3027">
        <ele>22.73</ele>
        <time>2017-05-05T13:54:12Z</time>
      </trkpt>
      <trkpt lat="43.27389" lon="5.30289">
        <ele>22.25</ele>
        <time>2017-05-05T13:54:25Z</time>
      </trkpt>
      <trkpt lat="43.27389" lon="5.30291">
        <ele>22.73</ele>
        <time>2017-05-05T13:54:26Z</time>
      </trkpt>
      <trkpt lat="43.27391" lon="5.303">
        <ele>22.73</ele>
        <time>2017-05-05T13:54:32Z</time>
      </trkpt>
      <trkpt lat="43.27394" lon="5.3031">
        <ele>22.73</ele>
        <time>2017-05-05T13:54:39Z</time>
      </trkpt>
      <trkpt lat="43.27397" lon="5.30315">
        <ele>23.21</ele>
        <time>2017-05-05T13:54:43Z</time>
      </trkpt>
      <trkpt lat="43.274" lon="5.30334">
        <ele>23.21</ele>
        <time>2017-05-05T13:54:56Z</time>
      </trkpt>
      <trkpt lat="43.27397" lon="5.3035">
        <ele>23.21</ele>
        <time>2017-05-05T13:55:07Z</time>
      </trkpt>
      <trkpt lat="43.27397" lon="5.30352">
        <ele>23.69</ele>
        <time>2017-05-05T13:55:08Z</time>
      </trkpt>
      <trkpt lat="43.27396" lon="5.30361">
        <ele>23.69</ele>
        <time>2017-05-05T13:55:14Z</time>
      </trkpt>
      <trkpt lat="43.27402" lon="5.30374">
        <ele>23.21</ele>
        <time>2017-05-05T13:55:24Z</time>
      </trkpt>
      <trkpt lat="43.27406" lon="5.30376">
        <ele>22.73</ele>
        <time>2017-05-05T13:55:28Z</time>
      </trkpt>
      <trkpt lat="43.2741" lon="5.30377">
        <ele>22.73</ele>
        <time>2017-05-05T13:55:33Z</time>
      </trkpt>
      <trkpt lat="43.2742" lon="5.30367">
        <ele>22.73</ele>
        <time>2017-05-05T13:55:45Z</time>
      </trkpt>
      <trkpt lat="43.2742" lon="5.30366">
        <ele>22.25</ele>
        <time>2017-05-05T13:55:46Z</time>
      </trkpt>
      <trkpt lat="43.27423" lon="5.30363">
        <ele>22.25</ele>
        <time>2017-05-05T13:55:50Z</time>
      </trkpt>
      <trkpt lat="43.27434" lon="5.30349">
        <ele>21.77</ele>
        <time>2017-05-05T13:56:03Z</time>
      </trkpt>
      <trkpt lat="43.2745" lon="5.30346">
        <ele>21.29</ele>
        <time>2017-05-05T13:56:17Z</time>
      </trkpt>
      <trkpt lat="43.27457" lon="5.30341">
        <ele>20.81</ele>
        <time>2017-05-05T13:56:25Z</time>
      </trkpt>
      <trkpt lat="43.27463" lon="5.30323">
        <ele>20.32</ele>
        <time>2017-05-05T13:56:39Z</time>
      </trkpt>
      <trkpt lat="43.2748" lon="5.30321">
        <ele>20.32</ele>
        <time>2017-05-05T13:56:53Z</time>
      </trkpt>
      <trkpt lat="43.27489" lon="5.30323">
        <ele>19.36</ele>
        <time>2017-05-05T13:57:01Z</time>
      </trkpt>
      <trkpt lat="43.27491" lon="5.30324">
        <ele>19.36</ele>
        <time>2017-05-05T13:57:03Z</time>
      </trkpt>
      <trkpt lat="43.27507" lon="5.30323">
        <ele>18.88</ele>
        <time>2017-05-05T13:57:17Z</time>
      </trkpt>
      <trkpt lat="43.27524" lon="5.30319">
        <ele>18.4</ele>
        <time>2017-05-05T13:57:32Z</time>
      </trkpt>
      <trkpt lat="43.27533" lon="5.30318">
        <ele>18.4</ele>
        <time>2017-05-05T13:57:39Z</time>
      </trkpt>
      <trkpt lat="43.27546" lon="5.30322">
        <ele>17.92</ele>
        <time>2017-05-05T13:57:50Z</time>
      </trkpt>
      <trkpt lat="43.27554" lon="5.30343">
        <ele>16.96</ele>
        <time>2017-05-05T13:58:04Z</time>
      </trkpt>
      <trkpt lat="43.27563" lon="5.30358">
        <ele>15.04</ele>
        <time>2017-05-05T13:58:16Z</time>
      </trkpt>
      <trkpt lat="43.27564" lon="5.30362">
        <ele>15.04</ele>
        <time>2017-05-05T13:58:18Z</time>
      </trkpt>
      <trkpt lat="43.27565" lon="5.30366">
        <ele>14.56</ele>
        <time>2017-05-05T13:58:21Z</time>
      </trkpt>
      <trkpt lat="43.27569" lon="5.30374">
        <ele>13.12</ele>
        <time>2017-05-05T13:58:27Z</time>
      </trkpt>
      <trkpt lat="43.27576" lon="5.3039">
        <ele>11.19</ele>
        <time>2017-05-05T13:58:40Z</time>
      </trkpt>
      <trkpt lat="43.2758" lon="5.30393">
        <ele>10.23</ele>
        <time>2017-05-05T13:58:44Z</time>
      </trkpt>
      <trkpt lat="43.27582" lon="5.30395">
        <ele>9.75</ele>
        <time>2017-05-05T13:58:46Z</time>
      </trkpt>
      <trkpt lat="43.27585" lon="5.30398">
        <ele>9.27</ele>
        <time>2017-05-05T13:58:50Z</time>
      </trkpt>
      <trkpt lat="43.2759" lon="5.30398">
        <ele>8.79</ele>
        <time>2017-05-05T13:58:54Z</time>
      </trkpt>
      <trkpt lat="43.27602" lon="5.30399">
        <ele>7.83</ele>
        <time>2017-05-05T13:59:09Z</time>
      </trkpt>
      <trkpt lat="43.27605" lon="5.30399">
        <ele>7.83</ele>
        <time>2017-05-05T13:59:15Z</time>
      </trkpt>
      <trkpt lat="43.2761" lon="5.30399">
        <ele>6.87</ele>
        <time>2017-05-05T13:59:20Z</time>
      </trkpt>
      <trkpt lat="43.27621" lon="5.30396">
        <ele>5.42</ele>
        <time>2017-05-05T13:59:32Z</time>
      </trkpt>
      <trkpt lat="43.27632" lon="5.30399">
        <ele>3.98</ele>
        <time>2017-05-05T13:59:43Z</time>
      </trkpt>
      <trkpt lat="43.27637" lon="5.30402">
        <ele>3.98</ele>
        <time>2017-05-05T13:59:48Z</time>
      </trkpt>
      <trkpt lat="43.27642" lon="5.30402">
        <ele>3.02</ele>
        <time>2017-05-05T13:59:52Z</time>
      </trkpt>
      <trkpt lat="43.27657" lon="5.30402">
        <ele>2.54</ele>
        <time>2017-05-05T14:00:07Z</time>
      </trkpt>
      <trkpt lat="43.27673" lon="5.30397">
        <ele>2.54</ele>
        <time>2017-05-05T14:00:22Z</time>
      </trkpt>
      <trkpt lat="43.27674" lon="5.30397">
        <ele>2.54</ele>
        <time>2017-05-05T14:00:23Z</time>
      </trkpt>
      <trkpt lat="43.27687" lon="5.30393">
        <ele>2.54</ele>
        <time>2017-05-05T14:00:35Z</time>
      </trkpt>
      <trkpt lat="43.27696" lon="5.3039">
        <ele>2.54</ele>
        <time>2017-05-05T14:00:43Z</time>
      </trkpt>
      <trkpt lat="43.27706" lon="5.30389">
        <ele>2.54</ele>
        <time>2017-05-05T14:00:52Z</time>
      </trkpt>
      <trkpt lat="43.2771" lon="5.30387">
        <ele>2.06</ele>
        <time>2017-05-05T14:00:57Z</time>
      </trkpt>
      <trkpt lat="43.2772" lon="5.30386">
        <ele>2.06</ele>
        <time>2017-05-05T14:01:08Z</time>
      </trkpt>
      <trkpt lat="43.2773" lon="5.30382">
        <ele>2.06</ele>
        <time>2017-05-05T14:01:15Z</time>
      </trkpt>
      <trkpt lat="43.27732" lon="5.30381">
        <ele>2.06</ele>
        <time>2017-05-05T14:01:18Z</time>
      </trkpt>
      <trkpt lat="43.27738" lon="5.30378">
        <ele>2.06</ele>
        <time>2017-05-05T14:01:25Z</time>
      </trkpt>
      <trkpt lat="43.27753" lon="5.3037">
        <ele>0.62</ele>
        <time>2017-05-05T14:01:38Z</time>
      </trkpt>
      <trkpt lat="43.27762" lon="5.30368">
        <ele>2.54</ele>
        <time>2017-05-05T14:01:46Z</time>
      </trkpt>
      <trkpt lat="43.27767" lon="5.30367">
        <ele>2.54</ele>
        <time>2017-05-05T14:01:50Z</time>
      </trkpt>
      <trkpt lat="43.2778" lon="5.30364">
        <ele>2.06</ele>
        <time>2017-05-05T14:02:02Z</time>
      </trkpt>
      <trkpt lat="43.27783" lon="5.30362">
        <ele>2.54</ele>
        <time>2017-05-05T14:02:05Z</time>
      </trkpt>
      <trkpt lat="43.27785" lon="5.30362">
        <ele>2.54</ele>
        <time>2017-05-05T14:02:07Z</time>
      </trkpt>
      <trkpt lat="43.27791" lon="5.30361">
        <ele>2.54</ele>
        <time>2017-05-05T14:02:11Z</time>
      </trkpt>
      <trkpt lat="43.27807" lon="5.30358">
        <ele>2.06</ele>
        <time>2017-05-05T14:02:25Z</time>
      </trkpt>
      <trkpt lat="43.27809" lon="5.30358">
        <ele>2.06</ele>
        <time>2017-05-05T14:02:27Z</time>
      </trkpt>
      <trkpt lat="43.27825" lon="5.30355">
        <ele>1.58</ele>
        <time>2017-05-05T14:02:41Z</time>
      </trkpt>
      <trkpt lat="43.27839" lon="5.30353">
        <ele>2.06</ele>
        <time>2017-05-05T14:02:53Z</time>
      </trkpt>
      <trkpt lat="43.27858" lon="5.30349">
        <ele>1.58</ele>
        <time>2017-05-05T14:03:08Z</time>
      </trkpt>
      <trkpt lat="43.27871" lon="5.30345">
        <ele>2.06</ele>
        <time>2017-05-05T14:03:20Z</time>
      </trkpt>
      <trkpt lat="43.2788" lon="5.30345">
        <ele>2.06</ele>
        <time>2017-05-05T14:03:28Z</time>
      </trkpt>
      <trkpt lat="43.27882" lon="5.30348">
        <ele>2.06</ele>
        <time>2017-05-05T14:03:31Z</time>
      </trkpt>
      <trkpt lat="43.27886" lon="5.30354">
        <ele>2.06</ele>
        <time>2017-05-05T14:03:37Z</time>
      </trkpt>
      <trkpt lat="43.27885" lon="5.30361">
        <ele>1.1</ele>
        <time>2017-05-05T14:03:52Z</time>
      </trkpt>
      <trkpt lat="43.27885" lon="5.30362">
        <ele>1.1</ele>
        <time>2017-05-05T14:04:08Z</time>
      </trkpt>
      <trkpt lat="43.27886" lon="5.30363">
        <ele>1.1</ele>
        <time>2017-05-05T14:04:10Z</time>
      </trkpt>
      <trkpt lat="43.27886" lon="5.30379">
        <ele>1.58</ele>
        <time>2017-05-05T14:04:22Z</time>
      </trkpt>
      <trkpt lat="43.27889" lon="5.3039">
        <ele>1.58</ele>
        <time>2017-05-05T14:04:29Z</time>
      </trkpt>
      <trkpt lat="43.2789" lon="5.30395">
        <ele>1.58</ele>
        <time>2017-05-05T14:04:33Z</time>
      </trkpt>
      <trkpt lat="43.27891" lon="5.30399">
        <ele>1.58</ele>
        <time>2017-05-05T14:04:35Z</time>
      </trkpt>
      <trkpt lat="43.27896" lon="5.30423">
        <ele>2.06</ele>
        <time>2017-05-05T14:04:50Z</time>
      </trkpt>
      <trkpt lat="43.27899" lon="5.30436">
        <ele>2.06</ele>
        <time>2017-05-05T14:05:02Z</time>
      </trkpt>
      <trkpt lat="43.27899" lon="5.30452">
        <ele>2.06</ele>
        <time>2017-05-05T14:05:17Z</time>
      </trkpt>
      <trkpt lat="43.279" lon="5.30466">
        <ele>1.58</ele>
        <time>2017-05-05T14:05:30Z</time>
      </trkpt>
      <trkpt lat="43.27903" lon="5.3048">
        <ele>1.58</ele>
        <time>2017-05-05T14:05:41Z</time>
      </trkpt>
      <trkpt lat="43.27903" lon="5.30481">
        <ele>1.58</ele>
        <time>2017-05-05T14:05:42Z</time>
      </trkpt>
      <trkpt lat="43.27903" lon="5.30486">
        <ele>1.58</ele>
        <time>2017-05-05T14:05:46Z</time>
      </trkpt>
      <trkpt lat="43.27904" lon="5.30497">
        <ele>2.06</ele>
        <time>2017-05-05T14:05:55Z</time>
      </trkpt>
      <trkpt lat="43.27903" lon="5.30501">
        <ele>2.06</ele>
        <time>2017-05-05T14:05:58Z</time>
      </trkpt>
      <trkpt lat="43.27903" lon="5.30509">
        <ele>2.06</ele>
        <time>2017-05-05T14:06:05Z</time>
      </trkpt>
      <trkpt lat="43.27906" lon="5.30527">
        <ele>1.58</ele>
        <time>2017-05-05T14:06:19Z</time>
      </trkpt>
      <trkpt lat="43.27906" lon="5.30543">
        <ele>1.58</ele>
        <time>2017-05-05T14:06:31Z</time>
      </trkpt>
      <trkpt lat="43.27906" lon="5.3055">
        <ele>1.58</ele>
        <time>2017-05-05T14:06:45Z</time>
      </trkpt>
      <trkpt lat="43.27909" lon="5.30564">
        <ele>1.58</ele>
        <time>2017-05-05T14:06:55Z</time>
      </trkpt>
      <trkpt lat="43.27909" lon="5.30584">
        <ele>1.58</ele>
        <time>2017-05-05T14:07:10Z</time>
      </trkpt>
      <trkpt lat="43.27908" lon="5.30596">
        <ele>2.06</ele>
        <time>2017-05-05T14:07:19Z</time>
      </trkpt>
      <trkpt lat="43.27909" lon="5.30604">
        <ele>1.58</ele>
        <time>2017-05-05T14:07:25Z</time>
      </trkpt>
      <trkpt lat="43.2791" lon="5.30609">
        <ele>1.1</ele>
        <time>2017-05-05T14:07:29Z</time>
      </trkpt>
      <trkpt lat="43.27911" lon="5.30617">
        <ele>1.1</ele>
        <time>2017-05-05T14:07:34Z</time>
      </trkpt>
      <trkpt lat="43.27913" lon="5.30624">
        <ele>1.1</ele>
        <time>2017-05-05T14:07:39Z</time>
      </trkpt>
      <trkpt lat="43.27927" lon="5.30637">
        <ele>1.1</ele>
        <time>2017-05-05T14:07:55Z</time>
      </trkpt>
      <trkpt lat="43.27933" lon="5.30642">
        <ele>0.62</ele>
        <time>2017-05-05T14:08:08Z</time>
      </trkpt>
      <trkpt lat="43.27933" lon="5.30643">
        <ele>-0.34</ele>
        <time>2017-05-05T14:08:30Z</time>
      </trkpt>
      <trkpt lat="43.27932" lon="5.30643">
        <ele>0.14</ele>
        <time>2017-05-05T14:09:09Z</time>
      </trkpt>
      <trkpt lat="43.27932" lon="5.30644">
        <ele>-0.34</ele>
        <time>2017-05-05T14:09:45Z</time>
      </trkpt>
      <trkpt lat="43.27932" lon="5.30644">
        <ele>-0.34</ele>
        <time>2017-05-05T14:10:24Z</time>
      </trkpt>
      <trkpt lat="43.27932" lon="5.30645">
        <ele>-0.34</ele>
        <time>2017-05-05T14:11:00Z</time>
      </trkpt>
      <trkpt lat="43.27932" lon="5.30644">
        <ele>1.1</ele>
        <time>2017-05-05T14:11:28Z</time>
      </trkpt>
    </trkseg>
  </trk>
</gpx>